<?xml version="1.0" encoding="UTF-8" standalone="no" ?>
<gpx xmlns="http://www.topografix.com/GPX/1/1" xmlns:xsi="http://www.w3.org/2001/XMLSchema-instance" xsi:schemaLocation="http://www.topografix.com/GPX/1/1 http://www.topografix.com/GPX/1/1/gpx.xsd" version="1.1" creator="VisuGPX - https://www.visugpx.com">
  <metadata>
    <name>Les îles éoliennes 02</name>
    <desc><![CDATA[le retour des îles les volcans les dauphins
la balade à Palerme]]></desc>
  </metadata>
  <trk>
    <name><![CDATA[Tracé actuel: 21 AVR 2018 14:52]]></name>
    <trkseg>
      <trkpt lat="38.10989" lon="13.36521">
        <ele>30.42</ele>
        <time>2018-04-21T12:52:28Z</time>
      </trkpt>
      <trkpt lat="38.10999" lon="13.36521">
        <ele>39.07</ele>
        <time>2018-04-21T12:52:34Z</time>
      </trkpt>
      <trkpt lat="38.11" lon="13.36518">
        <ele>40.99</ele>
        <time>2018-04-21T12:52:37Z</time>
      </trkpt>
      <trkpt lat="38.1101" lon="13.36512">
        <ele>53.49</ele>
        <time>2018-04-21T12:52:52Z</time>
      </trkpt>
      <trkpt lat="38.1101" lon="13.36512">
        <ele>54.93</ele>
        <time>2018-04-21T12:52:54Z</time>
      </trkpt>
      <trkpt lat="38.1102" lon="13.36505">
        <ele>53.49</ele>
        <time>2018-04-21T12:53:07Z</time>
      </trkpt>
      <trkpt lat="38.11039" lon="13.36491">
        <ele>56.37</ele>
        <time>2018-04-21T12:53:27Z</time>
      </trkpt>
      <trkpt lat="38.11055" lon="13.36479">
        <ele>58.78</ele>
        <time>2018-04-21T12:53:45Z</time>
      </trkpt>
      <trkpt lat="38.11061" lon="13.36474">
        <ele>58.78</ele>
        <time>2018-04-21T12:53:52Z</time>
      </trkpt>
      <trkpt lat="38.11068" lon="13.36466">
        <ele>59.26</ele>
        <time>2018-04-21T12:54:03Z</time>
      </trkpt>
      <trkpt lat="38.11084" lon="13.36459">
        <ele>58.78</ele>
        <time>2018-04-21T12:54:21Z</time>
      </trkpt>
      <trkpt lat="38.11092" lon="13.36444">
        <ele>57.34</ele>
        <time>2018-04-21T12:54:38Z</time>
      </trkpt>
      <trkpt lat="38.11105" lon="13.36432">
        <ele>56.86</ele>
        <time>2018-04-21T12:54:54Z</time>
      </trkpt>
      <trkpt lat="38.11122" lon="13.36422">
        <ele>58.78</ele>
        <time>2018-04-21T12:55:11Z</time>
      </trkpt>
      <trkpt lat="38.11143" lon="13.36416">
        <ele>61.66</ele>
        <time>2018-04-21T12:55:30Z</time>
      </trkpt>
      <trkpt lat="38.11157" lon="13.36408">
        <ele>62.62</ele>
        <time>2018-04-21T12:55:48Z</time>
      </trkpt>
      <trkpt lat="38.11174" lon="13.36398">
        <ele>63.58</ele>
        <time>2018-04-21T12:56:05Z</time>
      </trkpt>
      <trkpt lat="38.11189" lon="13.36389">
        <ele>63.1</ele>
        <time>2018-04-21T12:56:22Z</time>
      </trkpt>
      <trkpt lat="38.11203" lon="13.36379">
        <ele>63.58</ele>
        <time>2018-04-21T12:56:38Z</time>
      </trkpt>
      <trkpt lat="38.11209" lon="13.36376">
        <ele>64.07</ele>
        <time>2018-04-21T12:56:55Z</time>
      </trkpt>
      <trkpt lat="38.11226" lon="13.36362">
        <ele>65.03</ele>
        <time>2018-04-21T12:57:12Z</time>
      </trkpt>
      <trkpt lat="38.11244" lon="13.3635">
        <ele>65.51</ele>
        <time>2018-04-21T12:57:30Z</time>
      </trkpt>
      <trkpt lat="38.11256" lon="13.3634">
        <ele>65.51</ele>
        <time>2018-04-21T12:57:47Z</time>
      </trkpt>
      <trkpt lat="38.1127" lon="13.36325">
        <ele>65.99</ele>
        <time>2018-04-21T12:58:07Z</time>
      </trkpt>
      <trkpt lat="38.11285" lon="13.36318">
        <ele>65.99</ele>
        <time>2018-04-21T12:58:24Z</time>
      </trkpt>
      <trkpt lat="38.11309" lon="13.36322">
        <ele>64.55</ele>
        <time>2018-04-21T12:58:42Z</time>
      </trkpt>
      <trkpt lat="38.11315" lon="13.36315">
        <ele>65.51</ele>
        <time>2018-04-21T12:58:51Z</time>
      </trkpt>
      <trkpt lat="38.11331" lon="13.36301">
        <ele>67.43</ele>
        <time>2018-04-21T12:59:11Z</time>
      </trkpt>
      <trkpt lat="38.11334" lon="13.36302">
        <ele>68.87</ele>
        <time>2018-04-21T12:59:22Z</time>
      </trkpt>
      <trkpt lat="38.11332" lon="13.36294">
        <ele>68.87</ele>
        <time>2018-04-21T12:59:37Z</time>
      </trkpt>
      <trkpt lat="38.11327" lon="13.36276">
        <ele>67.43</ele>
        <time>2018-04-21T12:59:49Z</time>
      </trkpt>
      <trkpt lat="38.11328" lon="13.36263">
        <ele>67.91</ele>
        <time>2018-04-21T12:59:59Z</time>
      </trkpt>
      <trkpt lat="38.11334" lon="13.36252">
        <ele>61.18</ele>
        <time>2018-04-21T13:00:11Z</time>
      </trkpt>
      <trkpt lat="38.11338" lon="13.36243">
        <ele>62.62</ele>
        <time>2018-04-21T13:00:20Z</time>
      </trkpt>
      <trkpt lat="38.11346" lon="13.36235">
        <ele>69.83</ele>
        <time>2018-04-21T13:00:34Z</time>
      </trkpt>
      <trkpt lat="38.11349" lon="13.3623">
        <ele>70.79</ele>
        <time>2018-04-21T13:00:50Z</time>
      </trkpt>
      <trkpt lat="38.11352" lon="13.36226">
        <ele>71.27</ele>
        <time>2018-04-21T13:00:58Z</time>
      </trkpt>
      <trkpt lat="38.1136" lon="13.36222">
        <ele>71.76</ele>
        <time>2018-04-21T13:01:09Z</time>
      </trkpt>
      <trkpt lat="38.11363" lon="13.36217">
        <ele>71.27</ele>
        <time>2018-04-21T13:01:27Z</time>
      </trkpt>
      <trkpt lat="38.11365" lon="13.36218">
        <ele>70.31</ele>
        <time>2018-04-21T13:01:37Z</time>
      </trkpt>
      <trkpt lat="38.11379" lon="13.36208">
        <ele>75.12</ele>
        <time>2018-04-21T13:01:52Z</time>
      </trkpt>
      <trkpt lat="38.11381" lon="13.3621">
        <ele>75.6</ele>
        <time>2018-04-21T13:01:54Z</time>
      </trkpt>
      <trkpt lat="38.11384" lon="13.36212">
        <ele>74.64</ele>
        <time>2018-04-21T13:02:06Z</time>
      </trkpt>
      <trkpt lat="38.11385" lon="13.3621">
        <ele>73.2</ele>
        <time>2018-04-21T13:02:19Z</time>
      </trkpt>
      <trkpt lat="38.11389" lon="13.36211">
        <ele>72.24</ele>
        <time>2018-04-21T13:02:28Z</time>
      </trkpt>
      <trkpt lat="38.11391" lon="13.36217">
        <ele>71.27</ele>
        <time>2018-04-21T13:02:35Z</time>
      </trkpt>
      <trkpt lat="38.11393" lon="13.36218">
        <ele>71.27</ele>
        <time>2018-04-21T13:02:37Z</time>
      </trkpt>
      <trkpt lat="38.11397" lon="13.36225">
        <ele>67.91</ele>
        <time>2018-04-21T13:02:48Z</time>
      </trkpt>
      <trkpt lat="38.11406" lon="13.36237">
        <ele>74.16</ele>
        <time>2018-04-21T13:03:05Z</time>
      </trkpt>
      <trkpt lat="38.11409" lon="13.36244">
        <ele>72.72</ele>
        <time>2018-04-21T13:03:18Z</time>
      </trkpt>
      <trkpt lat="38.11412" lon="13.36245">
        <ele>70.31</ele>
        <time>2018-04-21T13:03:35Z</time>
      </trkpt>
      <trkpt lat="38.11421" lon="13.36239">
        <ele>70.79</ele>
        <time>2018-04-21T13:03:49Z</time>
      </trkpt>
      <trkpt lat="38.11433" lon="13.36235">
        <ele>72.24</ele>
        <time>2018-04-21T13:04:03Z</time>
      </trkpt>
      <trkpt lat="38.1144" lon="13.36231">
        <ele>74.16</ele>
        <time>2018-04-21T13:04:24Z</time>
      </trkpt>
      <trkpt lat="38.11445" lon="13.36233">
        <ele>75.6</ele>
        <time>2018-04-21T13:04:46Z</time>
      </trkpt>
      <trkpt lat="38.11443" lon="13.36225">
        <ele>75.6</ele>
        <time>2018-04-21T13:05:00Z</time>
      </trkpt>
      <trkpt lat="38.11447" lon="13.36223">
        <ele>75.12</ele>
        <time>2018-04-21T13:05:13Z</time>
      </trkpt>
      <trkpt lat="38.11454" lon="13.36222">
        <ele>72.72</ele>
        <time>2018-04-21T13:05:22Z</time>
      </trkpt>
      <trkpt lat="38.11456" lon="13.36222">
        <ele>72.72</ele>
        <time>2018-04-21T13:05:25Z</time>
      </trkpt>
      <trkpt lat="38.1146" lon="13.36222">
        <ele>71.76</ele>
        <time>2018-04-21T13:05:34Z</time>
      </trkpt>
      <trkpt lat="38.11466" lon="13.3622">
        <ele>71.76</ele>
        <time>2018-04-21T13:05:46Z</time>
      </trkpt>
      <trkpt lat="38.11468" lon="13.36219">
        <ele>71.27</ele>
        <time>2018-04-21T13:06:04Z</time>
      </trkpt>
      <trkpt lat="38.11475" lon="13.36214">
        <ele>69.83</ele>
        <time>2018-04-21T13:06:19Z</time>
      </trkpt>
      <trkpt lat="38.11476" lon="13.36212">
        <ele>69.35</ele>
        <time>2018-04-21T13:06:21Z</time>
      </trkpt>
      <trkpt lat="38.1148" lon="13.36223">
        <ele>67.91</ele>
        <time>2018-04-21T13:06:29Z</time>
      </trkpt>
      <trkpt lat="38.11482" lon="13.36233">
        <ele>66.47</ele>
        <time>2018-04-21T13:06:36Z</time>
      </trkpt>
      <trkpt lat="38.11481" lon="13.36241">
        <ele>62.62</ele>
        <time>2018-04-21T13:06:49Z</time>
      </trkpt>
      <trkpt lat="38.11484" lon="13.36248">
        <ele>62.14</ele>
        <time>2018-04-21T13:06:59Z</time>
      </trkpt>
      <trkpt lat="38.11489" lon="13.3626">
        <ele>60.7</ele>
        <time>2018-04-21T13:07:13Z</time>
      </trkpt>
      <trkpt lat="38.1149" lon="13.36261">
        <ele>57.34</ele>
        <time>2018-04-21T13:07:26Z</time>
      </trkpt>
      <trkpt lat="38.1149" lon="13.36263">
        <ele>56.86</ele>
        <time>2018-04-21T13:07:28Z</time>
      </trkpt>
      <trkpt lat="38.11483" lon="13.36267">
        <ele>53.49</ele>
        <time>2018-04-21T13:07:41Z</time>
      </trkpt>
      <trkpt lat="38.11485" lon="13.36266">
        <ele>46.76</ele>
        <time>2018-04-21T13:08:07Z</time>
      </trkpt>
      <trkpt lat="38.11486" lon="13.36266">
        <ele>44.84</ele>
        <time>2018-04-21T13:08:21Z</time>
      </trkpt>
      <trkpt lat="38.11486" lon="13.36265">
        <ele>41.95</ele>
        <time>2018-04-21T13:08:36Z</time>
      </trkpt>
      <trkpt lat="38.11488" lon="13.36264">
        <ele>38.11</ele>
        <time>2018-04-21T13:08:49Z</time>
      </trkpt>
      <trkpt lat="38.11488" lon="13.36266">
        <ele>38.11</ele>
        <time>2018-04-21T13:09:02Z</time>
      </trkpt>
      <trkpt lat="38.11488" lon="13.36266">
        <ele>36.19</ele>
        <time>2018-04-21T13:09:14Z</time>
      </trkpt>
      <trkpt lat="38.11485" lon="13.36262">
        <ele>36.67</ele>
        <time>2018-04-21T13:09:27Z</time>
      </trkpt>
      <trkpt lat="38.11487" lon="13.36258">
        <ele>32.34</ele>
        <time>2018-04-21T13:09:41Z</time>
      </trkpt>
      <trkpt lat="38.11486" lon="13.36246">
        <ele>29.94</ele>
        <time>2018-04-21T13:09:54Z</time>
      </trkpt>
      <trkpt lat="38.1148" lon="13.36241">
        <ele>26.09</ele>
        <time>2018-04-21T13:10:05Z</time>
      </trkpt>
      <trkpt lat="38.11476" lon="13.36239">
        <ele>25.61</ele>
        <time>2018-04-21T13:10:15Z</time>
      </trkpt>
      <trkpt lat="38.11473" lon="13.36236">
        <ele>24.17</ele>
        <time>2018-04-21T13:10:21Z</time>
      </trkpt>
      <trkpt lat="38.11464" lon="13.36224">
        <ele>23.69</ele>
        <time>2018-04-21T13:10:39Z</time>
      </trkpt>
      <trkpt lat="38.11464" lon="13.36223">
        <ele>23.21</ele>
        <time>2018-04-21T13:10:57Z</time>
      </trkpt>
      <trkpt lat="38.11466" lon="13.36225">
        <ele>23.21</ele>
        <time>2018-04-21T13:11:08Z</time>
      </trkpt>
      <trkpt lat="38.11467" lon="13.36223">
        <ele>24.17</ele>
        <time>2018-04-21T13:11:25Z</time>
      </trkpt>
      <trkpt lat="38.11466" lon="13.3622">
        <ele>29.94</ele>
        <time>2018-04-21T13:11:45Z</time>
      </trkpt>
      <trkpt lat="38.11471" lon="13.36224">
        <ele>39.55</ele>
        <time>2018-04-21T13:11:58Z</time>
      </trkpt>
      <trkpt lat="38.11474" lon="13.36222">
        <ele>44.84</ele>
        <time>2018-04-21T13:12:07Z</time>
      </trkpt>
      <trkpt lat="38.11482" lon="13.36235">
        <ele>48.68</ele>
        <time>2018-04-21T13:12:19Z</time>
      </trkpt>
      <trkpt lat="38.11484" lon="13.36243">
        <ele>41.47</ele>
        <time>2018-04-21T13:12:34Z</time>
      </trkpt>
      <trkpt lat="38.11484" lon="13.36244">
        <ele>38.11</ele>
        <time>2018-04-21T13:12:46Z</time>
      </trkpt>
      <trkpt lat="38.11485" lon="13.36248">
        <ele>35.71</ele>
        <time>2018-04-21T13:12:49Z</time>
      </trkpt>
      <trkpt lat="38.11481" lon="13.3626">
        <ele>35.23</ele>
        <time>2018-04-21T13:12:59Z</time>
      </trkpt>
      <trkpt lat="38.11475" lon="13.36266">
        <ele>32.82</ele>
        <time>2018-04-21T13:13:10Z</time>
      </trkpt>
      <trkpt lat="38.11474" lon="13.36266">
        <ele>31.86</ele>
        <time>2018-04-21T13:13:22Z</time>
      </trkpt>
      <trkpt lat="38.11471" lon="13.36267">
        <ele>30.9</ele>
        <time>2018-04-21T13:13:42Z</time>
      </trkpt>
      <trkpt lat="38.1147" lon="13.36264">
        <ele>30.42</ele>
        <time>2018-04-21T13:14:00Z</time>
      </trkpt>
      <trkpt lat="38.11471" lon="13.36263">
        <ele>30.9</ele>
        <time>2018-04-21T13:14:22Z</time>
      </trkpt>
      <trkpt lat="38.1147" lon="13.36265">
        <ele>30.9</ele>
        <time>2018-04-21T13:14:41Z</time>
      </trkpt>
      <trkpt lat="38.11469" lon="13.36266">
        <ele>30.9</ele>
        <time>2018-04-21T13:15:03Z</time>
      </trkpt>
      <trkpt lat="38.11469" lon="13.36266">
        <ele>30.42</ele>
        <time>2018-04-21T13:15:25Z</time>
      </trkpt>
      <trkpt lat="38.11469" lon="13.36266">
        <ele>31.38</ele>
        <time>2018-04-21T13:15:40Z</time>
      </trkpt>
      <trkpt lat="38.11468" lon="13.36265">
        <ele>32.34</ele>
        <time>2018-04-21T13:16:11Z</time>
      </trkpt>
      <trkpt lat="38.11468" lon="13.36265">
        <ele>32.34</ele>
        <time>2018-04-21T13:16:42Z</time>
      </trkpt>
      <trkpt lat="38.11467" lon="13.36265">
        <ele>32.34</ele>
        <time>2018-04-21T13:17:07Z</time>
      </trkpt>
      <trkpt lat="38.11468" lon="13.36265">
        <ele>32.34</ele>
        <time>2018-04-21T13:17:38Z</time>
      </trkpt>
      <trkpt lat="38.11467" lon="13.36265">
        <ele>32.82</ele>
        <time>2018-04-21T13:17:57Z</time>
      </trkpt>
      <trkpt lat="38.11467" lon="13.36265">
        <ele>32.34</ele>
        <time>2018-04-21T13:18:20Z</time>
      </trkpt>
      <trkpt lat="38.11468" lon="13.36264">
        <ele>32.82</ele>
        <time>2018-04-21T13:18:45Z</time>
      </trkpt>
      <trkpt lat="38.11468" lon="13.36264">
        <ele>32.82</ele>
        <time>2018-04-21T13:19:04Z</time>
      </trkpt>
      <trkpt lat="38.11469" lon="13.36262">
        <ele>33.3</ele>
        <time>2018-04-21T13:19:19Z</time>
      </trkpt>
      <trkpt lat="38.11469" lon="13.36259">
        <ele>32.82</ele>
        <time>2018-04-21T13:19:47Z</time>
      </trkpt>
      <trkpt lat="38.11468" lon="13.36259">
        <ele>33.3</ele>
        <time>2018-04-21T13:20:02Z</time>
      </trkpt>
      <trkpt lat="38.11468" lon="13.36261">
        <ele>33.78</ele>
        <time>2018-04-21T13:20:23Z</time>
      </trkpt>
      <trkpt lat="38.11469" lon="13.36261">
        <ele>33.78</ele>
        <time>2018-04-21T13:20:41Z</time>
      </trkpt>
      <trkpt lat="38.11469" lon="13.36261">
        <ele>33.78</ele>
        <time>2018-04-21T13:21:08Z</time>
      </trkpt>
      <trkpt lat="38.11471" lon="13.3626">
        <ele>33.78</ele>
        <time>2018-04-21T13:21:28Z</time>
      </trkpt>
      <trkpt lat="38.11472" lon="13.36261">
        <ele>34.26</ele>
        <time>2018-04-21T13:21:55Z</time>
      </trkpt>
      <trkpt lat="38.11472" lon="13.36261">
        <ele>34.74</ele>
        <time>2018-04-21T13:22:23Z</time>
      </trkpt>
      <trkpt lat="38.11473" lon="13.36261">
        <ele>34.74</ele>
        <time>2018-04-21T13:22:48Z</time>
      </trkpt>
      <trkpt lat="38.11475" lon="13.36264">
        <ele>34.74</ele>
        <time>2018-04-21T13:23:11Z</time>
      </trkpt>
      <trkpt lat="38.11485" lon="13.36256">
        <ele>34.26</ele>
        <time>2018-04-21T13:23:33Z</time>
      </trkpt>
      <trkpt lat="38.1148" lon="13.36258">
        <ele>34.74</ele>
        <time>2018-04-21T13:23:46Z</time>
      </trkpt>
      <trkpt lat="38.11482" lon="13.36259">
        <ele>34.26</ele>
        <time>2018-04-21T13:24:07Z</time>
      </trkpt>
      <trkpt lat="38.11483" lon="13.36258">
        <ele>28.02</ele>
        <time>2018-04-21T13:24:26Z</time>
      </trkpt>
      <trkpt lat="38.11483" lon="13.3626">
        <ele>26.57</ele>
        <time>2018-04-21T13:24:49Z</time>
      </trkpt>
      <trkpt lat="38.11483" lon="13.36261">
        <ele>25.13</ele>
        <time>2018-04-21T13:25:14Z</time>
      </trkpt>
      <trkpt lat="38.11483" lon="13.36262">
        <ele>24.17</ele>
        <time>2018-04-21T13:25:29Z</time>
      </trkpt>
      <trkpt lat="38.11484" lon="13.36263">
        <ele>24.17</ele>
        <time>2018-04-21T13:25:39Z</time>
      </trkpt>
      <trkpt lat="38.11484" lon="13.36261">
        <ele>25.13</ele>
        <time>2018-04-21T13:25:55Z</time>
      </trkpt>
      <trkpt lat="38.11484" lon="13.36262">
        <ele>24.17</ele>
        <time>2018-04-21T13:26:11Z</time>
      </trkpt>
      <trkpt lat="38.11485" lon="13.36262">
        <ele>24.17</ele>
        <time>2018-04-21T13:26:30Z</time>
      </trkpt>
      <trkpt lat="38.11483" lon="13.36263">
        <ele>24.65</ele>
        <time>2018-04-21T13:26:52Z</time>
      </trkpt>
      <trkpt lat="38.11483" lon="13.36264">
        <ele>26.57</ele>
        <time>2018-04-21T13:27:04Z</time>
      </trkpt>
      <trkpt lat="38.11483" lon="13.36265">
        <ele>27.05</ele>
        <time>2018-04-21T13:27:25Z</time>
      </trkpt>
      <trkpt lat="38.11481" lon="13.36267">
        <ele>28.02</ele>
        <time>2018-04-21T13:27:38Z</time>
      </trkpt>
      <trkpt lat="38.11489" lon="13.36265">
        <ele>26.09</ele>
        <time>2018-04-21T13:27:53Z</time>
      </trkpt>
      <trkpt lat="38.11494" lon="13.36268">
        <ele>26.09</ele>
        <time>2018-04-21T13:28:05Z</time>
      </trkpt>
      <trkpt lat="38.11494" lon="13.36276">
        <ele>28.5</ele>
        <time>2018-04-21T13:28:30Z</time>
      </trkpt>
      <trkpt lat="38.11495" lon="13.36278">
        <ele>29.94</ele>
        <time>2018-04-21T13:28:41Z</time>
      </trkpt>
      <trkpt lat="38.11496" lon="13.36275">
        <ele>31.38</ele>
        <time>2018-04-21T13:28:56Z</time>
      </trkpt>
      <trkpt lat="38.1149" lon="13.36271">
        <ele>29.46</ele>
        <time>2018-04-21T13:29:09Z</time>
      </trkpt>
      <trkpt lat="38.11487" lon="13.36269">
        <ele>30.42</ele>
        <time>2018-04-21T13:29:24Z</time>
      </trkpt>
      <trkpt lat="38.11484" lon="13.36271">
        <ele>29.46</ele>
        <time>2018-04-21T13:29:41Z</time>
      </trkpt>
      <trkpt lat="38.11475" lon="13.36265">
        <ele>28.02</ele>
        <time>2018-04-21T13:30:02Z</time>
      </trkpt>
      <trkpt lat="38.11473" lon="13.36264">
        <ele>28.98</ele>
        <time>2018-04-21T13:30:24Z</time>
      </trkpt>
      <trkpt lat="38.11473" lon="13.36263">
        <ele>30.42</ele>
        <time>2018-04-21T13:30:43Z</time>
      </trkpt>
      <trkpt lat="38.11474" lon="13.36254">
        <ele>35.71</ele>
        <time>2018-04-21T13:31:02Z</time>
      </trkpt>
      <trkpt lat="38.11474" lon="13.36255">
        <ele>40.03</ele>
        <time>2018-04-21T13:31:22Z</time>
      </trkpt>
      <trkpt lat="38.11473" lon="13.36258">
        <ele>40.99</ele>
        <time>2018-04-21T13:31:44Z</time>
      </trkpt>
      <trkpt lat="38.11474" lon="13.36258">
        <ele>42.44</ele>
        <time>2018-04-21T13:31:57Z</time>
      </trkpt>
      <trkpt lat="38.11474" lon="13.36258">
        <ele>41.95</ele>
        <time>2018-04-21T13:32:19Z</time>
      </trkpt>
      <trkpt lat="38.11473" lon="13.36259">
        <ele>41.47</ele>
        <time>2018-04-21T13:32:44Z</time>
      </trkpt>
      <trkpt lat="38.11473" lon="13.36259">
        <ele>41.47</ele>
        <time>2018-04-21T13:33:10Z</time>
      </trkpt>
      <trkpt lat="38.11474" lon="13.36254">
        <ele>40.99</ele>
        <time>2018-04-21T13:33:28Z</time>
      </trkpt>
      <trkpt lat="38.11476" lon="13.3626">
        <ele>40.03</ele>
        <time>2018-04-21T13:33:50Z</time>
      </trkpt>
      <trkpt lat="38.11474" lon="13.36257">
        <ele>39.55</ele>
        <time>2018-04-21T13:34:15Z</time>
      </trkpt>
      <trkpt lat="38.11471" lon="13.36258">
        <ele>39.55</ele>
        <time>2018-04-21T13:34:17Z</time>
      </trkpt>
      <trkpt lat="38.11463" lon="13.36285">
        <ele>39.55</ele>
        <time>2018-04-21T13:34:48Z</time>
      </trkpt>
      <trkpt lat="38.11462" lon="13.36283">
        <ele>39.55</ele>
        <time>2018-04-21T13:35:48Z</time>
      </trkpt>
      <trkpt lat="38.11511" lon="13.36251">
        <ele>40.03</ele>
        <time>2018-04-21T13:36:28Z</time>
      </trkpt>
      <trkpt lat="38.11517" lon="13.36255">
        <ele>40.03</ele>
        <time>2018-04-21T13:36:54Z</time>
      </trkpt>
      <trkpt lat="38.11482" lon="13.36292">
        <ele>40.03</ele>
        <time>2018-04-21T13:41:22Z</time>
      </trkpt>
      <trkpt lat="38.11477" lon="13.36298">
        <ele>37.63</ele>
        <time>2018-04-21T13:41:56Z</time>
      </trkpt>
      <trkpt lat="38.11472" lon="13.36293">
        <ele>30.9</ele>
        <time>2018-04-21T13:42:23Z</time>
      </trkpt>
      <trkpt lat="38.1147" lon="13.3629">
        <ele>28.02</ele>
        <time>2018-04-21T13:42:49Z</time>
      </trkpt>
      <trkpt lat="38.11472" lon="13.36293">
        <ele>30.9</ele>
        <time>2018-04-21T13:43:10Z</time>
      </trkpt>
      <trkpt lat="38.11474" lon="13.36295">
        <ele>28.98</ele>
        <time>2018-04-21T13:43:32Z</time>
      </trkpt>
      <trkpt lat="38.11475" lon="13.363">
        <ele>27.53</ele>
        <time>2018-04-21T13:43:57Z</time>
      </trkpt>
      <trkpt lat="38.11474" lon="13.363">
        <ele>25.61</ele>
        <time>2018-04-21T13:44:20Z</time>
      </trkpt>
      <trkpt lat="38.11477" lon="13.36302">
        <ele>23.21</ele>
        <time>2018-04-21T13:44:46Z</time>
      </trkpt>
      <trkpt lat="38.11488" lon="13.36299">
        <ele>22.73</ele>
        <time>2018-04-21T13:45:05Z</time>
      </trkpt>
      <trkpt lat="38.11486" lon="13.363">
        <ele>26.09</ele>
        <time>2018-04-21T13:45:23Z</time>
      </trkpt>
      <trkpt lat="38.1148" lon="13.36293">
        <ele>28.98</ele>
        <time>2018-04-21T13:45:36Z</time>
      </trkpt>
      <trkpt lat="38.1149" lon="13.36285">
        <ele>29.94</ele>
        <time>2018-04-21T13:45:46Z</time>
      </trkpt>
      <trkpt lat="38.11498" lon="13.36293">
        <ele>32.34</ele>
        <time>2018-04-21T13:46:08Z</time>
      </trkpt>
      <trkpt lat="38.1149" lon="13.36296">
        <ele>32.34</ele>
        <time>2018-04-21T13:46:28Z</time>
      </trkpt>
      <trkpt lat="38.11489" lon="13.36297">
        <ele>32.34</ele>
        <time>2018-04-21T13:46:38Z</time>
      </trkpt>
      <trkpt lat="38.11502" lon="13.36303">
        <ele>36.19</ele>
        <time>2018-04-21T13:46:57Z</time>
      </trkpt>
      <trkpt lat="38.11489" lon="13.36294">
        <ele>35.71</ele>
        <time>2018-04-21T13:47:20Z</time>
      </trkpt>
      <trkpt lat="38.11486" lon="13.36296">
        <ele>35.71</ele>
        <time>2018-04-21T13:47:45Z</time>
      </trkpt>
      <trkpt lat="38.11481" lon="13.36297">
        <ele>35.23</ele>
        <time>2018-04-21T13:48:14Z</time>
      </trkpt>
      <trkpt lat="38.11481" lon="13.36293">
        <ele>33.78</ele>
        <time>2018-04-21T13:48:40Z</time>
      </trkpt>
      <trkpt lat="38.11483" lon="13.36298">
        <ele>34.74</ele>
        <time>2018-04-21T13:49:04Z</time>
      </trkpt>
      <trkpt lat="38.11479" lon="13.36299">
        <ele>34.74</ele>
        <time>2018-04-21T13:49:25Z</time>
      </trkpt>
      <trkpt lat="38.1146" lon="13.36287">
        <ele>34.74</ele>
        <time>2018-04-21T13:50:00Z</time>
      </trkpt>
      <trkpt lat="38.11464" lon="13.36286">
        <ele>35.23</ele>
        <time>2018-04-21T13:50:21Z</time>
      </trkpt>
      <trkpt lat="38.11504" lon="13.36295">
        <ele>35.23</ele>
        <time>2018-04-21T13:50:47Z</time>
      </trkpt>
      <trkpt lat="38.11506" lon="13.36292">
        <ele>35.23</ele>
        <time>2018-04-21T13:51:03Z</time>
      </trkpt>
      <trkpt lat="38.11501" lon="13.36296">
        <ele>35.23</ele>
        <time>2018-04-21T13:51:22Z</time>
      </trkpt>
      <trkpt lat="38.11482" lon="13.36296">
        <ele>34.74</ele>
        <time>2018-04-21T13:51:56Z</time>
      </trkpt>
      <trkpt lat="38.11481" lon="13.36295">
        <ele>34.26</ele>
        <time>2018-04-21T13:52:33Z</time>
      </trkpt>
      <trkpt lat="38.11468" lon="13.36295">
        <ele>33.78</ele>
        <time>2018-04-21T13:53:03Z</time>
      </trkpt>
      <trkpt lat="38.11479" lon="13.363">
        <ele>33.78</ele>
        <time>2018-04-21T13:53:36Z</time>
      </trkpt>
      <trkpt lat="38.11471" lon="13.36299">
        <ele>34.26</ele>
        <time>2018-04-21T13:53:58Z</time>
      </trkpt>
      <trkpt lat="38.11477" lon="13.36303">
        <ele>34.26</ele>
        <time>2018-04-21T13:54:14Z</time>
      </trkpt>
      <trkpt lat="38.11493" lon="13.36299">
        <ele>28.5</ele>
        <time>2018-04-21T13:54:34Z</time>
      </trkpt>
      <trkpt lat="38.11493" lon="13.36301">
        <ele>28.02</ele>
        <time>2018-04-21T13:54:54Z</time>
      </trkpt>
      <trkpt lat="38.11495" lon="13.3626">
        <ele>36.19</ele>
        <time>2018-04-21T13:55:05Z</time>
      </trkpt>
      <trkpt lat="38.11494" lon="13.3625">
        <ele>47.24</ele>
        <time>2018-04-21T13:55:19Z</time>
      </trkpt>
      <trkpt lat="38.11493" lon="13.36257">
        <ele>43.88</ele>
        <time>2018-04-21T13:55:33Z</time>
      </trkpt>
      <trkpt lat="38.11491" lon="13.36259">
        <ele>42.92</ele>
        <time>2018-04-21T13:55:50Z</time>
      </trkpt>
      <trkpt lat="38.1149" lon="13.36262">
        <ele>40.51</ele>
        <time>2018-04-21T13:56:04Z</time>
      </trkpt>
      <trkpt lat="38.11487" lon="13.36264">
        <ele>37.63</ele>
        <time>2018-04-21T13:56:20Z</time>
      </trkpt>
      <trkpt lat="38.11486" lon="13.36265">
        <ele>37.15</ele>
        <time>2018-04-21T13:56:35Z</time>
      </trkpt>
      <trkpt lat="38.11485" lon="13.36265">
        <ele>36.19</ele>
        <time>2018-04-21T13:56:57Z</time>
      </trkpt>
      <trkpt lat="38.11485" lon="13.36265">
        <ele>36.19</ele>
        <time>2018-04-21T13:57:14Z</time>
      </trkpt>
      <trkpt lat="38.11481" lon="13.36266">
        <ele>34.74</ele>
        <time>2018-04-21T13:57:28Z</time>
      </trkpt>
      <trkpt lat="38.11481" lon="13.36262">
        <ele>34.74</ele>
        <time>2018-04-21T13:57:39Z</time>
      </trkpt>
      <trkpt lat="38.11486" lon="13.36263">
        <ele>35.23</ele>
        <time>2018-04-21T13:57:50Z</time>
      </trkpt>
      <trkpt lat="38.1149" lon="13.36266">
        <ele>30.9</ele>
        <time>2018-04-21T13:58:04Z</time>
      </trkpt>
      <trkpt lat="38.11492" lon="13.36268">
        <ele>29.46</ele>
        <time>2018-04-21T13:58:17Z</time>
      </trkpt>
      <trkpt lat="38.11502" lon="13.36269">
        <ele>27.05</ele>
        <time>2018-04-21T13:58:28Z</time>
      </trkpt>
      <trkpt lat="38.11509" lon="13.36273">
        <ele>23.69</ele>
        <time>2018-04-21T13:58:40Z</time>
      </trkpt>
      <trkpt lat="38.11512" lon="13.36283">
        <ele>21.29</ele>
        <time>2018-04-21T13:58:52Z</time>
      </trkpt>
      <trkpt lat="38.11514" lon="13.36279">
        <ele>22.25</ele>
        <time>2018-04-21T13:59:07Z</time>
      </trkpt>
      <trkpt lat="38.11516" lon="13.36276">
        <ele>23.69</ele>
        <time>2018-04-21T13:59:26Z</time>
      </trkpt>
      <trkpt lat="38.11516" lon="13.36276">
        <ele>24.17</ele>
        <time>2018-04-21T13:59:43Z</time>
      </trkpt>
      <trkpt lat="38.11515" lon="13.36276">
        <ele>25.61</ele>
        <time>2018-04-21T14:00:01Z</time>
      </trkpt>
      <trkpt lat="38.11515" lon="13.36277">
        <ele>27.05</ele>
        <time>2018-04-21T14:00:22Z</time>
      </trkpt>
      <trkpt lat="38.11514" lon="13.36277">
        <ele>27.53</ele>
        <time>2018-04-21T14:00:47Z</time>
      </trkpt>
      <trkpt lat="38.11515" lon="13.36276">
        <ele>28.02</ele>
        <time>2018-04-21T14:01:16Z</time>
      </trkpt>
      <trkpt lat="38.11515" lon="13.36276">
        <ele>28.98</ele>
        <time>2018-04-21T14:01:40Z</time>
      </trkpt>
      <trkpt lat="38.11516" lon="13.36277">
        <ele>30.9</ele>
        <time>2018-04-21T14:02:00Z</time>
      </trkpt>
      <trkpt lat="38.11516" lon="13.36277">
        <ele>31.86</ele>
        <time>2018-04-21T14:02:22Z</time>
      </trkpt>
      <trkpt lat="38.11515" lon="13.36276">
        <ele>33.78</ele>
        <time>2018-04-21T14:02:41Z</time>
      </trkpt>
      <trkpt lat="38.11514" lon="13.36278">
        <ele>38.11</ele>
        <time>2018-04-21T14:03:07Z</time>
      </trkpt>
      <trkpt lat="38.11514" lon="13.36278">
        <ele>39.55</ele>
        <time>2018-04-21T14:03:30Z</time>
      </trkpt>
      <trkpt lat="38.11514" lon="13.36279">
        <ele>39.55</ele>
        <time>2018-04-21T14:03:56Z</time>
      </trkpt>
      <trkpt lat="38.11514" lon="13.3628">
        <ele>40.03</ele>
        <time>2018-04-21T14:04:17Z</time>
      </trkpt>
      <trkpt lat="38.11514" lon="13.36281">
        <ele>40.51</ele>
        <time>2018-04-21T14:04:42Z</time>
      </trkpt>
      <trkpt lat="38.11514" lon="13.36281">
        <ele>41.47</ele>
        <time>2018-04-21T14:04:55Z</time>
      </trkpt>
      <trkpt lat="38.11512" lon="13.3628">
        <ele>42.44</ele>
        <time>2018-04-21T14:05:11Z</time>
      </trkpt>
      <trkpt lat="38.11521" lon="13.36271">
        <ele>28.98</ele>
        <time>2018-04-21T14:05:23Z</time>
      </trkpt>
      <trkpt lat="38.11533" lon="13.36254">
        <ele>18.88</ele>
        <time>2018-04-21T14:05:38Z</time>
      </trkpt>
      <trkpt lat="38.11534" lon="13.36254">
        <ele>18.4</ele>
        <time>2018-04-21T14:05:39Z</time>
      </trkpt>
      <trkpt lat="38.11537" lon="13.36254">
        <ele>17.44</ele>
        <time>2018-04-21T14:05:41Z</time>
      </trkpt>
      <trkpt lat="38.11542" lon="13.36253">
        <ele>17.44</ele>
        <time>2018-04-21T14:05:55Z</time>
      </trkpt>
      <trkpt lat="38.11543" lon="13.36249">
        <ele>18.88</ele>
        <time>2018-04-21T14:06:08Z</time>
      </trkpt>
      <trkpt lat="38.11542" lon="13.36248">
        <ele>20.32</ele>
        <time>2018-04-21T14:06:26Z</time>
      </trkpt>
      <trkpt lat="38.11541" lon="13.36247">
        <ele>20.81</ele>
        <time>2018-04-21T14:06:37Z</time>
      </trkpt>
      <trkpt lat="38.11541" lon="13.36246">
        <ele>21.29</ele>
        <time>2018-04-21T14:06:50Z</time>
      </trkpt>
      <trkpt lat="38.11541" lon="13.36245">
        <ele>22.25</ele>
        <time>2018-04-21T14:07:08Z</time>
      </trkpt>
      <trkpt lat="38.11542" lon="13.36246">
        <ele>23.21</ele>
        <time>2018-04-21T14:07:21Z</time>
      </trkpt>
      <trkpt lat="38.1154" lon="13.36245">
        <ele>21.77</ele>
        <time>2018-04-21T14:07:30Z</time>
      </trkpt>
      <trkpt lat="38.11536" lon="13.36239">
        <ele>24.17</ele>
        <time>2018-04-21T14:07:40Z</time>
      </trkpt>
      <trkpt lat="38.11536" lon="13.36229">
        <ele>28.5</ele>
        <time>2018-04-21T14:07:53Z</time>
      </trkpt>
      <trkpt lat="38.11533" lon="13.3622">
        <ele>27.53</ele>
        <time>2018-04-21T14:08:05Z</time>
      </trkpt>
      <trkpt lat="38.11531" lon="13.36217">
        <ele>25.13</ele>
        <time>2018-04-21T14:08:20Z</time>
      </trkpt>
      <trkpt lat="38.11528" lon="13.36208">
        <ele>28.02</ele>
        <time>2018-04-21T14:08:35Z</time>
      </trkpt>
      <trkpt lat="38.11526" lon="13.36203">
        <ele>32.34</ele>
        <time>2018-04-21T14:08:50Z</time>
      </trkpt>
      <trkpt lat="38.11525" lon="13.36203">
        <ele>34.74</ele>
        <time>2018-04-21T14:09:06Z</time>
      </trkpt>
      <trkpt lat="38.11525" lon="13.362">
        <ele>37.63</ele>
        <time>2018-04-21T14:09:21Z</time>
      </trkpt>
      <trkpt lat="38.11527" lon="13.36199">
        <ele>40.03</ele>
        <time>2018-04-21T14:09:31Z</time>
      </trkpt>
      <trkpt lat="38.11528" lon="13.36199">
        <ele>40.99</ele>
        <time>2018-04-21T14:09:43Z</time>
      </trkpt>
      <trkpt lat="38.11528" lon="13.36197">
        <ele>41.47</ele>
        <time>2018-04-21T14:09:56Z</time>
      </trkpt>
      <trkpt lat="38.11532" lon="13.36189">
        <ele>40.99</ele>
        <time>2018-04-21T14:10:06Z</time>
      </trkpt>
      <trkpt lat="38.11535" lon="13.36181">
        <ele>40.51</ele>
        <time>2018-04-21T14:10:15Z</time>
      </trkpt>
      <trkpt lat="38.1154" lon="13.36173">
        <ele>39.07</ele>
        <time>2018-04-21T14:10:22Z</time>
      </trkpt>
      <trkpt lat="38.11546" lon="13.36168">
        <ele>40.51</ele>
        <time>2018-04-21T14:10:38Z</time>
      </trkpt>
      <trkpt lat="38.11549" lon="13.36166">
        <ele>41.95</ele>
        <time>2018-04-21T14:10:55Z</time>
      </trkpt>
      <trkpt lat="38.11549" lon="13.36162">
        <ele>41.95</ele>
        <time>2018-04-21T14:11:06Z</time>
      </trkpt>
      <trkpt lat="38.11548" lon="13.36152">
        <ele>32.82</ele>
        <time>2018-04-21T14:11:19Z</time>
      </trkpt>
      <trkpt lat="38.11548" lon="13.36151">
        <ele>31.86</ele>
        <time>2018-04-21T14:11:33Z</time>
      </trkpt>
      <trkpt lat="38.11548" lon="13.36151">
        <ele>31.38</ele>
        <time>2018-04-21T14:11:36Z</time>
      </trkpt>
      <trkpt lat="38.11545" lon="13.36139">
        <ele>28.5</ele>
        <time>2018-04-21T14:11:49Z</time>
      </trkpt>
      <trkpt lat="38.11547" lon="13.36128">
        <ele>28.02</ele>
        <time>2018-04-21T14:12:00Z</time>
      </trkpt>
      <trkpt lat="38.11546" lon="13.36124">
        <ele>27.53</ele>
        <time>2018-04-21T14:12:14Z</time>
      </trkpt>
      <trkpt lat="38.11544" lon="13.36123">
        <ele>28.02</ele>
        <time>2018-04-21T14:12:26Z</time>
      </trkpt>
      <trkpt lat="38.1154" lon="13.36121">
        <ele>29.94</ele>
        <time>2018-04-21T14:12:40Z</time>
      </trkpt>
      <trkpt lat="38.11543" lon="13.36108">
        <ele>31.38</ele>
        <time>2018-04-21T14:12:53Z</time>
      </trkpt>
      <trkpt lat="38.11541" lon="13.36104">
        <ele>31.38</ele>
        <time>2018-04-21T14:13:13Z</time>
      </trkpt>
      <trkpt lat="38.1154" lon="13.36096">
        <ele>31.86</ele>
        <time>2018-04-21T14:13:30Z</time>
      </trkpt>
      <trkpt lat="38.11541" lon="13.36089">
        <ele>33.3</ele>
        <time>2018-04-21T14:13:44Z</time>
      </trkpt>
      <trkpt lat="38.11542" lon="13.36088">
        <ele>32.82</ele>
        <time>2018-04-21T14:13:46Z</time>
      </trkpt>
      <trkpt lat="38.11535" lon="13.36068">
        <ele>33.78</ele>
        <time>2018-04-21T14:13:58Z</time>
      </trkpt>
      <trkpt lat="38.11535" lon="13.3606">
        <ele>32.34</ele>
        <time>2018-04-21T14:14:24Z</time>
      </trkpt>
      <trkpt lat="38.11534" lon="13.36059">
        <ele>31.86</ele>
        <time>2018-04-21T14:14:48Z</time>
      </trkpt>
      <trkpt lat="38.11531" lon="13.36056">
        <ele>30.9</ele>
        <time>2018-04-21T14:15:14Z</time>
      </trkpt>
      <trkpt lat="38.11528" lon="13.36048">
        <ele>32.82</ele>
        <time>2018-04-21T14:15:29Z</time>
      </trkpt>
      <trkpt lat="38.11521" lon="13.36035">
        <ele>37.63</ele>
        <time>2018-04-21T14:15:42Z</time>
      </trkpt>
      <trkpt lat="38.11507" lon="13.3602">
        <ele>34.26</ele>
        <time>2018-04-21T14:15:57Z</time>
      </trkpt>
      <trkpt lat="38.11507" lon="13.36016">
        <ele>33.3</ele>
        <time>2018-04-21T14:16:09Z</time>
      </trkpt>
      <trkpt lat="38.11507" lon="13.36014">
        <ele>32.34</ele>
        <time>2018-04-21T14:16:22Z</time>
      </trkpt>
      <trkpt lat="38.11506" lon="13.36013">
        <ele>33.3</ele>
        <time>2018-04-21T14:16:37Z</time>
      </trkpt>
      <trkpt lat="38.11506" lon="13.36009">
        <ele>32.82</ele>
        <time>2018-04-21T14:16:49Z</time>
      </trkpt>
      <trkpt lat="38.11509" lon="13.36001">
        <ele>26.57</ele>
        <time>2018-04-21T14:17:01Z</time>
      </trkpt>
      <trkpt lat="38.1151" lon="13.35997">
        <ele>27.05</ele>
        <time>2018-04-21T14:17:13Z</time>
      </trkpt>
      <trkpt lat="38.1151" lon="13.35995">
        <ele>26.57</ele>
        <time>2018-04-21T14:17:26Z</time>
      </trkpt>
      <trkpt lat="38.11501" lon="13.35986">
        <ele>27.53</ele>
        <time>2018-04-21T14:17:39Z</time>
      </trkpt>
      <trkpt lat="38.11499" lon="13.35979">
        <ele>29.46</ele>
        <time>2018-04-21T14:17:50Z</time>
      </trkpt>
      <trkpt lat="38.11489" lon="13.35972">
        <ele>30.9</ele>
        <time>2018-04-21T14:18:06Z</time>
      </trkpt>
      <trkpt lat="38.11472" lon="13.35953">
        <ele>24.65</ele>
        <time>2018-04-21T14:18:21Z</time>
      </trkpt>
      <trkpt lat="38.1147" lon="13.35953">
        <ele>24.65</ele>
        <time>2018-04-21T14:18:23Z</time>
      </trkpt>
      <trkpt lat="38.11475" lon="13.35932">
        <ele>28.5</ele>
        <time>2018-04-21T14:18:37Z</time>
      </trkpt>
      <trkpt lat="38.1147" lon="13.35927">
        <ele>27.53</ele>
        <time>2018-04-21T14:18:50Z</time>
      </trkpt>
      <trkpt lat="38.11471" lon="13.35929">
        <ele>29.46</ele>
        <time>2018-04-21T14:19:10Z</time>
      </trkpt>
      <trkpt lat="38.11465" lon="13.35924">
        <ele>31.86</ele>
        <time>2018-04-21T14:19:30Z</time>
      </trkpt>
      <trkpt lat="38.11464" lon="13.35914">
        <ele>31.38</ele>
        <time>2018-04-21T14:19:45Z</time>
      </trkpt>
      <trkpt lat="38.11464" lon="13.35909">
        <ele>32.82</ele>
        <time>2018-04-21T14:19:57Z</time>
      </trkpt>
      <trkpt lat="38.11461" lon="13.35901">
        <ele>35.71</ele>
        <time>2018-04-21T14:20:09Z</time>
      </trkpt>
      <trkpt lat="38.11456" lon="13.35892">
        <ele>35.71</ele>
        <time>2018-04-21T14:20:23Z</time>
      </trkpt>
      <trkpt lat="38.11454" lon="13.35883">
        <ele>35.71</ele>
        <time>2018-04-21T14:20:40Z</time>
      </trkpt>
      <trkpt lat="38.11447" lon="13.35872">
        <ele>32.82</ele>
        <time>2018-04-21T14:20:55Z</time>
      </trkpt>
      <trkpt lat="38.11446" lon="13.35865">
        <ele>32.34</ele>
        <time>2018-04-21T14:21:10Z</time>
      </trkpt>
      <trkpt lat="38.11444" lon="13.35858">
        <ele>33.3</ele>
        <time>2018-04-21T14:21:23Z</time>
      </trkpt>
      <trkpt lat="38.11438" lon="13.35849">
        <ele>33.3</ele>
        <time>2018-04-21T14:21:37Z</time>
      </trkpt>
      <trkpt lat="38.11435" lon="13.35845">
        <ele>33.3</ele>
        <time>2018-04-21T14:21:53Z</time>
      </trkpt>
      <trkpt lat="38.11437" lon="13.35842">
        <ele>34.74</ele>
        <time>2018-04-21T14:22:06Z</time>
      </trkpt>
      <trkpt lat="38.11438" lon="13.35835">
        <ele>35.71</ele>
        <time>2018-04-21T14:22:20Z</time>
      </trkpt>
      <trkpt lat="38.11436" lon="13.35825">
        <ele>33.3</ele>
        <time>2018-04-21T14:22:36Z</time>
      </trkpt>
      <trkpt lat="38.11436" lon="13.35821">
        <ele>33.78</ele>
        <time>2018-04-21T14:22:49Z</time>
      </trkpt>
      <trkpt lat="38.11437" lon="13.35819">
        <ele>33.78</ele>
        <time>2018-04-21T14:23:07Z</time>
      </trkpt>
      <trkpt lat="38.11438" lon="13.35809">
        <ele>35.71</ele>
        <time>2018-04-21T14:23:28Z</time>
      </trkpt>
      <trkpt lat="38.11437" lon="13.35801">
        <ele>36.67</ele>
        <time>2018-04-21T14:23:42Z</time>
      </trkpt>
      <trkpt lat="38.11433" lon="13.35797">
        <ele>38.11</ele>
        <time>2018-04-21T14:23:53Z</time>
      </trkpt>
      <trkpt lat="38.11426" lon="13.35793">
        <ele>39.07</ele>
        <time>2018-04-21T14:24:17Z</time>
      </trkpt>
      <trkpt lat="38.11422" lon="13.35778">
        <ele>36.19</ele>
        <time>2018-04-21T14:24:43Z</time>
      </trkpt>
      <trkpt lat="38.11423" lon="13.35778">
        <ele>36.19</ele>
        <time>2018-04-21T14:24:44Z</time>
      </trkpt>
      <trkpt lat="38.11439" lon="13.3578">
        <ele>37.63</ele>
        <time>2018-04-21T14:24:59Z</time>
      </trkpt>
      <trkpt lat="38.11436" lon="13.35775">
        <ele>40.99</ele>
        <time>2018-04-21T14:25:18Z</time>
      </trkpt>
      <trkpt lat="38.11431" lon="13.35771">
        <ele>39.07</ele>
        <time>2018-04-21T14:25:44Z</time>
      </trkpt>
      <trkpt lat="38.1142" lon="13.35775">
        <ele>35.71</ele>
        <time>2018-04-21T14:26:10Z</time>
      </trkpt>
      <trkpt lat="38.11421" lon="13.35773">
        <ele>35.23</ele>
        <time>2018-04-21T14:26:32Z</time>
      </trkpt>
      <trkpt lat="38.1142" lon="13.3577">
        <ele>33.78</ele>
        <time>2018-04-21T14:26:47Z</time>
      </trkpt>
      <trkpt lat="38.11414" lon="13.35769">
        <ele>27.05</ele>
        <time>2018-04-21T14:27:06Z</time>
      </trkpt>
      <trkpt lat="38.11413" lon="13.35771">
        <ele>26.57</ele>
        <time>2018-04-21T14:27:27Z</time>
      </trkpt>
      <trkpt lat="38.11414" lon="13.35769">
        <ele>26.57</ele>
        <time>2018-04-21T14:27:50Z</time>
      </trkpt>
      <trkpt lat="38.11414" lon="13.35769">
        <ele>27.53</ele>
        <time>2018-04-21T14:28:07Z</time>
      </trkpt>
      <trkpt lat="38.11414" lon="13.35769">
        <ele>26.57</ele>
        <time>2018-04-21T14:28:27Z</time>
      </trkpt>
      <trkpt lat="38.11415" lon="13.35768">
        <ele>25.61</ele>
        <time>2018-04-21T14:28:52Z</time>
      </trkpt>
      <trkpt lat="38.11415" lon="13.35768">
        <ele>25.61</ele>
        <time>2018-04-21T14:29:13Z</time>
      </trkpt>
      <trkpt lat="38.11416" lon="13.35768">
        <ele>25.61</ele>
        <time>2018-04-21T14:29:34Z</time>
      </trkpt>
      <trkpt lat="38.11417" lon="13.35767">
        <ele>25.61</ele>
        <time>2018-04-21T14:29:51Z</time>
      </trkpt>
      <trkpt lat="38.1142" lon="13.35766">
        <ele>27.53</ele>
        <time>2018-04-21T14:30:13Z</time>
      </trkpt>
      <trkpt lat="38.11419" lon="13.35765">
        <ele>28.02</ele>
        <time>2018-04-21T14:30:32Z</time>
      </trkpt>
      <trkpt lat="38.11418" lon="13.35764">
        <ele>28.5</ele>
        <time>2018-04-21T14:30:44Z</time>
      </trkpt>
      <trkpt lat="38.11415" lon="13.35759">
        <ele>27.05</ele>
        <time>2018-04-21T14:30:57Z</time>
      </trkpt>
      <trkpt lat="38.11406" lon="13.3575">
        <ele>27.05</ele>
        <time>2018-04-21T14:31:08Z</time>
      </trkpt>
      <trkpt lat="38.114" lon="13.35745">
        <ele>28.98</ele>
        <time>2018-04-21T14:31:19Z</time>
      </trkpt>
      <trkpt lat="38.11401" lon="13.35742">
        <ele>28.5</ele>
        <time>2018-04-21T14:31:34Z</time>
      </trkpt>
      <trkpt lat="38.11401" lon="13.35737">
        <ele>26.57</ele>
        <time>2018-04-21T14:31:48Z</time>
      </trkpt>
      <trkpt lat="38.11402" lon="13.35737">
        <ele>26.09</ele>
        <time>2018-04-21T14:31:50Z</time>
      </trkpt>
      <trkpt lat="38.11401" lon="13.35733">
        <ele>25.61</ele>
        <time>2018-04-21T14:32:00Z</time>
      </trkpt>
      <trkpt lat="38.11402" lon="13.35732">
        <ele>25.13</ele>
        <time>2018-04-21T14:32:16Z</time>
      </trkpt>
      <trkpt lat="38.11405" lon="13.35728">
        <ele>27.53</ele>
        <time>2018-04-21T14:32:26Z</time>
      </trkpt>
      <trkpt lat="38.11409" lon="13.35726">
        <ele>29.46</ele>
        <time>2018-04-21T14:32:47Z</time>
      </trkpt>
      <trkpt lat="38.11408" lon="13.35727">
        <ele>29.94</ele>
        <time>2018-04-21T14:33:10Z</time>
      </trkpt>
      <trkpt lat="38.11397" lon="13.35737">
        <ele>30.42</ele>
        <time>2018-04-21T14:34:24Z</time>
      </trkpt>
      <trkpt lat="38.11359" lon="13.35745">
        <ele>48.68</ele>
        <time>2018-04-21T14:34:45Z</time>
      </trkpt>
      <trkpt lat="38.11356" lon="13.35742">
        <ele>50.13</ele>
        <time>2018-04-21T14:35:02Z</time>
      </trkpt>
      <trkpt lat="38.11369" lon="13.35733">
        <ele>50.61</ele>
        <time>2018-04-21T14:35:26Z</time>
      </trkpt>
      <trkpt lat="38.11377" lon="13.35746">
        <ele>49.16</ele>
        <time>2018-04-21T14:35:47Z</time>
      </trkpt>
      <trkpt lat="38.11424" lon="13.35721">
        <ele>22.25</ele>
        <time>2018-04-21T14:36:30Z</time>
      </trkpt>
      <trkpt lat="38.11398" lon="13.35728">
        <ele>24.65</ele>
        <time>2018-04-21T14:36:42Z</time>
      </trkpt>
      <trkpt lat="38.11394" lon="13.35725">
        <ele>23.21</ele>
        <time>2018-04-21T14:36:57Z</time>
      </trkpt>
      <trkpt lat="38.11392" lon="13.35727">
        <ele>19.84</ele>
        <time>2018-04-21T14:37:24Z</time>
      </trkpt>
      <trkpt lat="38.11391" lon="13.35712">
        <ele>21.77</ele>
        <time>2018-04-21T14:37:40Z</time>
      </trkpt>
      <trkpt lat="38.11396" lon="13.35704">
        <ele>25.13</ele>
        <time>2018-04-21T14:37:52Z</time>
      </trkpt>
      <trkpt lat="38.114" lon="13.35698">
        <ele>26.09</ele>
        <time>2018-04-21T14:38:01Z</time>
      </trkpt>
      <trkpt lat="38.11409" lon="13.35691">
        <ele>27.05</ele>
        <time>2018-04-21T14:38:14Z</time>
      </trkpt>
      <trkpt lat="38.11408" lon="13.3569">
        <ele>27.53</ele>
        <time>2018-04-21T14:38:22Z</time>
      </trkpt>
      <trkpt lat="38.11408" lon="13.35692">
        <ele>28.02</ele>
        <time>2018-04-21T14:38:40Z</time>
      </trkpt>
      <trkpt lat="38.11405" lon="13.35691">
        <ele>29.46</ele>
        <time>2018-04-21T14:39:05Z</time>
      </trkpt>
      <trkpt lat="38.11406" lon="13.35688">
        <ele>29.46</ele>
        <time>2018-04-21T14:39:16Z</time>
      </trkpt>
      <trkpt lat="38.11406" lon="13.35686">
        <ele>28.5</ele>
        <time>2018-04-21T14:39:30Z</time>
      </trkpt>
      <trkpt lat="38.11407" lon="13.35685">
        <ele>30.42</ele>
        <time>2018-04-21T14:39:43Z</time>
      </trkpt>
      <trkpt lat="38.11407" lon="13.35686">
        <ele>30.9</ele>
        <time>2018-04-21T14:39:55Z</time>
      </trkpt>
      <trkpt lat="38.11408" lon="13.35686">
        <ele>29.94</ele>
        <time>2018-04-21T14:40:08Z</time>
      </trkpt>
      <trkpt lat="38.11409" lon="13.35686">
        <ele>29.94</ele>
        <time>2018-04-21T14:40:22Z</time>
      </trkpt>
      <trkpt lat="38.11409" lon="13.35687">
        <ele>29.94</ele>
        <time>2018-04-21T14:40:34Z</time>
      </trkpt>
      <trkpt lat="38.1141" lon="13.35688">
        <ele>29.46</ele>
        <time>2018-04-21T14:40:45Z</time>
      </trkpt>
      <trkpt lat="38.1141" lon="13.35688">
        <ele>29.46</ele>
        <time>2018-04-21T14:40:52Z</time>
      </trkpt>
      <trkpt lat="38.1141" lon="13.35688">
        <ele>28.98</ele>
        <time>2018-04-21T14:41:03Z</time>
      </trkpt>
      <trkpt lat="38.11411" lon="13.35685">
        <ele>29.46</ele>
        <time>2018-04-21T14:41:27Z</time>
      </trkpt>
      <trkpt lat="38.1141" lon="13.35685">
        <ele>29.94</ele>
        <time>2018-04-21T14:41:39Z</time>
      </trkpt>
      <trkpt lat="38.1141" lon="13.35685">
        <ele>30.42</ele>
        <time>2018-04-21T14:41:58Z</time>
      </trkpt>
      <trkpt lat="38.1141" lon="13.35686">
        <ele>30.9</ele>
        <time>2018-04-21T14:42:21Z</time>
      </trkpt>
      <trkpt lat="38.11411" lon="13.35685">
        <ele>30.42</ele>
        <time>2018-04-21T14:42:35Z</time>
      </trkpt>
      <trkpt lat="38.11411" lon="13.35686">
        <ele>30.9</ele>
        <time>2018-04-21T14:42:50Z</time>
      </trkpt>
      <trkpt lat="38.11408" lon="13.35685">
        <ele>32.34</ele>
        <time>2018-04-21T14:43:20Z</time>
      </trkpt>
      <trkpt lat="38.11409" lon="13.35685">
        <ele>31.86</ele>
        <time>2018-04-21T14:43:37Z</time>
      </trkpt>
      <trkpt lat="38.11409" lon="13.35683">
        <ele>31.86</ele>
        <time>2018-04-21T14:43:56Z</time>
      </trkpt>
      <trkpt lat="38.11408" lon="13.35683">
        <ele>33.78</ele>
        <time>2018-04-21T14:44:12Z</time>
      </trkpt>
      <trkpt lat="38.11408" lon="13.35683">
        <ele>33.78</ele>
        <time>2018-04-21T14:44:30Z</time>
      </trkpt>
      <trkpt lat="38.11409" lon="13.35682">
        <ele>33.78</ele>
        <time>2018-04-21T14:44:44Z</time>
      </trkpt>
      <trkpt lat="38.11414" lon="13.3568">
        <ele>33.78</ele>
        <time>2018-04-21T14:44:54Z</time>
      </trkpt>
      <trkpt lat="38.11423" lon="13.35673">
        <ele>33.78</ele>
        <time>2018-04-21T14:45:07Z</time>
      </trkpt>
      <trkpt lat="38.11427" lon="13.3567">
        <ele>33.78</ele>
        <time>2018-04-21T14:45:22Z</time>
      </trkpt>
      <trkpt lat="38.11429" lon="13.3567">
        <ele>33.78</ele>
        <time>2018-04-21T14:45:34Z</time>
      </trkpt>
      <trkpt lat="38.11434" lon="13.35668">
        <ele>33.78</ele>
        <time>2018-04-21T14:45:46Z</time>
      </trkpt>
      <trkpt lat="38.11442" lon="13.35661">
        <ele>34.26</ele>
        <time>2018-04-21T14:45:59Z</time>
      </trkpt>
      <trkpt lat="38.11444" lon="13.35656">
        <ele>36.67</ele>
        <time>2018-04-21T14:46:14Z</time>
      </trkpt>
      <trkpt lat="38.11443" lon="13.35658">
        <ele>37.15</ele>
        <time>2018-04-21T14:46:27Z</time>
      </trkpt>
      <trkpt lat="38.11444" lon="13.35656">
        <ele>38.11</ele>
        <time>2018-04-21T14:46:43Z</time>
      </trkpt>
      <trkpt lat="38.11446" lon="13.35652">
        <ele>38.11</ele>
        <time>2018-04-21T14:46:57Z</time>
      </trkpt>
      <trkpt lat="38.11447" lon="13.3565">
        <ele>38.11</ele>
        <time>2018-04-21T14:47:02Z</time>
      </trkpt>
      <trkpt lat="38.11456" lon="13.35649">
        <ele>38.59</ele>
        <time>2018-04-21T14:47:11Z</time>
      </trkpt>
      <trkpt lat="38.11462" lon="13.35645">
        <ele>36.19</ele>
        <time>2018-04-21T14:47:22Z</time>
      </trkpt>
      <trkpt lat="38.11463" lon="13.35645">
        <ele>36.67</ele>
        <time>2018-04-21T14:47:23Z</time>
      </trkpt>
      <trkpt lat="38.11463" lon="13.35636">
        <ele>34.26</ele>
        <time>2018-04-21T14:47:34Z</time>
      </trkpt>
      <trkpt lat="38.11464" lon="13.35632">
        <ele>33.3</ele>
        <time>2018-04-21T14:47:43Z</time>
      </trkpt>
      <trkpt lat="38.1146" lon="13.35621">
        <ele>31.86</ele>
        <time>2018-04-21T14:47:53Z</time>
      </trkpt>
      <trkpt lat="38.11459" lon="13.35609">
        <ele>26.57</ele>
        <time>2018-04-21T14:48:06Z</time>
      </trkpt>
      <trkpt lat="38.11453" lon="13.35599">
        <ele>21.77</ele>
        <time>2018-04-21T14:48:25Z</time>
      </trkpt>
      <trkpt lat="38.11448" lon="13.35587">
        <ele>22.25</ele>
        <time>2018-04-21T14:48:44Z</time>
      </trkpt>
      <trkpt lat="38.11444" lon="13.35572">
        <ele>23.21</ele>
        <time>2018-04-21T14:48:58Z</time>
      </trkpt>
      <trkpt lat="38.11441" lon="13.35561">
        <ele>25.61</ele>
        <time>2018-04-21T14:49:12Z</time>
      </trkpt>
      <trkpt lat="38.11439" lon="13.35557">
        <ele>28.02</ele>
        <time>2018-04-21T14:49:21Z</time>
      </trkpt>
      <trkpt lat="38.11435" lon="13.35541">
        <ele>29.94</ele>
        <time>2018-04-21T14:49:36Z</time>
      </trkpt>
      <trkpt lat="38.11438" lon="13.35538">
        <ele>29.46</ele>
        <time>2018-04-21T14:49:49Z</time>
      </trkpt>
      <trkpt lat="38.11435" lon="13.3554">
        <ele>26.09</ele>
        <time>2018-04-21T14:50:00Z</time>
      </trkpt>
      <trkpt lat="38.11429" lon="13.3554">
        <ele>22.25</ele>
        <time>2018-04-21T14:50:12Z</time>
      </trkpt>
      <trkpt lat="38.11425" lon="13.35542">
        <ele>21.77</ele>
        <time>2018-04-21T14:50:28Z</time>
      </trkpt>
      <trkpt lat="38.11426" lon="13.35543">
        <ele>21.77</ele>
        <time>2018-04-21T14:50:29Z</time>
      </trkpt>
      <trkpt lat="38.11404" lon="13.35555">
        <ele>15.04</ele>
        <time>2018-04-21T14:50:42Z</time>
      </trkpt>
      <trkpt lat="38.11401" lon="13.35556">
        <ele>15.04</ele>
        <time>2018-04-21T14:50:44Z</time>
      </trkpt>
      <trkpt lat="38.11392" lon="13.35562">
        <ele>17.44</ele>
        <time>2018-04-21T14:50:54Z</time>
      </trkpt>
      <trkpt lat="38.11388" lon="13.35563">
        <ele>18.88</ele>
        <time>2018-04-21T14:50:56Z</time>
      </trkpt>
      <trkpt lat="38.11382" lon="13.35571">
        <ele>25.13</ele>
        <time>2018-04-21T14:51:08Z</time>
      </trkpt>
      <trkpt lat="38.11383" lon="13.35573">
        <ele>26.09</ele>
        <time>2018-04-21T14:51:12Z</time>
      </trkpt>
      <trkpt lat="38.11392" lon="13.35582">
        <ele>30.42</ele>
        <time>2018-04-21T14:51:26Z</time>
      </trkpt>
      <trkpt lat="38.11394" lon="13.35586">
        <ele>30.42</ele>
        <time>2018-04-21T14:51:39Z</time>
      </trkpt>
      <trkpt lat="38.11396" lon="13.35588">
        <ele>30.9</ele>
        <time>2018-04-21T14:51:52Z</time>
      </trkpt>
      <trkpt lat="38.11396" lon="13.35588">
        <ele>31.38</ele>
        <time>2018-04-21T14:52:05Z</time>
      </trkpt>
      <trkpt lat="38.11396" lon="13.35588">
        <ele>31.86</ele>
        <time>2018-04-21T14:52:17Z</time>
      </trkpt>
      <trkpt lat="38.11396" lon="13.35589">
        <ele>31.86</ele>
        <time>2018-04-21T14:52:34Z</time>
      </trkpt>
      <trkpt lat="38.11396" lon="13.35589">
        <ele>31.86</ele>
        <time>2018-04-21T14:52:41Z</time>
      </trkpt>
      <trkpt lat="38.11364" lon="13.35563">
        <ele>31.86</ele>
        <time>2018-04-21T14:53:03Z</time>
      </trkpt>
      <trkpt lat="38.11377" lon="13.35563">
        <ele>31.86</ele>
        <time>2018-04-21T14:53:22Z</time>
      </trkpt>
      <trkpt lat="38.11391" lon="13.3557">
        <ele>31.86</ele>
        <time>2018-04-21T14:53:46Z</time>
      </trkpt>
      <trkpt lat="38.11404" lon="13.35575">
        <ele>31.86</ele>
        <time>2018-04-21T14:54:05Z</time>
      </trkpt>
      <trkpt lat="38.11418" lon="13.35589">
        <ele>32.34</ele>
        <time>2018-04-21T14:54:26Z</time>
      </trkpt>
      <trkpt lat="38.1142" lon="13.35585">
        <ele>32.34</ele>
        <time>2018-04-21T14:54:46Z</time>
      </trkpt>
      <trkpt lat="38.11426" lon="13.35587">
        <ele>32.34</ele>
        <time>2018-04-21T14:54:57Z</time>
      </trkpt>
      <trkpt lat="38.11436" lon="13.35561">
        <ele>32.34</ele>
        <time>2018-04-21T14:55:14Z</time>
      </trkpt>
      <trkpt lat="38.11474" lon="13.356">
        <ele>32.34</ele>
        <time>2018-04-21T14:55:38Z</time>
      </trkpt>
      <trkpt lat="38.1146" lon="13.35614">
        <ele>31.86</ele>
        <time>2018-04-21T14:56:01Z</time>
      </trkpt>
      <trkpt lat="38.11392" lon="13.35566">
        <ele>52.05</ele>
        <time>2018-04-21T15:02:59Z</time>
      </trkpt>
      <trkpt lat="38.11397" lon="13.35559">
        <ele>41.95</ele>
        <time>2018-04-21T15:03:20Z</time>
      </trkpt>
      <trkpt lat="38.11405" lon="13.35557">
        <ele>44.36</ele>
        <time>2018-04-21T15:03:43Z</time>
      </trkpt>
      <trkpt lat="38.11405" lon="13.35556">
        <ele>52.05</ele>
        <time>2018-04-21T15:04:01Z</time>
      </trkpt>
      <trkpt lat="38.11407" lon="13.35554">
        <ele>52.53</ele>
        <time>2018-04-21T15:04:18Z</time>
      </trkpt>
      <trkpt lat="38.11408" lon="13.35552">
        <ele>54.45</ele>
        <time>2018-04-21T15:04:34Z</time>
      </trkpt>
      <trkpt lat="38.11411" lon="13.35551">
        <ele>52.05</ele>
        <time>2018-04-21T15:04:50Z</time>
      </trkpt>
      <trkpt lat="38.11412" lon="13.35553">
        <ele>53.97</ele>
        <time>2018-04-21T15:05:06Z</time>
      </trkpt>
      <trkpt lat="38.11414" lon="13.35553">
        <ele>54.45</ele>
        <time>2018-04-21T15:05:21Z</time>
      </trkpt>
      <trkpt lat="38.11415" lon="13.35554">
        <ele>54.93</ele>
        <time>2018-04-21T15:05:36Z</time>
      </trkpt>
      <trkpt lat="38.11417" lon="13.35557">
        <ele>53.49</ele>
        <time>2018-04-21T15:05:52Z</time>
      </trkpt>
      <trkpt lat="38.11419" lon="13.35561">
        <ele>54.45</ele>
        <time>2018-04-21T15:06:06Z</time>
      </trkpt>
      <trkpt lat="38.11421" lon="13.35564">
        <ele>55.89</ele>
        <time>2018-04-21T15:06:26Z</time>
      </trkpt>
      <trkpt lat="38.11421" lon="13.35564">
        <ele>57.34</ele>
        <time>2018-04-21T15:06:50Z</time>
      </trkpt>
      <trkpt lat="38.11421" lon="13.35565">
        <ele>57.34</ele>
        <time>2018-04-21T15:07:05Z</time>
      </trkpt>
      <trkpt lat="38.11421" lon="13.35565">
        <ele>57.34</ele>
        <time>2018-04-21T15:07:22Z</time>
      </trkpt>
      <trkpt lat="38.11421" lon="13.35567">
        <ele>57.34</ele>
        <time>2018-04-21T15:07:35Z</time>
      </trkpt>
      <trkpt lat="38.11422" lon="13.3557">
        <ele>56.86</ele>
        <time>2018-04-21T15:07:41Z</time>
      </trkpt>
      <trkpt lat="38.11427" lon="13.35576">
        <ele>56.86</ele>
        <time>2018-04-21T15:07:56Z</time>
      </trkpt>
      <trkpt lat="38.11429" lon="13.35582">
        <ele>56.37</ele>
        <time>2018-04-21T15:08:12Z</time>
      </trkpt>
      <trkpt lat="38.11434" lon="13.35591">
        <ele>54.45</ele>
        <time>2018-04-21T15:08:24Z</time>
      </trkpt>
      <trkpt lat="38.11438" lon="13.35597">
        <ele>53.49</ele>
        <time>2018-04-21T15:08:39Z</time>
      </trkpt>
      <trkpt lat="38.11439" lon="13.35598">
        <ele>53.97</ele>
        <time>2018-04-21T15:08:50Z</time>
      </trkpt>
      <trkpt lat="38.11442" lon="13.35599">
        <ele>53.97</ele>
        <time>2018-04-21T15:09:02Z</time>
      </trkpt>
      <trkpt lat="38.11444" lon="13.35599">
        <ele>54.45</ele>
        <time>2018-04-21T15:09:15Z</time>
      </trkpt>
      <trkpt lat="38.11446" lon="13.35601">
        <ele>53.97</ele>
        <time>2018-04-21T15:09:26Z</time>
      </trkpt>
      <trkpt lat="38.11446" lon="13.35601">
        <ele>53.97</ele>
        <time>2018-04-21T15:09:39Z</time>
      </trkpt>
      <trkpt lat="38.11448" lon="13.35601">
        <ele>54.93</ele>
        <time>2018-04-21T15:09:56Z</time>
      </trkpt>
      <trkpt lat="38.11448" lon="13.35602">
        <ele>55.89</ele>
        <time>2018-04-21T15:10:23Z</time>
      </trkpt>
      <trkpt lat="38.11449" lon="13.356">
        <ele>56.86</ele>
        <time>2018-04-21T15:10:36Z</time>
      </trkpt>
      <trkpt lat="38.11449" lon="13.356">
        <ele>56.86</ele>
        <time>2018-04-21T15:10:49Z</time>
      </trkpt>
      <trkpt lat="38.11447" lon="13.35601">
        <ele>55.41</ele>
        <time>2018-04-21T15:11:11Z</time>
      </trkpt>
      <trkpt lat="38.11441" lon="13.35609">
        <ele>55.89</ele>
        <time>2018-04-21T15:11:32Z</time>
      </trkpt>
      <trkpt lat="38.11437" lon="13.35607">
        <ele>55.89</ele>
        <time>2018-04-21T15:11:52Z</time>
      </trkpt>
      <trkpt lat="38.11438" lon="13.35608">
        <ele>55.41</ele>
        <time>2018-04-21T15:12:13Z</time>
      </trkpt>
      <trkpt lat="38.11437" lon="13.35608">
        <ele>54.45</ele>
        <time>2018-04-21T15:12:32Z</time>
      </trkpt>
      <trkpt lat="38.11437" lon="13.35608">
        <ele>54.45</ele>
        <time>2018-04-21T15:12:50Z</time>
      </trkpt>
      <trkpt lat="38.11437" lon="13.35609">
        <ele>53.97</ele>
        <time>2018-04-21T15:13:07Z</time>
      </trkpt>
      <trkpt lat="38.11437" lon="13.3561">
        <ele>53.97</ele>
        <time>2018-04-21T15:13:23Z</time>
      </trkpt>
      <trkpt lat="38.11437" lon="13.3561">
        <ele>54.93</ele>
        <time>2018-04-21T15:13:44Z</time>
      </trkpt>
      <trkpt lat="38.11438" lon="13.3561">
        <ele>54.45</ele>
        <time>2018-04-21T15:14:01Z</time>
      </trkpt>
      <trkpt lat="38.11438" lon="13.35611">
        <ele>53.01</ele>
        <time>2018-04-21T15:14:21Z</time>
      </trkpt>
      <trkpt lat="38.11438" lon="13.35611">
        <ele>53.49</ele>
        <time>2018-04-21T15:14:36Z</time>
      </trkpt>
      <trkpt lat="38.11438" lon="13.35612">
        <ele>53.97</ele>
        <time>2018-04-21T15:15:03Z</time>
      </trkpt>
      <trkpt lat="38.11439" lon="13.35613">
        <ele>53.49</ele>
        <time>2018-04-21T15:15:32Z</time>
      </trkpt>
      <trkpt lat="38.11438" lon="13.35614">
        <ele>54.45</ele>
        <time>2018-04-21T15:15:56Z</time>
      </trkpt>
      <trkpt lat="38.11437" lon="13.35613">
        <ele>54.93</ele>
        <time>2018-04-21T15:16:08Z</time>
      </trkpt>
      <trkpt lat="38.11437" lon="13.35613">
        <ele>54.93</ele>
        <time>2018-04-21T15:16:12Z</time>
      </trkpt>
      <trkpt lat="38.11442" lon="13.35608">
        <ele>52.53</ele>
        <time>2018-04-21T15:16:24Z</time>
      </trkpt>
      <trkpt lat="38.11439" lon="13.35599">
        <ele>50.13</ele>
        <time>2018-04-21T15:16:37Z</time>
      </trkpt>
      <trkpt lat="38.11438" lon="13.35598">
        <ele>51.09</ele>
        <time>2018-04-21T15:16:46Z</time>
      </trkpt>
      <trkpt lat="38.11432" lon="13.35586">
        <ele>48.68</ele>
        <time>2018-04-21T15:17:00Z</time>
      </trkpt>
      <trkpt lat="38.11426" lon="13.35576">
        <ele>48.2</ele>
        <time>2018-04-21T15:17:13Z</time>
      </trkpt>
      <trkpt lat="38.11424" lon="13.35569">
        <ele>51.57</ele>
        <time>2018-04-21T15:17:27Z</time>
      </trkpt>
      <trkpt lat="38.11423" lon="13.35568">
        <ele>52.53</ele>
        <time>2018-04-21T15:17:40Z</time>
      </trkpt>
      <trkpt lat="38.1142" lon="13.35564">
        <ele>52.05</ele>
        <time>2018-04-21T15:17:53Z</time>
      </trkpt>
      <trkpt lat="38.11414" lon="13.35553">
        <ele>51.57</ele>
        <time>2018-04-21T15:18:09Z</time>
      </trkpt>
      <trkpt lat="38.11413" lon="13.35552">
        <ele>53.97</ele>
        <time>2018-04-21T15:18:28Z</time>
      </trkpt>
      <trkpt lat="38.11414" lon="13.35553">
        <ele>55.41</ele>
        <time>2018-04-21T15:18:52Z</time>
      </trkpt>
      <trkpt lat="38.11409" lon="13.35557">
        <ele>54.93</ele>
        <time>2018-04-21T15:19:04Z</time>
      </trkpt>
      <trkpt lat="38.11408" lon="13.35557">
        <ele>54.45</ele>
        <time>2018-04-21T15:19:19Z</time>
      </trkpt>
      <trkpt lat="38.11408" lon="13.35559">
        <ele>55.41</ele>
        <time>2018-04-21T15:19:35Z</time>
      </trkpt>
      <trkpt lat="38.11407" lon="13.35558">
        <ele>55.41</ele>
        <time>2018-04-21T15:19:53Z</time>
      </trkpt>
      <trkpt lat="38.11405" lon="13.35562">
        <ele>53.49</ele>
        <time>2018-04-21T15:20:05Z</time>
      </trkpt>
      <trkpt lat="38.11404" lon="13.35561">
        <ele>53.01</ele>
        <time>2018-04-21T15:20:33Z</time>
      </trkpt>
      <trkpt lat="38.11401" lon="13.35564">
        <ele>51.09</ele>
        <time>2018-04-21T15:20:48Z</time>
      </trkpt>
      <trkpt lat="38.11401" lon="13.35566">
        <ele>49.16</ele>
        <time>2018-04-21T15:21:00Z</time>
      </trkpt>
      <trkpt lat="38.11395" lon="13.35559">
        <ele>46.28</ele>
        <time>2018-04-21T15:21:17Z</time>
      </trkpt>
      <trkpt lat="38.1141" lon="13.35598">
        <ele>44.36</ele>
        <time>2018-04-21T15:22:55Z</time>
      </trkpt>
      <trkpt lat="38.114" lon="13.35602">
        <ele>34.26</ele>
        <time>2018-04-21T15:23:08Z</time>
      </trkpt>
      <trkpt lat="38.11399" lon="13.35602">
        <ele>32.82</ele>
        <time>2018-04-21T15:23:19Z</time>
      </trkpt>
      <trkpt lat="38.11392" lon="13.35602">
        <ele>31.38</ele>
        <time>2018-04-21T15:23:32Z</time>
      </trkpt>
      <trkpt lat="38.11382" lon="13.35602">
        <ele>32.34</ele>
        <time>2018-04-21T15:23:45Z</time>
      </trkpt>
      <trkpt lat="38.11374" lon="13.35602">
        <ele>32.34</ele>
        <time>2018-04-21T15:23:56Z</time>
      </trkpt>
      <trkpt lat="38.11372" lon="13.35606">
        <ele>32.34</ele>
        <time>2018-04-21T15:24:08Z</time>
      </trkpt>
      <trkpt lat="38.11371" lon="13.35608">
        <ele>33.78</ele>
        <time>2018-04-21T15:24:16Z</time>
      </trkpt>
      <trkpt lat="38.11364" lon="13.35621">
        <ele>31.38</ele>
        <time>2018-04-21T15:24:29Z</time>
      </trkpt>
      <trkpt lat="38.1136" lon="13.35618">
        <ele>28.5</ele>
        <time>2018-04-21T15:24:39Z</time>
      </trkpt>
      <trkpt lat="38.11356" lon="13.35616">
        <ele>28.5</ele>
        <time>2018-04-21T15:24:45Z</time>
      </trkpt>
      <trkpt lat="38.1135" lon="13.35605">
        <ele>29.46</ele>
        <time>2018-04-21T15:24:58Z</time>
      </trkpt>
      <trkpt lat="38.11348" lon="13.35601">
        <ele>30.42</ele>
        <time>2018-04-21T15:25:09Z</time>
      </trkpt>
      <trkpt lat="38.11346" lon="13.35598">
        <ele>30.9</ele>
        <time>2018-04-21T15:25:22Z</time>
      </trkpt>
      <trkpt lat="38.11345" lon="13.35595">
        <ele>29.94</ele>
        <time>2018-04-21T15:25:38Z</time>
      </trkpt>
      <trkpt lat="38.11342" lon="13.3558">
        <ele>25.13</ele>
        <time>2018-04-21T15:25:51Z</time>
      </trkpt>
      <trkpt lat="38.11334" lon="13.35569">
        <ele>22.25</ele>
        <time>2018-04-21T15:26:02Z</time>
      </trkpt>
      <trkpt lat="38.11325" lon="13.3556">
        <ele>25.13</ele>
        <time>2018-04-21T15:26:16Z</time>
      </trkpt>
      <trkpt lat="38.11322" lon="13.35557">
        <ele>27.53</ele>
        <time>2018-04-21T15:26:31Z</time>
      </trkpt>
      <trkpt lat="38.11311" lon="13.35549">
        <ele>29.94</ele>
        <time>2018-04-21T15:26:49Z</time>
      </trkpt>
      <trkpt lat="38.11304" lon="13.35546">
        <ele>31.38</ele>
        <time>2018-04-21T15:26:58Z</time>
      </trkpt>
      <trkpt lat="38.11299" lon="13.35542">
        <ele>31.86</ele>
        <time>2018-04-21T15:27:11Z</time>
      </trkpt>
      <trkpt lat="38.11294" lon="13.35537">
        <ele>31.86</ele>
        <time>2018-04-21T15:27:24Z</time>
      </trkpt>
      <trkpt lat="38.11283" lon="13.35528">
        <ele>28.5</ele>
        <time>2018-04-21T15:27:40Z</time>
      </trkpt>
      <trkpt lat="38.11272" lon="13.3552">
        <ele>29.46</ele>
        <time>2018-04-21T15:27:56Z</time>
      </trkpt>
      <trkpt lat="38.11263" lon="13.35516">
        <ele>31.38</ele>
        <time>2018-04-21T15:28:12Z</time>
      </trkpt>
      <trkpt lat="38.11255" lon="13.35512">
        <ele>33.78</ele>
        <time>2018-04-21T15:28:28Z</time>
      </trkpt>
      <trkpt lat="38.11247" lon="13.35508">
        <ele>33.3</ele>
        <time>2018-04-21T15:28:42Z</time>
      </trkpt>
      <trkpt lat="38.11241" lon="13.35504">
        <ele>31.86</ele>
        <time>2018-04-21T15:28:56Z</time>
      </trkpt>
      <trkpt lat="38.11237" lon="13.35503">
        <ele>32.82</ele>
        <time>2018-04-21T15:29:11Z</time>
      </trkpt>
      <trkpt lat="38.1123" lon="13.35506">
        <ele>34.26</ele>
        <time>2018-04-21T15:29:22Z</time>
      </trkpt>
      <trkpt lat="38.11221" lon="13.35505">
        <ele>35.23</ele>
        <time>2018-04-21T15:29:37Z</time>
      </trkpt>
      <trkpt lat="38.11214" lon="13.35504">
        <ele>34.74</ele>
        <time>2018-04-21T15:29:50Z</time>
      </trkpt>
      <trkpt lat="38.11204" lon="13.35501">
        <ele>35.23</ele>
        <time>2018-04-21T15:30:02Z</time>
      </trkpt>
      <trkpt lat="38.11196" lon="13.35498">
        <ele>35.23</ele>
        <time>2018-04-21T15:30:16Z</time>
      </trkpt>
      <trkpt lat="38.1119" lon="13.35495">
        <ele>35.71</ele>
        <time>2018-04-21T15:30:28Z</time>
      </trkpt>
      <trkpt lat="38.11184" lon="13.35495">
        <ele>37.63</ele>
        <time>2018-04-21T15:30:41Z</time>
      </trkpt>
      <trkpt lat="38.11177" lon="13.35497">
        <ele>35.71</ele>
        <time>2018-04-21T15:30:54Z</time>
      </trkpt>
      <trkpt lat="38.11175" lon="13.35499">
        <ele>36.67</ele>
        <time>2018-04-21T15:31:08Z</time>
      </trkpt>
      <trkpt lat="38.11174" lon="13.35498">
        <ele>35.71</ele>
        <time>2018-04-21T15:31:22Z</time>
      </trkpt>
      <trkpt lat="38.11173" lon="13.35497">
        <ele>35.71</ele>
        <time>2018-04-21T15:31:35Z</time>
      </trkpt>
      <trkpt lat="38.11173" lon="13.35498">
        <ele>36.19</ele>
        <time>2018-04-21T15:31:52Z</time>
      </trkpt>
      <trkpt lat="38.11173" lon="13.35498">
        <ele>36.19</ele>
        <time>2018-04-21T15:32:06Z</time>
      </trkpt>
      <trkpt lat="38.11172" lon="13.35497">
        <ele>36.19</ele>
        <time>2018-04-21T15:32:19Z</time>
      </trkpt>
      <trkpt lat="38.11173" lon="13.35496">
        <ele>36.19</ele>
        <time>2018-04-21T15:32:35Z</time>
      </trkpt>
      <trkpt lat="38.11173" lon="13.35496">
        <ele>37.15</ele>
        <time>2018-04-21T15:32:49Z</time>
      </trkpt>
      <trkpt lat="38.11173" lon="13.35496">
        <ele>37.15</ele>
        <time>2018-04-21T15:33:09Z</time>
      </trkpt>
      <trkpt lat="38.11173" lon="13.35495">
        <ele>36.67</ele>
        <time>2018-04-21T15:33:26Z</time>
      </trkpt>
      <trkpt lat="38.11174" lon="13.35494">
        <ele>36.67</ele>
        <time>2018-04-21T15:33:49Z</time>
      </trkpt>
      <trkpt lat="38.11174" lon="13.35494">
        <ele>36.67</ele>
        <time>2018-04-21T15:34:09Z</time>
      </trkpt>
      <trkpt lat="38.11174" lon="13.35495">
        <ele>36.19</ele>
        <time>2018-04-21T15:34:21Z</time>
      </trkpt>
      <trkpt lat="38.11175" lon="13.35496">
        <ele>33.78</ele>
        <time>2018-04-21T15:34:44Z</time>
      </trkpt>
      <trkpt lat="38.11175" lon="13.35495">
        <ele>34.74</ele>
        <time>2018-04-21T15:35:03Z</time>
      </trkpt>
      <trkpt lat="38.11175" lon="13.35495">
        <ele>34.74</ele>
        <time>2018-04-21T15:35:26Z</time>
      </trkpt>
      <trkpt lat="38.11175" lon="13.35495">
        <ele>34.74</ele>
        <time>2018-04-21T15:35:47Z</time>
      </trkpt>
      <trkpt lat="38.11174" lon="13.35495">
        <ele>34.74</ele>
        <time>2018-04-21T15:36:07Z</time>
      </trkpt>
      <trkpt lat="38.11175" lon="13.35496">
        <ele>34.74</ele>
        <time>2018-04-21T15:36:20Z</time>
      </trkpt>
      <trkpt lat="38.11175" lon="13.35496">
        <ele>34.26</ele>
        <time>2018-04-21T15:36:37Z</time>
      </trkpt>
      <trkpt lat="38.11175" lon="13.35496">
        <ele>33.78</ele>
        <time>2018-04-21T15:36:50Z</time>
      </trkpt>
      <trkpt lat="38.11176" lon="13.35496">
        <ele>33.78</ele>
        <time>2018-04-21T15:37:09Z</time>
      </trkpt>
      <trkpt lat="38.11176" lon="13.35496">
        <ele>33.3</ele>
        <time>2018-04-21T15:37:26Z</time>
      </trkpt>
      <trkpt lat="38.11176" lon="13.35496">
        <ele>33.3</ele>
        <time>2018-04-21T15:37:39Z</time>
      </trkpt>
      <trkpt lat="38.11173" lon="13.35494">
        <ele>35.23</ele>
        <time>2018-04-21T15:37:53Z</time>
      </trkpt>
      <trkpt lat="38.11172" lon="13.3549">
        <ele>34.74</ele>
        <time>2018-04-21T15:37:58Z</time>
      </trkpt>
      <trkpt lat="38.11166" lon="13.35483">
        <ele>35.23</ele>
        <time>2018-04-21T15:38:06Z</time>
      </trkpt>
      <trkpt lat="38.11169" lon="13.3547">
        <ele>36.67</ele>
        <time>2018-04-21T15:38:19Z</time>
      </trkpt>
      <trkpt lat="38.11172" lon="13.35468">
        <ele>37.15</ele>
        <time>2018-04-21T15:38:25Z</time>
      </trkpt>
      <trkpt lat="38.11179" lon="13.35462">
        <ele>39.07</ele>
        <time>2018-04-21T15:38:38Z</time>
      </trkpt>
      <trkpt lat="38.11183" lon="13.35451">
        <ele>39.55</ele>
        <time>2018-04-21T15:38:53Z</time>
      </trkpt>
      <trkpt lat="38.11182" lon="13.35443">
        <ele>40.51</ele>
        <time>2018-04-21T15:39:06Z</time>
      </trkpt>
      <trkpt lat="38.11178" lon="13.35435">
        <ele>40.03</ele>
        <time>2018-04-21T15:39:22Z</time>
      </trkpt>
      <trkpt lat="38.11177" lon="13.35429">
        <ele>39.55</ele>
        <time>2018-04-21T15:39:33Z</time>
      </trkpt>
      <trkpt lat="38.11175" lon="13.35422">
        <ele>41.47</ele>
        <time>2018-04-21T15:39:45Z</time>
      </trkpt>
      <trkpt lat="38.11171" lon="13.35412">
        <ele>43.4</ele>
        <time>2018-04-21T15:39:58Z</time>
      </trkpt>
      <trkpt lat="38.11171" lon="13.35398">
        <ele>42.44</ele>
        <time>2018-04-21T15:40:15Z</time>
      </trkpt>
      <trkpt lat="38.11178" lon="13.35389">
        <ele>41.95</ele>
        <time>2018-04-21T15:40:26Z</time>
      </trkpt>
      <trkpt lat="38.11183" lon="13.3538">
        <ele>40.99</ele>
        <time>2018-04-21T15:40:38Z</time>
      </trkpt>
      <trkpt lat="38.11186" lon="13.35373">
        <ele>40.51</ele>
        <time>2018-04-21T15:40:50Z</time>
      </trkpt>
      <trkpt lat="38.1119" lon="13.3537">
        <ele>41.95</ele>
        <time>2018-04-21T15:41:03Z</time>
      </trkpt>
      <trkpt lat="38.11199" lon="13.35367">
        <ele>40.99</ele>
        <time>2018-04-21T15:41:17Z</time>
      </trkpt>
      <trkpt lat="38.11199" lon="13.35366">
        <ele>40.99</ele>
        <time>2018-04-21T15:41:18Z</time>
      </trkpt>
      <trkpt lat="38.11204" lon="13.35365">
        <ele>40.51</ele>
        <time>2018-04-21T15:41:22Z</time>
      </trkpt>
      <trkpt lat="38.11209" lon="13.35363">
        <ele>41.47</ele>
        <time>2018-04-21T15:41:31Z</time>
      </trkpt>
      <trkpt lat="38.11215" lon="13.35357">
        <ele>43.4</ele>
        <time>2018-04-21T15:41:45Z</time>
      </trkpt>
      <trkpt lat="38.11216" lon="13.35358">
        <ele>42.44</ele>
        <time>2018-04-21T15:42:00Z</time>
      </trkpt>
      <trkpt lat="38.11216" lon="13.35353">
        <ele>41.95</ele>
        <time>2018-04-21T15:42:15Z</time>
      </trkpt>
      <trkpt lat="38.11215" lon="13.35345">
        <ele>43.4</ele>
        <time>2018-04-21T15:42:27Z</time>
      </trkpt>
      <trkpt lat="38.11214" lon="13.35343">
        <ele>43.4</ele>
        <time>2018-04-21T15:42:48Z</time>
      </trkpt>
      <trkpt lat="38.11214" lon="13.35342">
        <ele>43.4</ele>
        <time>2018-04-21T15:43:02Z</time>
      </trkpt>
      <trkpt lat="38.11215" lon="13.35337">
        <ele>40.99</ele>
        <time>2018-04-21T15:43:15Z</time>
      </trkpt>
      <trkpt lat="38.11216" lon="13.35334">
        <ele>40.51</ele>
        <time>2018-04-21T15:43:26Z</time>
      </trkpt>
      <trkpt lat="38.11211" lon="13.35338">
        <ele>39.55</ele>
        <time>2018-04-21T15:43:37Z</time>
      </trkpt>
      <trkpt lat="38.11202" lon="13.35338">
        <ele>39.55</ele>
        <time>2018-04-21T15:43:50Z</time>
      </trkpt>
      <trkpt lat="38.11196" lon="13.35336">
        <ele>38.59</ele>
        <time>2018-04-21T15:44:03Z</time>
      </trkpt>
      <trkpt lat="38.11193" lon="13.35335">
        <ele>39.55</ele>
        <time>2018-04-21T15:44:15Z</time>
      </trkpt>
      <trkpt lat="38.11192" lon="13.35336">
        <ele>39.55</ele>
        <time>2018-04-21T15:44:34Z</time>
      </trkpt>
      <trkpt lat="38.11191" lon="13.35336">
        <ele>39.55</ele>
        <time>2018-04-21T15:44:53Z</time>
      </trkpt>
      <trkpt lat="38.11191" lon="13.35336">
        <ele>39.55</ele>
        <time>2018-04-21T15:44:54Z</time>
      </trkpt>
      <trkpt lat="38.11189" lon="13.35335">
        <ele>40.03</ele>
        <time>2018-04-21T15:45:05Z</time>
      </trkpt>
      <trkpt lat="38.11188" lon="13.35334">
        <ele>40.03</ele>
        <time>2018-04-21T15:45:15Z</time>
      </trkpt>
      <trkpt lat="38.11187" lon="13.35334">
        <ele>41.47</ele>
        <time>2018-04-21T15:45:27Z</time>
      </trkpt>
      <trkpt lat="38.11187" lon="13.35334">
        <ele>41.47</ele>
        <time>2018-04-21T15:45:43Z</time>
      </trkpt>
      <trkpt lat="38.11188" lon="13.35332">
        <ele>41.95</ele>
        <time>2018-04-21T15:45:49Z</time>
      </trkpt>
      <trkpt lat="38.11195" lon="13.35323">
        <ele>42.44</ele>
        <time>2018-04-21T15:46:03Z</time>
      </trkpt>
      <trkpt lat="38.112" lon="13.35316">
        <ele>45.32</ele>
        <time>2018-04-21T15:46:15Z</time>
      </trkpt>
      <trkpt lat="38.11207" lon="13.35308">
        <ele>47.72</ele>
        <time>2018-04-21T15:46:27Z</time>
      </trkpt>
      <trkpt lat="38.11214" lon="13.35314">
        <ele>49.16</ele>
        <time>2018-04-21T15:46:39Z</time>
      </trkpt>
      <trkpt lat="38.11218" lon="13.35315">
        <ele>47.72</ele>
        <time>2018-04-21T15:46:56Z</time>
      </trkpt>
      <trkpt lat="38.11219" lon="13.35315">
        <ele>47.24</ele>
        <time>2018-04-21T15:47:07Z</time>
      </trkpt>
      <trkpt lat="38.11222" lon="13.35307">
        <ele>46.28</ele>
        <time>2018-04-21T15:47:21Z</time>
      </trkpt>
      <trkpt lat="38.11219" lon="13.35295">
        <ele>44.36</ele>
        <time>2018-04-21T15:47:32Z</time>
      </trkpt>
      <trkpt lat="38.11217" lon="13.35287">
        <ele>44.36</ele>
        <time>2018-04-21T15:47:43Z</time>
      </trkpt>
      <trkpt lat="38.11224" lon="13.35265">
        <ele>42.92</ele>
        <time>2018-04-21T15:48:02Z</time>
      </trkpt>
      <trkpt lat="38.11214" lon="13.35262">
        <ele>43.4</ele>
        <time>2018-04-21T15:48:14Z</time>
      </trkpt>
      <trkpt lat="38.11205" lon="13.35256">
        <ele>40.51</ele>
        <time>2018-04-21T15:48:26Z</time>
      </trkpt>
      <trkpt lat="38.11201" lon="13.35252">
        <ele>38.59</ele>
        <time>2018-04-21T15:48:43Z</time>
      </trkpt>
      <trkpt lat="38.11197" lon="13.35243">
        <ele>39.55</ele>
        <time>2018-04-21T15:48:55Z</time>
      </trkpt>
      <trkpt lat="38.11197" lon="13.35238">
        <ele>39.55</ele>
        <time>2018-04-21T15:49:07Z</time>
      </trkpt>
      <trkpt lat="38.11202" lon="13.35228">
        <ele>40.03</ele>
        <time>2018-04-21T15:49:20Z</time>
      </trkpt>
      <trkpt lat="38.11205" lon="13.35227">
        <ele>40.03</ele>
        <time>2018-04-21T15:49:31Z</time>
      </trkpt>
      <trkpt lat="38.11205" lon="13.35227">
        <ele>40.51</ele>
        <time>2018-04-21T15:49:50Z</time>
      </trkpt>
      <trkpt lat="38.11205" lon="13.35227">
        <ele>40.51</ele>
        <time>2018-04-21T15:50:08Z</time>
      </trkpt>
      <trkpt lat="38.11204" lon="13.35226">
        <ele>40.99</ele>
        <time>2018-04-21T15:50:37Z</time>
      </trkpt>
      <trkpt lat="38.11204" lon="13.35226">
        <ele>40.99</ele>
        <time>2018-04-21T15:50:51Z</time>
      </trkpt>
      <trkpt lat="38.11203" lon="13.35226">
        <ele>41.47</ele>
        <time>2018-04-21T15:51:05Z</time>
      </trkpt>
      <trkpt lat="38.11204" lon="13.35225">
        <ele>41.47</ele>
        <time>2018-04-21T15:51:29Z</time>
      </trkpt>
      <trkpt lat="38.11204" lon="13.35226">
        <ele>42.44</ele>
        <time>2018-04-21T15:51:56Z</time>
      </trkpt>
      <trkpt lat="38.11203" lon="13.35225">
        <ele>41.95</ele>
        <time>2018-04-21T15:52:19Z</time>
      </trkpt>
      <trkpt lat="38.11204" lon="13.35224">
        <ele>41.95</ele>
        <time>2018-04-21T15:52:41Z</time>
      </trkpt>
      <trkpt lat="38.11201" lon="13.35226">
        <ele>41.95</ele>
        <time>2018-04-21T15:53:01Z</time>
      </trkpt>
      <trkpt lat="38.11199" lon="13.35229">
        <ele>41.47</ele>
        <time>2018-04-21T15:53:11Z</time>
      </trkpt>
      <trkpt lat="38.11204" lon="13.35224">
        <ele>41.47</ele>
        <time>2018-04-21T15:53:24Z</time>
      </trkpt>
      <trkpt lat="38.11205" lon="13.35224">
        <ele>41.95</ele>
        <time>2018-04-21T15:53:40Z</time>
      </trkpt>
      <trkpt lat="38.11204" lon="13.35225">
        <ele>41.47</ele>
        <time>2018-04-21T15:53:54Z</time>
      </trkpt>
      <trkpt lat="38.11205" lon="13.35228">
        <ele>41.47</ele>
        <time>2018-04-21T15:54:07Z</time>
      </trkpt>
      <trkpt lat="38.11205" lon="13.35228">
        <ele>40.99</ele>
        <time>2018-04-21T15:54:36Z</time>
      </trkpt>
      <trkpt lat="38.11203" lon="13.3523">
        <ele>40.99</ele>
        <time>2018-04-21T15:54:57Z</time>
      </trkpt>
      <trkpt lat="38.11202" lon="13.3523">
        <ele>40.99</ele>
        <time>2018-04-21T15:55:16Z</time>
      </trkpt>
      <trkpt lat="38.112" lon="13.35237">
        <ele>40.99</ele>
        <time>2018-04-21T15:55:36Z</time>
      </trkpt>
      <trkpt lat="38.11197" lon="13.35235">
        <ele>40.99</ele>
        <time>2018-04-21T15:56:06Z</time>
      </trkpt>
      <trkpt lat="38.11196" lon="13.35239">
        <ele>40.99</ele>
        <time>2018-04-21T15:56:11Z</time>
      </trkpt>
      <trkpt lat="38.11199" lon="13.35247">
        <ele>41.47</ele>
        <time>2018-04-21T15:56:15Z</time>
      </trkpt>
      <trkpt lat="38.11203" lon="13.35251">
        <ele>42.44</ele>
        <time>2018-04-21T15:56:35Z</time>
      </trkpt>
      <trkpt lat="38.11201" lon="13.3524">
        <ele>43.88</ele>
        <time>2018-04-21T15:56:58Z</time>
      </trkpt>
      <trkpt lat="38.11196" lon="13.35244">
        <ele>45.8</ele>
        <time>2018-04-21T15:57:25Z</time>
      </trkpt>
      <trkpt lat="38.11196" lon="13.35245">
        <ele>46.76</ele>
        <time>2018-04-21T15:57:48Z</time>
      </trkpt>
      <trkpt lat="38.11202" lon="13.35236">
        <ele>46.76</ele>
        <time>2018-04-21T15:58:08Z</time>
      </trkpt>
      <trkpt lat="38.11198" lon="13.35234">
        <ele>46.76</ele>
        <time>2018-04-21T15:58:30Z</time>
      </trkpt>
      <trkpt lat="38.11197" lon="13.35236">
        <ele>46.76</ele>
        <time>2018-04-21T15:58:51Z</time>
      </trkpt>
      <trkpt lat="38.11194" lon="13.35245">
        <ele>53.49</ele>
        <time>2018-04-21T15:59:12Z</time>
      </trkpt>
      <trkpt lat="38.11194" lon="13.35244">
        <ele>54.93</ele>
        <time>2018-04-21T15:59:33Z</time>
      </trkpt>
      <trkpt lat="38.11192" lon="13.35244">
        <ele>56.37</ele>
        <time>2018-04-21T15:59:53Z</time>
      </trkpt>
      <trkpt lat="38.11192" lon="13.35243">
        <ele>56.37</ele>
        <time>2018-04-21T16:00:11Z</time>
      </trkpt>
      <trkpt lat="38.11191" lon="13.35244">
        <ele>58.3</ele>
        <time>2018-04-21T16:00:33Z</time>
      </trkpt>
      <trkpt lat="38.11187" lon="13.35243">
        <ele>59.74</ele>
        <time>2018-04-21T16:00:51Z</time>
      </trkpt>
      <trkpt lat="38.1119" lon="13.35243">
        <ele>59.26</ele>
        <time>2018-04-21T16:01:11Z</time>
      </trkpt>
      <trkpt lat="38.11193" lon="13.35238">
        <ele>58.78</ele>
        <time>2018-04-21T16:01:22Z</time>
      </trkpt>
      <trkpt lat="38.11192" lon="13.35234">
        <ele>59.74</ele>
        <time>2018-04-21T16:01:42Z</time>
      </trkpt>
      <trkpt lat="38.11185" lon="13.35234">
        <ele>60.22</ele>
        <time>2018-04-21T16:02:10Z</time>
      </trkpt>
      <trkpt lat="38.11189" lon="13.35241">
        <ele>61.18</ele>
        <time>2018-04-21T16:02:34Z</time>
      </trkpt>
      <trkpt lat="38.11189" lon="13.35243">
        <ele>61.66</ele>
        <time>2018-04-21T16:02:50Z</time>
      </trkpt>
      <trkpt lat="38.11185" lon="13.35194">
        <ele>61.66</ele>
        <time>2018-04-21T16:03:28Z</time>
      </trkpt>
      <trkpt lat="38.11178" lon="13.35232">
        <ele>62.62</ele>
        <time>2018-04-21T16:03:49Z</time>
      </trkpt>
      <trkpt lat="38.11177" lon="13.35242">
        <ele>64.07</ele>
        <time>2018-04-21T16:04:09Z</time>
      </trkpt>
      <trkpt lat="38.11178" lon="13.35245">
        <ele>66.47</ele>
        <time>2018-04-21T16:04:34Z</time>
      </trkpt>
      <trkpt lat="38.11179" lon="13.3525">
        <ele>67.43</ele>
        <time>2018-04-21T16:04:58Z</time>
      </trkpt>
      <trkpt lat="38.11183" lon="13.35254">
        <ele>69.35</ele>
        <time>2018-04-21T16:05:16Z</time>
      </trkpt>
      <trkpt lat="38.11183" lon="13.35247">
        <ele>69.83</ele>
        <time>2018-04-21T16:05:32Z</time>
      </trkpt>
      <trkpt lat="38.11183" lon="13.35247">
        <ele>70.31</ele>
        <time>2018-04-21T16:05:47Z</time>
      </trkpt>
      <trkpt lat="38.11184" lon="13.35251">
        <ele>71.27</ele>
        <time>2018-04-21T16:06:04Z</time>
      </trkpt>
      <trkpt lat="38.11181" lon="13.35246">
        <ele>71.76</ele>
        <time>2018-04-21T16:06:15Z</time>
      </trkpt>
      <trkpt lat="38.11176" lon="13.35241">
        <ele>71.76</ele>
        <time>2018-04-21T16:06:32Z</time>
      </trkpt>
      <trkpt lat="38.11176" lon="13.35243">
        <ele>72.24</ele>
        <time>2018-04-21T16:06:56Z</time>
      </trkpt>
      <trkpt lat="38.11175" lon="13.35239">
        <ele>73.2</ele>
        <time>2018-04-21T16:07:15Z</time>
      </trkpt>
      <trkpt lat="38.11175" lon="13.35247">
        <ele>73.68</ele>
        <time>2018-04-21T16:07:38Z</time>
      </trkpt>
      <trkpt lat="38.11172" lon="13.35251">
        <ele>73.68</ele>
        <time>2018-04-21T16:08:00Z</time>
      </trkpt>
      <trkpt lat="38.11173" lon="13.35249">
        <ele>73.2</ele>
        <time>2018-04-21T16:08:17Z</time>
      </trkpt>
      <trkpt lat="38.11177" lon="13.35241">
        <ele>73.2</ele>
        <time>2018-04-21T16:08:34Z</time>
      </trkpt>
      <trkpt lat="38.11176" lon="13.3524">
        <ele>73.2</ele>
        <time>2018-04-21T16:08:45Z</time>
      </trkpt>
      <trkpt lat="38.11178" lon="13.3524">
        <ele>73.68</ele>
        <time>2018-04-21T16:09:03Z</time>
      </trkpt>
      <trkpt lat="38.11185" lon="13.35239">
        <ele>73.68</ele>
        <time>2018-04-21T16:09:18Z</time>
      </trkpt>
      <trkpt lat="38.11194" lon="13.35233">
        <ele>69.35</ele>
        <time>2018-04-21T16:09:28Z</time>
      </trkpt>
      <trkpt lat="38.11193" lon="13.35235">
        <ele>68.39</ele>
        <time>2018-04-21T16:09:50Z</time>
      </trkpt>
      <trkpt lat="38.11193" lon="13.35236">
        <ele>67.43</ele>
        <time>2018-04-21T16:10:11Z</time>
      </trkpt>
      <trkpt lat="38.11193" lon="13.35236">
        <ele>65.03</ele>
        <time>2018-04-21T16:10:41Z</time>
      </trkpt>
      <trkpt lat="38.11194" lon="13.35237">
        <ele>65.03</ele>
        <time>2018-04-21T16:11:03Z</time>
      </trkpt>
      <trkpt lat="38.11193" lon="13.35237">
        <ele>65.03</ele>
        <time>2018-04-21T16:11:25Z</time>
      </trkpt>
      <trkpt lat="38.11192" lon="13.35231">
        <ele>65.03</ele>
        <time>2018-04-21T16:11:49Z</time>
      </trkpt>
      <trkpt lat="38.11191" lon="13.3524">
        <ele>66.47</ele>
        <time>2018-04-21T16:12:09Z</time>
      </trkpt>
      <trkpt lat="38.11189" lon="13.35242">
        <ele>66.47</ele>
        <time>2018-04-21T16:12:11Z</time>
      </trkpt>
      <trkpt lat="38.11182" lon="13.35243">
        <ele>67.43</ele>
        <time>2018-04-21T16:12:29Z</time>
      </trkpt>
      <trkpt lat="38.11178" lon="13.35231">
        <ele>67.91</ele>
        <time>2018-04-21T16:12:51Z</time>
      </trkpt>
      <trkpt lat="38.11187" lon="13.35237">
        <ele>69.35</ele>
        <time>2018-04-21T16:13:11Z</time>
      </trkpt>
      <trkpt lat="38.1119" lon="13.35238">
        <ele>69.35</ele>
        <time>2018-04-21T16:13:14Z</time>
      </trkpt>
      <trkpt lat="38.11191" lon="13.3524">
        <ele>69.83</ele>
        <time>2018-04-21T16:13:39Z</time>
      </trkpt>
      <trkpt lat="38.11179" lon="13.35236">
        <ele>70.79</ele>
        <time>2018-04-21T16:14:02Z</time>
      </trkpt>
      <trkpt lat="38.11171" lon="13.35233">
        <ele>70.79</ele>
        <time>2018-04-21T16:14:22Z</time>
      </trkpt>
      <trkpt lat="38.11163" lon="13.35224">
        <ele>71.27</ele>
        <time>2018-04-21T16:14:46Z</time>
      </trkpt>
      <trkpt lat="38.1118" lon="13.35238">
        <ele>71.27</ele>
        <time>2018-04-21T16:15:08Z</time>
      </trkpt>
      <trkpt lat="38.11182" lon="13.35237">
        <ele>72.24</ele>
        <time>2018-04-21T16:15:27Z</time>
      </trkpt>
      <trkpt lat="38.11169" lon="13.35227">
        <ele>72.72</ele>
        <time>2018-04-21T16:15:47Z</time>
      </trkpt>
      <trkpt lat="38.11178" lon="13.35239">
        <ele>72.72</ele>
        <time>2018-04-21T16:16:00Z</time>
      </trkpt>
      <trkpt lat="38.1118" lon="13.35241">
        <ele>74.16</ele>
        <time>2018-04-21T16:16:16Z</time>
      </trkpt>
      <trkpt lat="38.11178" lon="13.35241">
        <ele>75.6</ele>
        <time>2018-04-21T16:16:27Z</time>
      </trkpt>
      <trkpt lat="38.11174" lon="13.35242">
        <ele>76.08</ele>
        <time>2018-04-21T16:16:40Z</time>
      </trkpt>
      <trkpt lat="38.11172" lon="13.35238">
        <ele>76.08</ele>
        <time>2018-04-21T16:17:01Z</time>
      </trkpt>
      <trkpt lat="38.11171" lon="13.35238">
        <ele>76.56</ele>
        <time>2018-04-21T16:17:24Z</time>
      </trkpt>
      <trkpt lat="38.11172" lon="13.35238">
        <ele>76.56</ele>
        <time>2018-04-21T16:17:26Z</time>
      </trkpt>
      <trkpt lat="38.11177" lon="13.35236">
        <ele>76.56</ele>
        <time>2018-04-21T16:17:42Z</time>
      </trkpt>
      <trkpt lat="38.11177" lon="13.35235">
        <ele>77.04</ele>
        <time>2018-04-21T16:17:58Z</time>
      </trkpt>
      <trkpt lat="38.11179" lon="13.35234">
        <ele>75.6</ele>
        <time>2018-04-21T16:18:21Z</time>
      </trkpt>
      <trkpt lat="38.11183" lon="13.35232">
        <ele>75.12</ele>
        <time>2018-04-21T16:18:33Z</time>
      </trkpt>
      <trkpt lat="38.11192" lon="13.35228">
        <ele>70.79</ele>
        <time>2018-04-21T16:18:43Z</time>
      </trkpt>
      <trkpt lat="38.11197" lon="13.35224">
        <ele>65.99</ele>
        <time>2018-04-21T16:18:57Z</time>
      </trkpt>
      <trkpt lat="38.11199" lon="13.35221">
        <ele>63.1</ele>
        <time>2018-04-21T16:19:16Z</time>
      </trkpt>
      <trkpt lat="38.112" lon="13.3522">
        <ele>61.66</ele>
        <time>2018-04-21T16:19:32Z</time>
      </trkpt>
      <trkpt lat="38.112" lon="13.3522">
        <ele>61.18</ele>
        <time>2018-04-21T16:19:35Z</time>
      </trkpt>
      <trkpt lat="38.11199" lon="13.35208">
        <ele>60.7</ele>
        <time>2018-04-21T16:19:48Z</time>
      </trkpt>
      <trkpt lat="38.11196" lon="13.35193">
        <ele>59.74</ele>
        <time>2018-04-21T16:20:01Z</time>
      </trkpt>
      <trkpt lat="38.11196" lon="13.35193">
        <ele>59.26</ele>
        <time>2018-04-21T16:20:02Z</time>
      </trkpt>
      <trkpt lat="38.112" lon="13.3518">
        <ele>57.34</ele>
        <time>2018-04-21T16:20:12Z</time>
      </trkpt>
      <trkpt lat="38.11201" lon="13.35171">
        <ele>54.93</ele>
        <time>2018-04-21T16:20:20Z</time>
      </trkpt>
      <trkpt lat="38.11201" lon="13.35168">
        <ele>53.97</ele>
        <time>2018-04-21T16:20:22Z</time>
      </trkpt>
      <trkpt lat="38.11198" lon="13.35157">
        <ele>49.16</ele>
        <time>2018-04-21T16:20:31Z</time>
      </trkpt>
      <trkpt lat="38.11197" lon="13.35151">
        <ele>47.72</ele>
        <time>2018-04-21T16:20:36Z</time>
      </trkpt>
      <trkpt lat="38.11191" lon="13.35139">
        <ele>47.24</ele>
        <time>2018-04-21T16:20:48Z</time>
      </trkpt>
      <trkpt lat="38.11192" lon="13.35132">
        <ele>48.2</ele>
        <time>2018-04-21T16:20:54Z</time>
      </trkpt>
      <trkpt lat="38.11195" lon="13.35111">
        <ele>50.61</ele>
        <time>2018-04-21T16:21:08Z</time>
      </trkpt>
      <trkpt lat="38.11196" lon="13.35085">
        <ele>51.09</ele>
        <time>2018-04-21T16:21:24Z</time>
      </trkpt>
      <trkpt lat="38.11199" lon="13.35068">
        <ele>47.72</ele>
        <time>2018-04-21T16:21:39Z</time>
      </trkpt>
      <trkpt lat="38.11206" lon="13.35061">
        <ele>41.47</ele>
        <time>2018-04-21T16:21:53Z</time>
      </trkpt>
      <trkpt lat="38.11215" lon="13.35056">
        <ele>40.99</ele>
        <time>2018-04-21T16:22:04Z</time>
      </trkpt>
      <trkpt lat="38.11217" lon="13.35054">
        <ele>42.44</ele>
        <time>2018-04-21T16:22:08Z</time>
      </trkpt>
      <trkpt lat="38.11222" lon="13.35052">
        <ele>43.88</ele>
        <time>2018-04-21T16:22:21Z</time>
      </trkpt>
      <trkpt lat="38.11233" lon="13.35049">
        <ele>45.8</ele>
        <time>2018-04-21T16:22:34Z</time>
      </trkpt>
      <trkpt lat="38.1125" lon="13.35048">
        <ele>46.76</ele>
        <time>2018-04-21T16:22:47Z</time>
      </trkpt>
      <trkpt lat="38.11251" lon="13.35048">
        <ele>47.24</ele>
        <time>2018-04-21T16:22:48Z</time>
      </trkpt>
      <trkpt lat="38.11268" lon="13.3504">
        <ele>45.8</ele>
        <time>2018-04-21T16:22:58Z</time>
      </trkpt>
      <trkpt lat="38.11281" lon="13.35034">
        <ele>44.84</ele>
        <time>2018-04-21T16:23:12Z</time>
      </trkpt>
      <trkpt lat="38.11297" lon="13.35034">
        <ele>40.99</ele>
        <time>2018-04-21T16:23:26Z</time>
      </trkpt>
      <trkpt lat="38.11313" lon="13.35032">
        <ele>40.03</ele>
        <time>2018-04-21T16:23:40Z</time>
      </trkpt>
      <trkpt lat="38.11329" lon="13.35028">
        <ele>41.47</ele>
        <time>2018-04-21T16:23:55Z</time>
      </trkpt>
      <trkpt lat="38.11332" lon="13.35028">
        <ele>40.99</ele>
        <time>2018-04-21T16:23:58Z</time>
      </trkpt>
      <trkpt lat="38.11346" lon="13.35026">
        <ele>42.44</ele>
        <time>2018-04-21T16:24:11Z</time>
      </trkpt>
      <trkpt lat="38.11361" lon="13.35026">
        <ele>43.4</ele>
        <time>2018-04-21T16:24:25Z</time>
      </trkpt>
      <trkpt lat="38.11364" lon="13.35026">
        <ele>43.88</ele>
        <time>2018-04-21T16:24:29Z</time>
      </trkpt>
      <trkpt lat="38.11368" lon="13.35023">
        <ele>44.84</ele>
        <time>2018-04-21T16:24:33Z</time>
      </trkpt>
      <trkpt lat="38.11373" lon="13.35016">
        <ele>46.76</ele>
        <time>2018-04-21T16:24:40Z</time>
      </trkpt>
      <trkpt lat="38.11388" lon="13.35016">
        <ele>54.45</ele>
        <time>2018-04-21T16:24:56Z</time>
      </trkpt>
      <trkpt lat="38.11395" lon="13.35015">
        <ele>53.97</ele>
        <time>2018-04-21T16:25:04Z</time>
      </trkpt>
      <trkpt lat="38.11411" lon="13.35">
        <ele>52.53</ele>
        <time>2018-04-21T16:25:21Z</time>
      </trkpt>
      <trkpt lat="38.11419" lon="13.34991">
        <ele>52.53</ele>
        <time>2018-04-21T16:25:30Z</time>
      </trkpt>
      <trkpt lat="38.11435" lon="13.3498">
        <ele>51.09</ele>
        <time>2018-04-21T16:25:46Z</time>
      </trkpt>
      <trkpt lat="38.11451" lon="13.34972">
        <ele>50.13</ele>
        <time>2018-04-21T16:26:02Z</time>
      </trkpt>
      <trkpt lat="38.11465" lon="13.34968">
        <ele>50.13</ele>
        <time>2018-04-21T16:26:16Z</time>
      </trkpt>
      <trkpt lat="38.11471" lon="13.34964">
        <ele>50.13</ele>
        <time>2018-04-21T16:26:21Z</time>
      </trkpt>
      <trkpt lat="38.11482" lon="13.34963">
        <ele>50.13</ele>
        <time>2018-04-21T16:26:29Z</time>
      </trkpt>
      <trkpt lat="38.11491" lon="13.34957">
        <ele>50.13</ele>
        <time>2018-04-21T16:26:40Z</time>
      </trkpt>
      <trkpt lat="38.11495" lon="13.34958">
        <ele>50.61</ele>
        <time>2018-04-21T16:26:44Z</time>
      </trkpt>
      <trkpt lat="38.11508" lon="13.34953">
        <ele>50.61</ele>
        <time>2018-04-21T16:26:53Z</time>
      </trkpt>
      <trkpt lat="38.11525" lon="13.34974">
        <ele>56.86</ele>
        <time>2018-04-21T16:27:03Z</time>
      </trkpt>
      <trkpt lat="38.11531" lon="13.3496">
        <ele>65.99</ele>
        <time>2018-04-21T16:27:14Z</time>
      </trkpt>
      <trkpt lat="38.11539" lon="13.34957">
        <ele>61.66</ele>
        <time>2018-04-21T16:27:20Z</time>
      </trkpt>
      <trkpt lat="38.11548" lon="13.34962">
        <ele>66.47</ele>
        <time>2018-04-21T16:27:33Z</time>
      </trkpt>
      <trkpt lat="38.1155" lon="13.34964">
        <ele>64.55</ele>
        <time>2018-04-21T16:27:50Z</time>
      </trkpt>
      <trkpt lat="38.11555" lon="13.34966">
        <ele>59.26</ele>
        <time>2018-04-21T16:28:14Z</time>
      </trkpt>
      <trkpt lat="38.1156" lon="13.34955">
        <ele>58.78</ele>
        <time>2018-04-21T16:28:38Z</time>
      </trkpt>
      <trkpt lat="38.11557" lon="13.34958">
        <ele>56.86</ele>
        <time>2018-04-21T16:28:58Z</time>
      </trkpt>
      <trkpt lat="38.11559" lon="13.34954">
        <ele>56.37</ele>
        <time>2018-04-21T16:29:06Z</time>
      </trkpt>
      <trkpt lat="38.11554" lon="13.34962">
        <ele>42.44</ele>
        <time>2018-04-21T16:31:05Z</time>
      </trkpt>
      <trkpt lat="38.11556" lon="13.34958">
        <ele>27.53</ele>
        <time>2018-04-21T16:31:33Z</time>
      </trkpt>
      <trkpt lat="38.11557" lon="13.34955">
        <ele>16</ele>
        <time>2018-04-21T16:31:59Z</time>
      </trkpt>
      <trkpt lat="38.11557" lon="13.3495">
        <ele>25.61</ele>
        <time>2018-04-21T16:32:23Z</time>
      </trkpt>
      <trkpt lat="38.11559" lon="13.3495">
        <ele>31.38</ele>
        <time>2018-04-21T16:32:49Z</time>
      </trkpt>
      <trkpt lat="38.11559" lon="13.34942">
        <ele>29.94</ele>
        <time>2018-04-21T16:33:14Z</time>
      </trkpt>
      <trkpt lat="38.11561" lon="13.34943">
        <ele>32.34</ele>
        <time>2018-04-21T16:33:36Z</time>
      </trkpt>
      <trkpt lat="38.11563" lon="13.34941">
        <ele>35.23</ele>
        <time>2018-04-21T16:34:00Z</time>
      </trkpt>
      <trkpt lat="38.11559" lon="13.34945">
        <ele>36.67</ele>
        <time>2018-04-21T16:34:20Z</time>
      </trkpt>
      <trkpt lat="38.11554" lon="13.34961">
        <ele>38.59</ele>
        <time>2018-04-21T16:34:48Z</time>
      </trkpt>
      <trkpt lat="38.11556" lon="13.34942">
        <ele>44.36</ele>
        <time>2018-04-21T16:35:15Z</time>
      </trkpt>
      <trkpt lat="38.11561" lon="13.34937">
        <ele>45.8</ele>
        <time>2018-04-21T16:35:27Z</time>
      </trkpt>
      <trkpt lat="38.11569" lon="13.34936">
        <ele>48.2</ele>
        <time>2018-04-21T16:35:40Z</time>
      </trkpt>
      <trkpt lat="38.11573" lon="13.34933">
        <ele>48.2</ele>
        <time>2018-04-21T16:35:56Z</time>
      </trkpt>
      <trkpt lat="38.1158" lon="13.34928">
        <ele>47.24</ele>
        <time>2018-04-21T16:36:14Z</time>
      </trkpt>
      <trkpt lat="38.11588" lon="13.3492">
        <ele>44.84</ele>
        <time>2018-04-21T16:36:26Z</time>
      </trkpt>
      <trkpt lat="38.11606" lon="13.34919">
        <ele>45.32</ele>
        <time>2018-04-21T16:36:39Z</time>
      </trkpt>
      <trkpt lat="38.11613" lon="13.34927">
        <ele>45.8</ele>
        <time>2018-04-21T16:36:45Z</time>
      </trkpt>
      <trkpt lat="38.11625" lon="13.34931">
        <ele>46.28</ele>
        <time>2018-04-21T16:36:58Z</time>
      </trkpt>
      <trkpt lat="38.11632" lon="13.34928">
        <ele>45.8</ele>
        <time>2018-04-21T16:37:14Z</time>
      </trkpt>
      <trkpt lat="38.11638" lon="13.34907">
        <ele>45.8</ele>
        <time>2018-04-21T16:37:25Z</time>
      </trkpt>
      <trkpt lat="38.11644" lon="13.34906">
        <ele>49.16</ele>
        <time>2018-04-21T16:37:40Z</time>
      </trkpt>
      <trkpt lat="38.11649" lon="13.34914">
        <ele>50.13</ele>
        <time>2018-04-21T16:37:57Z</time>
      </trkpt>
      <trkpt lat="38.11649" lon="13.34914">
        <ele>51.09</ele>
        <time>2018-04-21T16:38:13Z</time>
      </trkpt>
      <trkpt lat="38.11652" lon="13.34911">
        <ele>52.05</ele>
        <time>2018-04-21T16:38:25Z</time>
      </trkpt>
      <trkpt lat="38.1167" lon="13.34908">
        <ele>53.01</ele>
        <time>2018-04-21T16:38:40Z</time>
      </trkpt>
      <trkpt lat="38.11689" lon="13.34903">
        <ele>54.93</ele>
        <time>2018-04-21T16:38:56Z</time>
      </trkpt>
      <trkpt lat="38.11701" lon="13.34889">
        <ele>58.3</ele>
        <time>2018-04-21T16:39:09Z</time>
      </trkpt>
      <trkpt lat="38.11699" lon="13.34876">
        <ele>54.45</ele>
        <time>2018-04-21T16:39:20Z</time>
      </trkpt>
      <trkpt lat="38.11715" lon="13.34886">
        <ele>53.97</ele>
        <time>2018-04-21T16:39:32Z</time>
      </trkpt>
      <trkpt lat="38.11719" lon="13.34887">
        <ele>53.97</ele>
        <time>2018-04-21T16:39:36Z</time>
      </trkpt>
      <trkpt lat="38.11726" lon="13.34886">
        <ele>53.97</ele>
        <time>2018-04-21T16:39:40Z</time>
      </trkpt>
      <trkpt lat="38.11743" lon="13.34878">
        <ele>54.45</ele>
        <time>2018-04-21T16:39:54Z</time>
      </trkpt>
      <trkpt lat="38.11741" lon="13.34864">
        <ele>53.49</ele>
        <time>2018-04-21T16:40:08Z</time>
      </trkpt>
      <trkpt lat="38.11759" lon="13.34866">
        <ele>56.37</ele>
        <time>2018-04-21T16:40:23Z</time>
      </trkpt>
      <trkpt lat="38.11781" lon="13.34862">
        <ele>59.74</ele>
        <time>2018-04-21T16:40:36Z</time>
      </trkpt>
      <trkpt lat="38.11791" lon="13.34855">
        <ele>59.74</ele>
        <time>2018-04-21T16:40:47Z</time>
      </trkpt>
      <trkpt lat="38.11799" lon="13.3485">
        <ele>60.22</ele>
        <time>2018-04-21T16:40:59Z</time>
      </trkpt>
      <trkpt lat="38.11802" lon="13.34847">
        <ele>59.74</ele>
        <time>2018-04-21T16:41:07Z</time>
      </trkpt>
      <trkpt lat="38.11803" lon="13.34841">
        <ele>58.78</ele>
        <time>2018-04-21T16:41:13Z</time>
      </trkpt>
      <trkpt lat="38.11802" lon="13.34838">
        <ele>58.3</ele>
        <time>2018-04-21T16:41:15Z</time>
      </trkpt>
      <trkpt lat="38.11803" lon="13.34832">
        <ele>56.37</ele>
        <time>2018-04-21T16:41:28Z</time>
      </trkpt>
      <trkpt lat="38.11814" lon="13.34846">
        <ele>56.86</ele>
        <time>2018-04-21T16:41:39Z</time>
      </trkpt>
      <trkpt lat="38.11824" lon="13.34844">
        <ele>53.97</ele>
        <time>2018-04-21T16:41:55Z</time>
      </trkpt>
      <trkpt lat="38.11851" lon="13.34844">
        <ele>53.49</ele>
        <time>2018-04-21T16:42:09Z</time>
      </trkpt>
      <trkpt lat="38.1186" lon="13.3483">
        <ele>57.34</ele>
        <time>2018-04-21T16:42:21Z</time>
      </trkpt>
      <trkpt lat="38.11868" lon="13.34824">
        <ele>58.3</ele>
        <time>2018-04-21T16:42:35Z</time>
      </trkpt>
      <trkpt lat="38.11868" lon="13.34818">
        <ele>58.78</ele>
        <time>2018-04-21T16:42:45Z</time>
      </trkpt>
      <trkpt lat="38.11872" lon="13.34809">
        <ele>58.78</ele>
        <time>2018-04-21T16:42:58Z</time>
      </trkpt>
      <trkpt lat="38.11877" lon="13.34804">
        <ele>59.26</ele>
        <time>2018-04-21T16:43:16Z</time>
      </trkpt>
      <trkpt lat="38.11881" lon="13.34803">
        <ele>59.26</ele>
        <time>2018-04-21T16:43:48Z</time>
      </trkpt>
      <trkpt lat="38.11881" lon="13.34803">
        <ele>59.26</ele>
        <time>2018-04-21T16:44:08Z</time>
      </trkpt>
      <trkpt lat="38.11879" lon="13.34802">
        <ele>59.26</ele>
        <time>2018-04-21T16:44:28Z</time>
      </trkpt>
      <trkpt lat="38.11879" lon="13.34802">
        <ele>59.26</ele>
        <time>2018-04-21T16:44:46Z</time>
      </trkpt>
      <trkpt lat="38.11879" lon="13.34803">
        <ele>59.26</ele>
        <time>2018-04-21T16:45:03Z</time>
      </trkpt>
      <trkpt lat="38.11882" lon="13.34802">
        <ele>59.26</ele>
        <time>2018-04-21T16:45:19Z</time>
      </trkpt>
      <trkpt lat="38.11882" lon="13.34803">
        <ele>58.78</ele>
        <time>2018-04-21T16:45:38Z</time>
      </trkpt>
      <trkpt lat="38.11882" lon="13.34803">
        <ele>59.74</ele>
        <time>2018-04-21T16:46:00Z</time>
      </trkpt>
      <trkpt lat="38.11882" lon="13.34803">
        <ele>60.22</ele>
        <time>2018-04-21T16:46:26Z</time>
      </trkpt>
      <trkpt lat="38.11882" lon="13.34804">
        <ele>61.66</ele>
        <time>2018-04-21T16:46:45Z</time>
      </trkpt>
      <trkpt lat="38.11882" lon="13.34803">
        <ele>61.18</ele>
        <time>2018-04-21T16:47:00Z</time>
      </trkpt>
      <trkpt lat="38.11882" lon="13.34804">
        <ele>61.18</ele>
        <time>2018-04-21T16:47:15Z</time>
      </trkpt>
      <trkpt lat="38.11882" lon="13.34804">
        <ele>61.66</ele>
        <time>2018-04-21T16:47:36Z</time>
      </trkpt>
      <trkpt lat="38.11882" lon="13.34804">
        <ele>61.66</ele>
        <time>2018-04-21T16:47:57Z</time>
      </trkpt>
      <trkpt lat="38.11882" lon="13.34804">
        <ele>62.62</ele>
        <time>2018-04-21T16:48:18Z</time>
      </trkpt>
      <trkpt lat="38.11882" lon="13.34804">
        <ele>63.1</ele>
        <time>2018-04-21T16:48:39Z</time>
      </trkpt>
      <trkpt lat="38.11882" lon="13.34804">
        <ele>63.58</ele>
        <time>2018-04-21T16:48:53Z</time>
      </trkpt>
      <trkpt lat="38.11882" lon="13.34804">
        <ele>64.55</ele>
        <time>2018-04-21T16:49:16Z</time>
      </trkpt>
      <trkpt lat="38.11882" lon="13.34804">
        <ele>65.51</ele>
        <time>2018-04-21T16:49:38Z</time>
      </trkpt>
      <trkpt lat="38.11883" lon="13.34805">
        <ele>65.99</ele>
        <time>2018-04-21T16:49:54Z</time>
      </trkpt>
      <trkpt lat="38.11882" lon="13.34804">
        <ele>65.03</ele>
        <time>2018-04-21T16:50:07Z</time>
      </trkpt>
      <trkpt lat="38.11883" lon="13.34802">
        <ele>64.55</ele>
        <time>2018-04-21T16:50:27Z</time>
      </trkpt>
      <trkpt lat="38.11883" lon="13.34803">
        <ele>64.55</ele>
        <time>2018-04-21T16:50:48Z</time>
      </trkpt>
      <trkpt lat="38.11883" lon="13.34803">
        <ele>65.03</ele>
        <time>2018-04-21T16:51:11Z</time>
      </trkpt>
      <trkpt lat="38.11882" lon="13.34805">
        <ele>65.03</ele>
        <time>2018-04-21T16:51:35Z</time>
      </trkpt>
      <trkpt lat="38.11881" lon="13.34804">
        <ele>65.51</ele>
        <time>2018-04-21T16:51:57Z</time>
      </trkpt>
      <trkpt lat="38.1188" lon="13.34802">
        <ele>65.51</ele>
        <time>2018-04-21T16:52:23Z</time>
      </trkpt>
      <trkpt lat="38.1188" lon="13.34802">
        <ele>64.55</ele>
        <time>2018-04-21T16:52:47Z</time>
      </trkpt>
      <trkpt lat="38.11878" lon="13.34802">
        <ele>64.55</ele>
        <time>2018-04-21T16:53:06Z</time>
      </trkpt>
      <trkpt lat="38.11879" lon="13.34802">
        <ele>64.55</ele>
        <time>2018-04-21T16:53:21Z</time>
      </trkpt>
      <trkpt lat="38.11878" lon="13.348">
        <ele>64.55</ele>
        <time>2018-04-21T16:53:33Z</time>
      </trkpt>
      <trkpt lat="38.11878" lon="13.34798">
        <ele>66.47</ele>
        <time>2018-04-21T16:53:46Z</time>
      </trkpt>
      <trkpt lat="38.11879" lon="13.34802">
        <ele>65.99</ele>
        <time>2018-04-21T16:53:58Z</time>
      </trkpt>
      <trkpt lat="38.1188" lon="13.34805">
        <ele>65.99</ele>
        <time>2018-04-21T16:54:14Z</time>
      </trkpt>
      <trkpt lat="38.11881" lon="13.34806">
        <ele>65.51</ele>
        <time>2018-04-21T16:54:30Z</time>
      </trkpt>
      <trkpt lat="38.11879" lon="13.348">
        <ele>65.99</ele>
        <time>2018-04-21T16:54:43Z</time>
      </trkpt>
      <trkpt lat="38.11881" lon="13.34804">
        <ele>65.51</ele>
        <time>2018-04-21T16:54:59Z</time>
      </trkpt>
      <trkpt lat="38.11881" lon="13.34806">
        <ele>65.99</ele>
        <time>2018-04-21T16:55:16Z</time>
      </trkpt>
      <trkpt lat="38.11881" lon="13.34807">
        <ele>65.03</ele>
        <time>2018-04-21T16:55:29Z</time>
      </trkpt>
      <trkpt lat="38.1188" lon="13.34807">
        <ele>65.51</ele>
        <time>2018-04-21T16:55:57Z</time>
      </trkpt>
      <trkpt lat="38.11879" lon="13.34808">
        <ele>65.51</ele>
        <time>2018-04-21T16:56:21Z</time>
      </trkpt>
      <trkpt lat="38.11879" lon="13.34809">
        <ele>65.51</ele>
        <time>2018-04-21T16:56:38Z</time>
      </trkpt>
      <trkpt lat="38.11879" lon="13.34809">
        <ele>65.99</ele>
        <time>2018-04-21T16:56:56Z</time>
      </trkpt>
      <trkpt lat="38.1188" lon="13.34808">
        <ele>66.47</ele>
        <time>2018-04-21T16:57:22Z</time>
      </trkpt>
      <trkpt lat="38.1188" lon="13.34808">
        <ele>65.99</ele>
        <time>2018-04-21T16:57:27Z</time>
      </trkpt>
      <trkpt lat="38.11882" lon="13.34819">
        <ele>64.07</ele>
        <time>2018-04-21T16:57:42Z</time>
      </trkpt>
      <trkpt lat="38.1188" lon="13.34825">
        <ele>61.66</ele>
        <time>2018-04-21T16:57:55Z</time>
      </trkpt>
      <trkpt lat="38.11881" lon="13.34831">
        <ele>59.74</ele>
        <time>2018-04-21T16:58:09Z</time>
      </trkpt>
      <trkpt lat="38.11882" lon="13.3484">
        <ele>59.26</ele>
        <time>2018-04-21T16:58:19Z</time>
      </trkpt>
      <trkpt lat="38.11887" lon="13.34849">
        <ele>59.74</ele>
        <time>2018-04-21T16:58:35Z</time>
      </trkpt>
      <trkpt lat="38.11889" lon="13.34854">
        <ele>60.22</ele>
        <time>2018-04-21T16:58:52Z</time>
      </trkpt>
      <trkpt lat="38.11889" lon="13.34857">
        <ele>60.7</ele>
        <time>2018-04-21T16:59:08Z</time>
      </trkpt>
      <trkpt lat="38.11889" lon="13.34856">
        <ele>60.7</ele>
        <time>2018-04-21T16:59:25Z</time>
      </trkpt>
      <trkpt lat="38.11891" lon="13.34855">
        <ele>59.74</ele>
        <time>2018-04-21T16:59:44Z</time>
      </trkpt>
      <trkpt lat="38.11892" lon="13.34857">
        <ele>60.22</ele>
        <time>2018-04-21T16:59:57Z</time>
      </trkpt>
      <trkpt lat="38.11891" lon="13.34858">
        <ele>60.22</ele>
        <time>2018-04-21T17:00:19Z</time>
      </trkpt>
      <trkpt lat="38.11891" lon="13.34863">
        <ele>60.7</ele>
        <time>2018-04-21T17:00:31Z</time>
      </trkpt>
      <trkpt lat="38.11891" lon="13.34874">
        <ele>59.74</ele>
        <time>2018-04-21T17:00:44Z</time>
      </trkpt>
      <trkpt lat="38.11891" lon="13.34878">
        <ele>59.26</ele>
        <time>2018-04-21T17:00:56Z</time>
      </trkpt>
      <trkpt lat="38.11892" lon="13.34884">
        <ele>60.7</ele>
        <time>2018-04-21T17:01:08Z</time>
      </trkpt>
      <trkpt lat="38.11893" lon="13.34895">
        <ele>58.78</ele>
        <time>2018-04-21T17:01:21Z</time>
      </trkpt>
      <trkpt lat="38.11894" lon="13.34906">
        <ele>55.89</ele>
        <time>2018-04-21T17:01:39Z</time>
      </trkpt>
      <trkpt lat="38.11895" lon="13.34912">
        <ele>56.86</ele>
        <time>2018-04-21T17:01:54Z</time>
      </trkpt>
      <trkpt lat="38.11895" lon="13.34914">
        <ele>56.86</ele>
        <time>2018-04-21T17:02:08Z</time>
      </trkpt>
      <trkpt lat="38.11893" lon="13.34923">
        <ele>58.78</ele>
        <time>2018-04-21T17:02:24Z</time>
      </trkpt>
      <trkpt lat="38.11892" lon="13.34928">
        <ele>61.66</ele>
        <time>2018-04-21T17:02:38Z</time>
      </trkpt>
      <trkpt lat="38.11891" lon="13.3494">
        <ele>66.47</ele>
        <time>2018-04-21T17:02:51Z</time>
      </trkpt>
      <trkpt lat="38.11892" lon="13.34943">
        <ele>68.87</ele>
        <time>2018-04-21T17:03:03Z</time>
      </trkpt>
      <trkpt lat="38.11893" lon="13.34957">
        <ele>70.31</ele>
        <time>2018-04-21T17:03:19Z</time>
      </trkpt>
      <trkpt lat="38.11894" lon="13.34971">
        <ele>73.68</ele>
        <time>2018-04-21T17:03:30Z</time>
      </trkpt>
      <trkpt lat="38.11896" lon="13.34988">
        <ele>75.12</ele>
        <time>2018-04-21T17:03:40Z</time>
      </trkpt>
      <trkpt lat="38.11898" lon="13.35003">
        <ele>78</ele>
        <time>2018-04-21T17:03:52Z</time>
      </trkpt>
      <trkpt lat="38.11898" lon="13.35014">
        <ele>78.97</ele>
        <time>2018-04-21T17:04:04Z</time>
      </trkpt>
      <trkpt lat="38.11904" lon="13.35048">
        <ele>74.16</ele>
        <time>2018-04-21T17:04:19Z</time>
      </trkpt>
      <trkpt lat="38.11905" lon="13.35064">
        <ele>70.31</ele>
        <time>2018-04-21T17:04:35Z</time>
      </trkpt>
      <trkpt lat="38.11905" lon="13.3507">
        <ele>69.35</ele>
        <time>2018-04-21T17:04:55Z</time>
      </trkpt>
      <trkpt lat="38.11905" lon="13.35085">
        <ele>67.43</ele>
        <time>2018-04-21T17:05:10Z</time>
      </trkpt>
      <trkpt lat="38.11907" lon="13.35085">
        <ele>68.39</ele>
        <time>2018-04-21T17:05:22Z</time>
      </trkpt>
      <trkpt lat="38.11898" lon="13.35078">
        <ele>67.43</ele>
        <time>2018-04-21T17:05:26Z</time>
      </trkpt>
      <trkpt lat="38.11909" lon="13.35083">
        <ele>67.91</ele>
        <time>2018-04-21T17:05:39Z</time>
      </trkpt>
      <trkpt lat="38.11913" lon="13.35088">
        <ele>68.39</ele>
        <time>2018-04-21T17:05:45Z</time>
      </trkpt>
      <trkpt lat="38.11926" lon="13.35099">
        <ele>66.47</ele>
        <time>2018-04-21T17:06:02Z</time>
      </trkpt>
      <trkpt lat="38.11933" lon="13.351">
        <ele>61.18</ele>
        <time>2018-04-21T17:06:13Z</time>
      </trkpt>
      <trkpt lat="38.11939" lon="13.35117">
        <ele>57.82</ele>
        <time>2018-04-21T17:06:26Z</time>
      </trkpt>
      <trkpt lat="38.11943" lon="13.35138">
        <ele>55.89</ele>
        <time>2018-04-21T17:06:40Z</time>
      </trkpt>
      <trkpt lat="38.11952" lon="13.35155">
        <ele>47.72</ele>
        <time>2018-04-21T17:06:54Z</time>
      </trkpt>
      <trkpt lat="38.11954" lon="13.35158">
        <ele>45.8</ele>
        <time>2018-04-21T17:06:57Z</time>
      </trkpt>
      <trkpt lat="38.11958" lon="13.35177">
        <ele>38.11</ele>
        <time>2018-04-21T17:07:11Z</time>
      </trkpt>
      <trkpt lat="38.11962" lon="13.35195">
        <ele>30.42</ele>
        <time>2018-04-21T17:07:26Z</time>
      </trkpt>
      <trkpt lat="38.11966" lon="13.35211">
        <ele>27.53</ele>
        <time>2018-04-21T17:07:41Z</time>
      </trkpt>
      <trkpt lat="38.11965" lon="13.35218">
        <ele>27.53</ele>
        <time>2018-04-21T17:07:53Z</time>
      </trkpt>
      <trkpt lat="38.11961" lon="13.35223">
        <ele>30.9</ele>
        <time>2018-04-21T17:07:59Z</time>
      </trkpt>
      <trkpt lat="38.11958" lon="13.3524">
        <ele>34.74</ele>
        <time>2018-04-21T17:08:13Z</time>
      </trkpt>
      <trkpt lat="38.11958" lon="13.35244">
        <ele>35.23</ele>
        <time>2018-04-21T17:08:31Z</time>
      </trkpt>
      <trkpt lat="38.11957" lon="13.35248">
        <ele>35.23</ele>
        <time>2018-04-21T17:08:34Z</time>
      </trkpt>
      <trkpt lat="38.11956" lon="13.35251">
        <ele>35.23</ele>
        <time>2018-04-21T17:08:36Z</time>
      </trkpt>
      <trkpt lat="38.11953" lon="13.35281">
        <ele>34.74</ele>
        <time>2018-04-21T17:08:50Z</time>
      </trkpt>
      <trkpt lat="38.11957" lon="13.35291">
        <ele>36.19</ele>
        <time>2018-04-21T17:09:02Z</time>
      </trkpt>
      <trkpt lat="38.11956" lon="13.35294">
        <ele>37.15</ele>
        <time>2018-04-21T17:09:04Z</time>
      </trkpt>
      <trkpt lat="38.11954" lon="13.35308">
        <ele>43.4</ele>
        <time>2018-04-21T17:09:15Z</time>
      </trkpt>
      <trkpt lat="38.11954" lon="13.35317">
        <ele>43.88</ele>
        <time>2018-04-21T17:09:28Z</time>
      </trkpt>
      <trkpt lat="38.11952" lon="13.35327">
        <ele>42.44</ele>
        <time>2018-04-21T17:09:39Z</time>
      </trkpt>
      <trkpt lat="38.11954" lon="13.35328">
        <ele>42.44</ele>
        <time>2018-04-21T17:09:51Z</time>
      </trkpt>
      <trkpt lat="38.11954" lon="13.35329">
        <ele>43.4</ele>
        <time>2018-04-21T17:10:05Z</time>
      </trkpt>
      <trkpt lat="38.11955" lon="13.3533">
        <ele>43.88</ele>
        <time>2018-04-21T17:10:18Z</time>
      </trkpt>
      <trkpt lat="38.11957" lon="13.35352">
        <ele>45.32</ele>
        <time>2018-04-21T17:10:36Z</time>
      </trkpt>
      <trkpt lat="38.11958" lon="13.35372">
        <ele>46.76</ele>
        <time>2018-04-21T17:10:51Z</time>
      </trkpt>
      <trkpt lat="38.11962" lon="13.35379">
        <ele>46.76</ele>
        <time>2018-04-21T17:11:07Z</time>
      </trkpt>
      <trkpt lat="38.11963" lon="13.35386">
        <ele>47.72</ele>
        <time>2018-04-21T17:11:26Z</time>
      </trkpt>
      <trkpt lat="38.11967" lon="13.35391">
        <ele>48.2</ele>
        <time>2018-04-21T17:11:38Z</time>
      </trkpt>
      <trkpt lat="38.11969" lon="13.35398">
        <ele>48.2</ele>
        <time>2018-04-21T17:11:57Z</time>
      </trkpt>
      <trkpt lat="38.11973" lon="13.35422">
        <ele>44.84</ele>
        <time>2018-04-21T17:12:12Z</time>
      </trkpt>
      <trkpt lat="38.11974" lon="13.35425">
        <ele>44.36</ele>
        <time>2018-04-21T17:12:31Z</time>
      </trkpt>
      <trkpt lat="38.11975" lon="13.35428">
        <ele>44.84</ele>
        <time>2018-04-21T17:12:46Z</time>
      </trkpt>
      <trkpt lat="38.11976" lon="13.35432">
        <ele>45.32</ele>
        <time>2018-04-21T17:13:05Z</time>
      </trkpt>
      <trkpt lat="38.11977" lon="13.35434">
        <ele>46.28</ele>
        <time>2018-04-21T17:13:24Z</time>
      </trkpt>
      <trkpt lat="38.11978" lon="13.35439">
        <ele>48.2</ele>
        <time>2018-04-21T17:13:44Z</time>
      </trkpt>
      <trkpt lat="38.11974" lon="13.35471">
        <ele>48.2</ele>
        <time>2018-04-21T17:14:00Z</time>
      </trkpt>
      <trkpt lat="38.11973" lon="13.35498">
        <ele>47.72</ele>
        <time>2018-04-21T17:14:12Z</time>
      </trkpt>
      <trkpt lat="38.11976" lon="13.35512">
        <ele>48.2</ele>
        <time>2018-04-21T17:14:28Z</time>
      </trkpt>
      <trkpt lat="38.1199" lon="13.35521">
        <ele>49.16</ele>
        <time>2018-04-21T17:14:40Z</time>
      </trkpt>
      <trkpt lat="38.12002" lon="13.35542">
        <ele>50.13</ele>
        <time>2018-04-21T17:14:52Z</time>
      </trkpt>
      <trkpt lat="38.12013" lon="13.3557">
        <ele>52.53</ele>
        <time>2018-04-21T17:15:07Z</time>
      </trkpt>
      <trkpt lat="38.12032" lon="13.3565">
        <ele>49.16</ele>
        <time>2018-04-21T17:15:18Z</time>
      </trkpt>
      <trkpt lat="38.1205" lon="13.35665">
        <ele>45.8</ele>
        <time>2018-04-21T17:15:31Z</time>
      </trkpt>
      <trkpt lat="38.12056" lon="13.35682">
        <ele>41.47</ele>
        <time>2018-04-21T17:15:43Z</time>
      </trkpt>
      <trkpt lat="38.12061" lon="13.357">
        <ele>38.59</ele>
        <time>2018-04-21T17:15:55Z</time>
      </trkpt>
      <trkpt lat="38.12066" lon="13.3571">
        <ele>36.67</ele>
        <time>2018-04-21T17:16:01Z</time>
      </trkpt>
      <trkpt lat="38.12073" lon="13.35726">
        <ele>37.15</ele>
        <time>2018-04-21T17:16:13Z</time>
      </trkpt>
      <trkpt lat="38.12082" lon="13.35745">
        <ele>37.15</ele>
        <time>2018-04-21T17:16:25Z</time>
      </trkpt>
      <trkpt lat="38.12082" lon="13.35746">
        <ele>36.67</ele>
        <time>2018-04-21T17:16:26Z</time>
      </trkpt>
      <trkpt lat="38.12086" lon="13.35755">
        <ele>38.11</ele>
        <time>2018-04-21T17:16:31Z</time>
      </trkpt>
      <trkpt lat="38.12089" lon="13.35768">
        <ele>39.55</ele>
        <time>2018-04-21T17:16:42Z</time>
      </trkpt>
      <trkpt lat="38.12091" lon="13.35774">
        <ele>41.47</ele>
        <time>2018-04-21T17:16:47Z</time>
      </trkpt>
      <trkpt lat="38.12089" lon="13.3578">
        <ele>42.44</ele>
        <time>2018-04-21T17:16:59Z</time>
      </trkpt>
      <trkpt lat="38.12083" lon="13.35787">
        <ele>46.76</ele>
        <time>2018-04-21T17:17:12Z</time>
      </trkpt>
      <trkpt lat="38.12087" lon="13.35802">
        <ele>50.61</ele>
        <time>2018-04-21T17:17:25Z</time>
      </trkpt>
      <trkpt lat="38.1208" lon="13.35814">
        <ele>51.57</ele>
        <time>2018-04-21T17:17:36Z</time>
      </trkpt>
      <trkpt lat="38.12076" lon="13.35816">
        <ele>52.05</ele>
        <time>2018-04-21T17:17:50Z</time>
      </trkpt>
      <trkpt lat="38.12072" lon="13.35819">
        <ele>51.57</ele>
        <time>2018-04-21T17:18:03Z</time>
      </trkpt>
      <trkpt lat="38.12066" lon="13.35821">
        <ele>49.65</ele>
        <time>2018-04-21T17:18:14Z</time>
      </trkpt>
      <trkpt lat="38.12059" lon="13.35816">
        <ele>44.84</ele>
        <time>2018-04-21T17:18:26Z</time>
      </trkpt>
      <trkpt lat="38.12053" lon="13.35814">
        <ele>42.44</ele>
        <time>2018-04-21T17:18:41Z</time>
      </trkpt>
      <trkpt lat="38.12053" lon="13.35814">
        <ele>41.95</ele>
        <time>2018-04-21T17:18:53Z</time>
      </trkpt>
      <trkpt lat="38.12054" lon="13.35821">
        <ele>41.47</ele>
        <time>2018-04-21T17:19:06Z</time>
      </trkpt>
      <trkpt lat="38.12056" lon="13.35836">
        <ele>35.71</ele>
        <time>2018-04-21T17:19:22Z</time>
      </trkpt>
      <trkpt lat="38.12057" lon="13.35839">
        <ele>34.74</ele>
        <time>2018-04-21T17:19:39Z</time>
      </trkpt>
      <trkpt lat="38.12059" lon="13.35847">
        <ele>32.82</ele>
        <time>2018-04-21T17:19:53Z</time>
      </trkpt>
      <trkpt lat="38.12059" lon="13.35849">
        <ele>30.9</ele>
        <time>2018-04-21T17:20:15Z</time>
      </trkpt>
      <trkpt lat="38.12058" lon="13.35848">
        <ele>28.98</ele>
        <time>2018-04-21T17:20:28Z</time>
      </trkpt>
      <trkpt lat="38.12059" lon="13.35849">
        <ele>28.02</ele>
        <time>2018-04-21T17:20:40Z</time>
      </trkpt>
      <trkpt lat="38.12059" lon="13.35849">
        <ele>27.53</ele>
        <time>2018-04-21T17:20:48Z</time>
      </trkpt>
      <trkpt lat="38.12062" lon="13.35856">
        <ele>28.02</ele>
        <time>2018-04-21T17:20:54Z</time>
      </trkpt>
      <trkpt lat="38.12067" lon="13.3587">
        <ele>27.53</ele>
        <time>2018-04-21T17:21:07Z</time>
      </trkpt>
      <trkpt lat="38.12073" lon="13.35884">
        <ele>28.5</ele>
        <time>2018-04-21T17:21:19Z</time>
      </trkpt>
      <trkpt lat="38.12073" lon="13.35884">
        <ele>28.5</ele>
        <time>2018-04-21T17:21:21Z</time>
      </trkpt>
      <trkpt lat="38.12072" lon="13.35903">
        <ele>28.02</ele>
        <time>2018-04-21T17:21:35Z</time>
      </trkpt>
      <trkpt lat="38.12072" lon="13.35907">
        <ele>28.5</ele>
        <time>2018-04-21T17:21:38Z</time>
      </trkpt>
      <trkpt lat="38.1208" lon="13.35912">
        <ele>30.9</ele>
        <time>2018-04-21T17:21:54Z</time>
      </trkpt>
      <trkpt lat="38.1208" lon="13.35913">
        <ele>30.9</ele>
        <time>2018-04-21T17:22:14Z</time>
      </trkpt>
      <trkpt lat="38.12082" lon="13.35913">
        <ele>32.82</ele>
        <time>2018-04-21T17:22:27Z</time>
      </trkpt>
      <trkpt lat="38.12072" lon="13.35911">
        <ele>25.13</ele>
        <time>2018-04-21T17:23:40Z</time>
      </trkpt>
      <trkpt lat="38.12078" lon="13.35921">
        <ele>31.38</ele>
        <time>2018-04-21T17:23:52Z</time>
      </trkpt>
      <trkpt lat="38.12084" lon="13.3593">
        <ele>33.78</ele>
        <time>2018-04-21T17:24:06Z</time>
      </trkpt>
      <trkpt lat="38.12081" lon="13.35932">
        <ele>37.63</ele>
        <time>2018-04-21T17:24:20Z</time>
      </trkpt>
      <trkpt lat="38.12083" lon="13.35947">
        <ele>37.15</ele>
        <time>2018-04-21T17:24:37Z</time>
      </trkpt>
      <trkpt lat="38.12089" lon="13.35959">
        <ele>34.74</ele>
        <time>2018-04-21T17:24:47Z</time>
      </trkpt>
      <trkpt lat="38.12097" lon="13.35972">
        <ele>31.38</ele>
        <time>2018-04-21T17:25:00Z</time>
      </trkpt>
      <trkpt lat="38.12091" lon="13.3598">
        <ele>32.82</ele>
        <time>2018-04-21T17:25:14Z</time>
      </trkpt>
      <trkpt lat="38.12094" lon="13.35991">
        <ele>35.71</ele>
        <time>2018-04-21T17:25:27Z</time>
      </trkpt>
      <trkpt lat="38.12103" lon="13.36002">
        <ele>36.19</ele>
        <time>2018-04-21T17:25:41Z</time>
      </trkpt>
      <trkpt lat="38.12103" lon="13.36006">
        <ele>34.74</ele>
        <time>2018-04-21T17:25:54Z</time>
      </trkpt>
      <trkpt lat="38.12103" lon="13.36009">
        <ele>34.26</ele>
        <time>2018-04-21T17:26:16Z</time>
      </trkpt>
      <trkpt lat="38.12101" lon="13.36011">
        <ele>33.78</ele>
        <time>2018-04-21T17:26:31Z</time>
      </trkpt>
      <trkpt lat="38.12099" lon="13.3601">
        <ele>32.82</ele>
        <time>2018-04-21T17:26:46Z</time>
      </trkpt>
      <trkpt lat="38.12097" lon="13.36011">
        <ele>31.38</ele>
        <time>2018-04-21T17:27:02Z</time>
      </trkpt>
      <trkpt lat="38.12096" lon="13.36011">
        <ele>32.34</ele>
        <time>2018-04-21T17:27:18Z</time>
      </trkpt>
      <trkpt lat="38.12096" lon="13.3601">
        <ele>31.86</ele>
        <time>2018-04-21T17:27:48Z</time>
      </trkpt>
      <trkpt lat="38.12094" lon="13.36009">
        <ele>32.34</ele>
        <time>2018-04-21T17:28:14Z</time>
      </trkpt>
      <trkpt lat="38.12095" lon="13.36007">
        <ele>32.82</ele>
        <time>2018-04-21T17:28:51Z</time>
      </trkpt>
      <trkpt lat="38.12094" lon="13.36008">
        <ele>32.82</ele>
        <time>2018-04-21T17:29:21Z</time>
      </trkpt>
      <trkpt lat="38.12094" lon="13.36008">
        <ele>32.82</ele>
        <time>2018-04-21T17:29:38Z</time>
      </trkpt>
      <trkpt lat="38.1209" lon="13.36008">
        <ele>30.9</ele>
        <time>2018-04-21T17:30:13Z</time>
      </trkpt>
      <trkpt lat="38.12089" lon="13.36008">
        <ele>30.9</ele>
        <time>2018-04-21T17:30:40Z</time>
      </trkpt>
      <trkpt lat="38.12088" lon="13.36008">
        <ele>29.94</ele>
        <time>2018-04-21T17:31:03Z</time>
      </trkpt>
      <trkpt lat="38.12086" lon="13.36006">
        <ele>29.46</ele>
        <time>2018-04-21T17:31:28Z</time>
      </trkpt>
      <trkpt lat="38.12085" lon="13.36006">
        <ele>28.02</ele>
        <time>2018-04-21T17:31:57Z</time>
      </trkpt>
      <trkpt lat="38.12084" lon="13.36006">
        <ele>26.57</ele>
        <time>2018-04-21T17:32:34Z</time>
      </trkpt>
      <trkpt lat="38.12084" lon="13.36006">
        <ele>26.57</ele>
        <time>2018-04-21T17:33:09Z</time>
      </trkpt>
      <trkpt lat="38.12084" lon="13.36005">
        <ele>26.09</ele>
        <time>2018-04-21T17:33:38Z</time>
      </trkpt>
      <trkpt lat="38.12083" lon="13.36004">
        <ele>25.61</ele>
        <time>2018-04-21T17:34:02Z</time>
      </trkpt>
      <trkpt lat="38.12082" lon="13.36004">
        <ele>24.65</ele>
        <time>2018-04-21T17:34:33Z</time>
      </trkpt>
      <trkpt lat="38.12083" lon="13.36002">
        <ele>22.25</ele>
        <time>2018-04-21T17:35:05Z</time>
      </trkpt>
      <trkpt lat="38.12083" lon="13.36002">
        <ele>21.77</ele>
        <time>2018-04-21T17:35:36Z</time>
      </trkpt>
      <trkpt lat="38.12083" lon="13.36002">
        <ele>21.77</ele>
        <time>2018-04-21T17:36:09Z</time>
      </trkpt>
      <trkpt lat="38.12083" lon="13.36002">
        <ele>24.17</ele>
        <time>2018-04-21T17:36:47Z</time>
      </trkpt>
      <trkpt lat="38.12082" lon="13.36001">
        <ele>23.21</ele>
        <time>2018-04-21T17:37:17Z</time>
      </trkpt>
      <trkpt lat="38.12084" lon="13.36">
        <ele>23.21</ele>
        <time>2018-04-21T17:37:55Z</time>
      </trkpt>
      <trkpt lat="38.12085" lon="13.35999">
        <ele>22.25</ele>
        <time>2018-04-21T17:38:26Z</time>
      </trkpt>
      <trkpt lat="38.12084" lon="13.35997">
        <ele>21.29</ele>
        <time>2018-04-21T17:38:56Z</time>
      </trkpt>
      <trkpt lat="38.12084" lon="13.35998">
        <ele>19.84</ele>
        <time>2018-04-21T17:39:21Z</time>
      </trkpt>
      <trkpt lat="38.12085" lon="13.35998">
        <ele>19.84</ele>
        <time>2018-04-21T17:39:58Z</time>
      </trkpt>
      <trkpt lat="38.12085" lon="13.35998">
        <ele>20.32</ele>
        <time>2018-04-21T17:40:38Z</time>
      </trkpt>
      <trkpt lat="38.12083" lon="13.35997">
        <ele>20.81</ele>
        <time>2018-04-21T17:41:05Z</time>
      </trkpt>
      <trkpt lat="38.12083" lon="13.35997">
        <ele>22.73</ele>
        <time>2018-04-21T17:41:35Z</time>
      </trkpt>
      <trkpt lat="38.12084" lon="13.35999">
        <ele>21.29</ele>
        <time>2018-04-21T17:42:13Z</time>
      </trkpt>
      <trkpt lat="38.12083" lon="13.35999">
        <ele>21.77</ele>
        <time>2018-04-21T17:42:47Z</time>
      </trkpt>
      <trkpt lat="38.12082" lon="13.35999">
        <ele>21.77</ele>
        <time>2018-04-21T17:43:22Z</time>
      </trkpt>
      <trkpt lat="38.12082" lon="13.35999">
        <ele>22.25</ele>
        <time>2018-04-21T17:44:03Z</time>
      </trkpt>
      <trkpt lat="38.12082" lon="13.35999">
        <ele>22.25</ele>
        <time>2018-04-21T17:44:32Z</time>
      </trkpt>
      <trkpt lat="38.12084" lon="13.36">
        <ele>22.73</ele>
        <time>2018-04-21T17:45:08Z</time>
      </trkpt>
      <trkpt lat="38.12082" lon="13.35998">
        <ele>22.73</ele>
        <time>2018-04-21T17:45:41Z</time>
      </trkpt>
      <trkpt lat="38.12081" lon="13.35998">
        <ele>23.21</ele>
        <time>2018-04-21T17:46:16Z</time>
      </trkpt>
      <trkpt lat="38.12081" lon="13.35998">
        <ele>24.17</ele>
        <time>2018-04-21T17:46:52Z</time>
      </trkpt>
      <trkpt lat="38.12081" lon="13.35999">
        <ele>24.17</ele>
        <time>2018-04-21T17:47:25Z</time>
      </trkpt>
      <trkpt lat="38.12081" lon="13.35998">
        <ele>25.13</ele>
        <time>2018-04-21T17:48:03Z</time>
      </trkpt>
      <trkpt lat="38.12081" lon="13.35998">
        <ele>26.57</ele>
        <time>2018-04-21T17:48:33Z</time>
      </trkpt>
      <trkpt lat="38.1208" lon="13.35998">
        <ele>28.5</ele>
        <time>2018-04-21T17:49:15Z</time>
      </trkpt>
      <trkpt lat="38.12081" lon="13.35997">
        <ele>28.02</ele>
        <time>2018-04-21T17:49:47Z</time>
      </trkpt>
      <trkpt lat="38.1208" lon="13.35997">
        <ele>27.53</ele>
        <time>2018-04-21T17:50:26Z</time>
      </trkpt>
      <trkpt lat="38.1208" lon="13.35996">
        <ele>24.65</ele>
        <time>2018-04-21T17:51:07Z</time>
      </trkpt>
      <trkpt lat="38.12081" lon="13.35997">
        <ele>23.69</ele>
        <time>2018-04-21T17:51:37Z</time>
      </trkpt>
      <trkpt lat="38.12081" lon="13.35996">
        <ele>22.73</ele>
        <time>2018-04-21T17:52:10Z</time>
      </trkpt>
      <trkpt lat="38.12082" lon="13.35995">
        <ele>23.21</ele>
        <time>2018-04-21T17:52:50Z</time>
      </trkpt>
      <trkpt lat="38.12081" lon="13.35994">
        <ele>23.21</ele>
        <time>2018-04-21T17:53:15Z</time>
      </trkpt>
      <trkpt lat="38.12082" lon="13.35994">
        <ele>22.73</ele>
        <time>2018-04-21T17:53:49Z</time>
      </trkpt>
      <trkpt lat="38.12082" lon="13.35994">
        <ele>22.25</ele>
        <time>2018-04-21T17:54:10Z</time>
      </trkpt>
      <trkpt lat="38.12082" lon="13.35993">
        <ele>22.25</ele>
        <time>2018-04-21T17:54:44Z</time>
      </trkpt>
      <trkpt lat="38.12082" lon="13.35992">
        <ele>23.69</ele>
        <time>2018-04-21T17:55:15Z</time>
      </trkpt>
      <trkpt lat="38.12082" lon="13.35991">
        <ele>23.69</ele>
        <time>2018-04-21T17:55:40Z</time>
      </trkpt>
      <trkpt lat="38.12083" lon="13.35991">
        <ele>23.69</ele>
        <time>2018-04-21T17:56:12Z</time>
      </trkpt>
      <trkpt lat="38.12083" lon="13.35992">
        <ele>24.65</ele>
        <time>2018-04-21T17:56:51Z</time>
      </trkpt>
      <trkpt lat="38.12083" lon="13.35993">
        <ele>26.57</ele>
        <time>2018-04-21T17:57:27Z</time>
      </trkpt>
      <trkpt lat="38.12082" lon="13.35994">
        <ele>27.05</ele>
        <time>2018-04-21T17:57:48Z</time>
      </trkpt>
      <trkpt lat="38.12083" lon="13.35996">
        <ele>27.05</ele>
        <time>2018-04-21T17:58:14Z</time>
      </trkpt>
      <trkpt lat="38.12083" lon="13.35997">
        <ele>28.5</ele>
        <time>2018-04-21T17:58:48Z</time>
      </trkpt>
      <trkpt lat="38.12083" lon="13.35997">
        <ele>28.98</ele>
        <time>2018-04-21T17:59:21Z</time>
      </trkpt>
      <trkpt lat="38.12083" lon="13.35997">
        <ele>28.5</ele>
        <time>2018-04-21T17:59:49Z</time>
      </trkpt>
      <trkpt lat="38.12083" lon="13.35998">
        <ele>27.53</ele>
        <time>2018-04-21T18:00:25Z</time>
      </trkpt>
      <trkpt lat="38.12084" lon="13.35998">
        <ele>27.05</ele>
        <time>2018-04-21T18:00:54Z</time>
      </trkpt>
      <trkpt lat="38.12082" lon="13.35998">
        <ele>26.09</ele>
        <time>2018-04-21T18:01:26Z</time>
      </trkpt>
      <trkpt lat="38.12082" lon="13.35999">
        <ele>26.09</ele>
        <time>2018-04-21T18:02:03Z</time>
      </trkpt>
      <trkpt lat="38.12081" lon="13.35999">
        <ele>25.61</ele>
        <time>2018-04-21T18:02:34Z</time>
      </trkpt>
      <trkpt lat="38.12081" lon="13.35997">
        <ele>25.13</ele>
        <time>2018-04-21T18:03:03Z</time>
      </trkpt>
      <trkpt lat="38.12082" lon="13.36">
        <ele>25.61</ele>
        <time>2018-04-21T18:03:19Z</time>
      </trkpt>
      <trkpt lat="38.12083" lon="13.36">
        <ele>26.09</ele>
        <time>2018-04-21T18:03:45Z</time>
      </trkpt>
      <trkpt lat="38.12085" lon="13.35999">
        <ele>27.53</ele>
        <time>2018-04-21T18:04:14Z</time>
      </trkpt>
      <trkpt lat="38.12086" lon="13.35999">
        <ele>28.02</ele>
        <time>2018-04-21T18:04:45Z</time>
      </trkpt>
      <trkpt lat="38.12084" lon="13.35999">
        <ele>28.98</ele>
        <time>2018-04-21T18:05:13Z</time>
      </trkpt>
      <trkpt lat="38.12084" lon="13.35999">
        <ele>28.98</ele>
        <time>2018-04-21T18:05:41Z</time>
      </trkpt>
      <trkpt lat="38.12084" lon="13.35999">
        <ele>30.9</ele>
        <time>2018-04-21T18:06:11Z</time>
      </trkpt>
      <trkpt lat="38.12084" lon="13.35998">
        <ele>32.34</ele>
        <time>2018-04-21T18:06:43Z</time>
      </trkpt>
      <trkpt lat="38.12084" lon="13.35998">
        <ele>32.34</ele>
        <time>2018-04-21T18:06:58Z</time>
      </trkpt>
      <trkpt lat="38.12084" lon="13.35999">
        <ele>32.34</ele>
        <time>2018-04-21T18:07:14Z</time>
      </trkpt>
      <trkpt lat="38.12084" lon="13.36">
        <ele>32.34</ele>
        <time>2018-04-21T18:07:20Z</time>
      </trkpt>
      <trkpt lat="38.12082" lon="13.36002">
        <ele>31.86</ele>
        <time>2018-04-21T18:07:23Z</time>
      </trkpt>
      <trkpt lat="38.12079" lon="13.36004">
        <ele>31.86</ele>
        <time>2018-04-21T18:07:29Z</time>
      </trkpt>
      <trkpt lat="38.12073" lon="13.3601">
        <ele>29.46</ele>
        <time>2018-04-21T18:07:41Z</time>
      </trkpt>
      <trkpt lat="38.12065" lon="13.36015">
        <ele>29.46</ele>
        <time>2018-04-21T18:07:56Z</time>
      </trkpt>
      <trkpt lat="38.12055" lon="13.3602">
        <ele>29.46</ele>
        <time>2018-04-21T18:08:11Z</time>
      </trkpt>
      <trkpt lat="38.12045" lon="13.36018">
        <ele>30.42</ele>
        <time>2018-04-21T18:08:26Z</time>
      </trkpt>
      <trkpt lat="38.12035" lon="13.36023">
        <ele>32.34</ele>
        <time>2018-04-21T18:08:41Z</time>
      </trkpt>
      <trkpt lat="38.12029" lon="13.36033">
        <ele>34.26</ele>
        <time>2018-04-21T18:08:55Z</time>
      </trkpt>
      <trkpt lat="38.12019" lon="13.36029">
        <ele>34.74</ele>
        <time>2018-04-21T18:09:09Z</time>
      </trkpt>
      <trkpt lat="38.1201" lon="13.36025">
        <ele>39.55</ele>
        <time>2018-04-21T18:09:23Z</time>
      </trkpt>
      <trkpt lat="38.12006" lon="13.36019">
        <ele>46.28</ele>
        <time>2018-04-21T18:09:35Z</time>
      </trkpt>
      <trkpt lat="38.11994" lon="13.36024">
        <ele>52.05</ele>
        <time>2018-04-21T18:09:50Z</time>
      </trkpt>
      <trkpt lat="38.11981" lon="13.36032">
        <ele>54.93</ele>
        <time>2018-04-21T18:10:05Z</time>
      </trkpt>
      <trkpt lat="38.11969" lon="13.36032">
        <ele>58.78</ele>
        <time>2018-04-21T18:10:18Z</time>
      </trkpt>
      <trkpt lat="38.1196" lon="13.3604">
        <ele>51.09</ele>
        <time>2018-04-21T18:10:30Z</time>
      </trkpt>
      <trkpt lat="38.11959" lon="13.36035">
        <ele>52.05</ele>
        <time>2018-04-21T18:10:37Z</time>
      </trkpt>
      <trkpt lat="38.11964" lon="13.36042">
        <ele>64.55</ele>
        <time>2018-04-21T18:10:47Z</time>
      </trkpt>
      <trkpt lat="38.1197" lon="13.3605">
        <ele>74.64</ele>
        <time>2018-04-21T18:11:00Z</time>
      </trkpt>
      <trkpt lat="38.11973" lon="13.36054">
        <ele>82.33</ele>
        <time>2018-04-21T18:11:10Z</time>
      </trkpt>
      <trkpt lat="38.11973" lon="13.36069">
        <ele>92.42</ele>
        <time>2018-04-21T18:11:26Z</time>
      </trkpt>
      <trkpt lat="38.11975" lon="13.36073">
        <ele>94.35</ele>
        <time>2018-04-21T18:11:42Z</time>
      </trkpt>
      <trkpt lat="38.11983" lon="13.3609">
        <ele>101.56</ele>
        <time>2018-04-21T18:11:57Z</time>
      </trkpt>
      <trkpt lat="38.11988" lon="13.36093">
        <ele>95.31</ele>
        <time>2018-04-21T18:12:13Z</time>
      </trkpt>
      <trkpt lat="38.11987" lon="13.36091">
        <ele>87.62</ele>
        <time>2018-04-21T18:12:27Z</time>
      </trkpt>
      <trkpt lat="38.11988" lon="13.36095">
        <ele>89.06</ele>
        <time>2018-04-21T18:12:44Z</time>
      </trkpt>
      <trkpt lat="38.11984" lon="13.36101">
        <ele>89.54</ele>
        <time>2018-04-21T18:12:59Z</time>
      </trkpt>
      <trkpt lat="38.1198" lon="13.36115">
        <ele>84.25</ele>
        <time>2018-04-21T18:13:11Z</time>
      </trkpt>
      <trkpt lat="38.11978" lon="13.36113">
        <ele>84.25</ele>
        <time>2018-04-21T18:13:17Z</time>
      </trkpt>
      <trkpt lat="38.11976" lon="13.36112">
        <ele>84.73</ele>
        <time>2018-04-21T18:13:19Z</time>
      </trkpt>
      <trkpt lat="38.11946" lon="13.36097">
        <ele>86.18</ele>
        <time>2018-04-21T18:13:35Z</time>
      </trkpt>
      <trkpt lat="38.1194" lon="13.36101">
        <ele>83.29</ele>
        <time>2018-04-21T18:13:39Z</time>
      </trkpt>
      <trkpt lat="38.1194" lon="13.36146">
        <ele>74.16</ele>
        <time>2018-04-21T18:13:53Z</time>
      </trkpt>
      <trkpt lat="38.11936" lon="13.36159">
        <ele>67.91</ele>
        <time>2018-04-21T18:14:01Z</time>
      </trkpt>
      <trkpt lat="38.11933" lon="13.3619">
        <ele>64.55</ele>
        <time>2018-04-21T18:14:16Z</time>
      </trkpt>
      <trkpt lat="38.11933" lon="13.36199">
        <ele>61.18</ele>
        <time>2018-04-21T18:14:20Z</time>
      </trkpt>
      <trkpt lat="38.11929" lon="13.36212">
        <ele>56.86</ele>
        <time>2018-04-21T18:14:32Z</time>
      </trkpt>
      <trkpt lat="38.11924" lon="13.36224">
        <ele>56.37</ele>
        <time>2018-04-21T18:14:45Z</time>
      </trkpt>
      <trkpt lat="38.11914" lon="13.36234">
        <ele>48.68</ele>
        <time>2018-04-21T18:15:02Z</time>
      </trkpt>
      <trkpt lat="38.11911" lon="13.36236">
        <ele>47.72</ele>
        <time>2018-04-21T18:15:13Z</time>
      </trkpt>
      <trkpt lat="38.11909" lon="13.36239">
        <ele>46.76</ele>
        <time>2018-04-21T18:15:18Z</time>
      </trkpt>
      <trkpt lat="38.11906" lon="13.36245">
        <ele>48.68</ele>
        <time>2018-04-21T18:15:23Z</time>
      </trkpt>
      <trkpt lat="38.11903" lon="13.36256">
        <ele>59.74</ele>
        <time>2018-04-21T18:15:35Z</time>
      </trkpt>
      <trkpt lat="38.11903" lon="13.3626">
        <ele>65.51</ele>
        <time>2018-04-21T18:15:39Z</time>
      </trkpt>
      <trkpt lat="38.11896" lon="13.36273">
        <ele>87.14</ele>
        <time>2018-04-21T18:15:53Z</time>
      </trkpt>
      <trkpt lat="38.11894" lon="13.36277">
        <ele>106.84</ele>
        <time>2018-04-21T18:16:10Z</time>
      </trkpt>
      <trkpt lat="38.11895" lon="13.36272">
        <ele>104.44</ele>
        <time>2018-04-21T18:16:24Z</time>
      </trkpt>
      <trkpt lat="38.11895" lon="13.36274">
        <ele>104.44</ele>
        <time>2018-04-21T18:16:35Z</time>
      </trkpt>
      <trkpt lat="38.11893" lon="13.36285">
        <ele>108.29</ele>
        <time>2018-04-21T18:16:47Z</time>
      </trkpt>
      <trkpt lat="38.119" lon="13.36307">
        <ele>113.09</ele>
        <time>2018-04-21T18:16:59Z</time>
      </trkpt>
      <trkpt lat="38.11904" lon="13.36321">
        <ele>113.09</ele>
        <time>2018-04-21T18:17:07Z</time>
      </trkpt>
      <trkpt lat="38.11907" lon="13.36337">
        <ele>113.09</ele>
        <time>2018-04-21T18:17:20Z</time>
      </trkpt>
      <trkpt lat="38.11903" lon="13.36347">
        <ele>114.53</ele>
        <time>2018-04-21T18:17:38Z</time>
      </trkpt>
      <trkpt lat="38.11907" lon="13.36358">
        <ele>115.98</ele>
        <time>2018-04-21T18:17:50Z</time>
      </trkpt>
      <trkpt lat="38.11901" lon="13.36398">
        <ele>111.65</ele>
        <time>2018-04-21T18:18:05Z</time>
      </trkpt>
      <trkpt lat="38.11921" lon="13.36432">
        <ele>109.25</ele>
        <time>2018-04-21T18:18:20Z</time>
      </trkpt>
      <trkpt lat="38.11923" lon="13.36441">
        <ele>106.84</ele>
        <time>2018-04-21T18:18:33Z</time>
      </trkpt>
      <trkpt lat="38.1192" lon="13.36444">
        <ele>104.92</ele>
        <time>2018-04-21T18:18:46Z</time>
      </trkpt>
      <trkpt lat="38.11925" lon="13.36463">
        <ele>103</ele>
        <time>2018-04-21T18:18:59Z</time>
      </trkpt>
      <trkpt lat="38.11925" lon="13.3647">
        <ele>102.04</ele>
        <time>2018-04-21T18:19:06Z</time>
      </trkpt>
      <trkpt lat="38.11925" lon="13.36492">
        <ele>100.6</ele>
        <time>2018-04-21T18:19:17Z</time>
      </trkpt>
      <trkpt lat="38.11931" lon="13.36512">
        <ele>99.63</ele>
        <time>2018-04-21T18:19:30Z</time>
      </trkpt>
      <trkpt lat="38.1193" lon="13.36516">
        <ele>99.63</ele>
        <time>2018-04-21T18:19:33Z</time>
      </trkpt>
      <trkpt lat="38.11955" lon="13.36527">
        <ele>42.92</ele>
        <time>2018-04-21T18:19:48Z</time>
      </trkpt>
      <trkpt lat="38.11954" lon="13.36543">
        <ele>40.51</ele>
        <time>2018-04-21T18:20:02Z</time>
      </trkpt>
      <trkpt lat="38.11959" lon="13.3656">
        <ele>40.99</ele>
        <time>2018-04-21T18:20:17Z</time>
      </trkpt>
      <trkpt lat="38.1196" lon="13.36573">
        <ele>43.88</ele>
        <time>2018-04-21T18:20:28Z</time>
      </trkpt>
      <trkpt lat="38.11957" lon="13.36585">
        <ele>48.68</ele>
        <time>2018-04-21T18:20:40Z</time>
      </trkpt>
      <trkpt lat="38.11962" lon="13.36582">
        <ele>47.72</ele>
        <time>2018-04-21T18:20:52Z</time>
      </trkpt>
      <trkpt lat="38.11968" lon="13.36583">
        <ele>50.61</ele>
        <time>2018-04-21T18:21:04Z</time>
      </trkpt>
      <trkpt lat="38.11976" lon="13.36595">
        <ele>52.05</ele>
        <time>2018-04-21T18:21:18Z</time>
      </trkpt>
      <trkpt lat="38.11979" lon="13.366">
        <ele>52.05</ele>
        <time>2018-04-21T18:21:33Z</time>
      </trkpt>
      <trkpt lat="38.11993" lon="13.36615">
        <ele>51.57</ele>
        <time>2018-04-21T18:21:47Z</time>
      </trkpt>
      <trkpt lat="38.12011" lon="13.36632">
        <ele>49.65</ele>
        <time>2018-04-21T18:22:01Z</time>
      </trkpt>
      <trkpt lat="38.12015" lon="13.36639">
        <ele>48.68</ele>
        <time>2018-04-21T18:22:13Z</time>
      </trkpt>
      <trkpt lat="38.12011" lon="13.36648">
        <ele>32.82</ele>
        <time>2018-04-21T18:22:28Z</time>
      </trkpt>
      <trkpt lat="38.12006" lon="13.36644">
        <ele>26.57</ele>
        <time>2018-04-21T18:22:42Z</time>
      </trkpt>
      <trkpt lat="38.12005" lon="13.36645">
        <ele>26.09</ele>
        <time>2018-04-21T18:22:43Z</time>
      </trkpt>
      <trkpt lat="38.11993" lon="13.36652">
        <ele>21.29</ele>
        <time>2018-04-21T18:22:58Z</time>
      </trkpt>
      <trkpt lat="38.11979" lon="13.36655">
        <ele>20.32</ele>
        <time>2018-04-21T18:23:13Z</time>
      </trkpt>
      <trkpt lat="38.1197" lon="13.36657">
        <ele>20.32</ele>
        <time>2018-04-21T18:23:23Z</time>
      </trkpt>
      <trkpt lat="38.11965" lon="13.36658">
        <ele>19.84</ele>
        <time>2018-04-21T18:23:35Z</time>
      </trkpt>
      <trkpt lat="38.11958" lon="13.36659">
        <ele>19.84</ele>
        <time>2018-04-21T18:23:44Z</time>
      </trkpt>
      <trkpt lat="38.11947" lon="13.36663">
        <ele>19.36</ele>
        <time>2018-04-21T18:23:56Z</time>
      </trkpt>
      <trkpt lat="38.11941" lon="13.36664">
        <ele>19.36</ele>
        <time>2018-04-21T18:24:07Z</time>
      </trkpt>
      <trkpt lat="38.11927" lon="13.36669">
        <ele>18.4</ele>
        <time>2018-04-21T18:24:19Z</time>
      </trkpt>
      <trkpt lat="38.11925" lon="13.36674">
        <ele>15.52</ele>
        <time>2018-04-21T18:24:33Z</time>
      </trkpt>
      <trkpt lat="38.11926" lon="13.36675">
        <ele>16</ele>
        <time>2018-04-21T18:24:44Z</time>
      </trkpt>
      <trkpt lat="38.11927" lon="13.36678">
        <ele>17.92</ele>
        <time>2018-04-21T18:24:47Z</time>
      </trkpt>
      <trkpt lat="38.11928" lon="13.36682">
        <ele>19.84</ele>
        <time>2018-04-21T18:24:50Z</time>
      </trkpt>
      <trkpt lat="38.11925" lon="13.36704">
        <ele>14.56</ele>
        <time>2018-04-21T18:25:02Z</time>
      </trkpt>
      <trkpt lat="38.11921" lon="13.36712">
        <ele>11.67</ele>
        <time>2018-04-21T18:25:13Z</time>
      </trkpt>
      <trkpt lat="38.11915" lon="13.36722">
        <ele>10.23</ele>
        <time>2018-04-21T18:25:27Z</time>
      </trkpt>
      <trkpt lat="38.11912" lon="13.36731">
        <ele>11.67</ele>
        <time>2018-04-21T18:25:42Z</time>
      </trkpt>
      <trkpt lat="38.11908" lon="13.3674">
        <ele>11.19</ele>
        <time>2018-04-21T18:25:57Z</time>
      </trkpt>
      <trkpt lat="38.11907" lon="13.36739">
        <ele>12.15</ele>
        <time>2018-04-21T18:26:14Z</time>
      </trkpt>
      <trkpt lat="38.11908" lon="13.3674">
        <ele>12.15</ele>
        <time>2018-04-21T18:26:28Z</time>
      </trkpt>
      <trkpt lat="38.11908" lon="13.36739">
        <ele>11.67</ele>
        <time>2018-04-21T18:26:45Z</time>
      </trkpt>
      <trkpt lat="38.11907" lon="13.36739">
        <ele>12.15</ele>
        <time>2018-04-21T18:27:09Z</time>
      </trkpt>
      <trkpt lat="38.11907" lon="13.36739">
        <ele>11.67</ele>
        <time>2018-04-21T18:27:32Z</time>
      </trkpt>
      <trkpt lat="38.11906" lon="13.36738">
        <ele>11.67</ele>
        <time>2018-04-21T18:27:50Z</time>
      </trkpt>
      <trkpt lat="38.11904" lon="13.3674">
        <ele>11.19</ele>
        <time>2018-04-21T18:28:11Z</time>
      </trkpt>
      <trkpt lat="38.11901" lon="13.36745">
        <ele>11.67</ele>
        <time>2018-04-21T18:28:25Z</time>
      </trkpt>
      <trkpt lat="38.11901" lon="13.3675">
        <ele>12.15</ele>
        <time>2018-04-21T18:28:38Z</time>
      </trkpt>
      <trkpt lat="38.119" lon="13.36764">
        <ele>13.12</ele>
        <time>2018-04-21T18:28:52Z</time>
      </trkpt>
      <trkpt lat="38.11898" lon="13.36778">
        <ele>13.12</ele>
        <time>2018-04-21T18:29:08Z</time>
      </trkpt>
      <trkpt lat="38.11898" lon="13.36781">
        <ele>12.63</ele>
        <time>2018-04-21T18:29:23Z</time>
      </trkpt>
      <trkpt lat="38.11898" lon="13.36795">
        <ele>12.63</ele>
        <time>2018-04-21T18:29:37Z</time>
      </trkpt>
      <trkpt lat="38.11899" lon="13.36805">
        <ele>12.63</ele>
        <time>2018-04-21T18:29:49Z</time>
      </trkpt>
      <trkpt lat="38.11902" lon="13.36814">
        <ele>13.6</ele>
        <time>2018-04-21T18:30:04Z</time>
      </trkpt>
      <trkpt lat="38.11906" lon="13.36826">
        <ele>13.6</ele>
        <time>2018-04-21T18:30:17Z</time>
      </trkpt>
      <trkpt lat="38.11907" lon="13.36836">
        <ele>13.6</ele>
        <time>2018-04-21T18:30:30Z</time>
      </trkpt>
      <trkpt lat="38.11913" lon="13.36847">
        <ele>14.56</ele>
        <time>2018-04-21T18:30:45Z</time>
      </trkpt>
      <trkpt lat="38.1192" lon="13.36856">
        <ele>14.56</ele>
        <time>2018-04-21T18:31:00Z</time>
      </trkpt>
      <trkpt lat="38.11922" lon="13.36858">
        <ele>12.15</ele>
        <time>2018-04-21T18:31:17Z</time>
      </trkpt>
      <trkpt lat="38.11924" lon="13.36859">
        <ele>10.71</ele>
        <time>2018-04-21T18:31:33Z</time>
      </trkpt>
      <trkpt lat="38.11926" lon="13.3686">
        <ele>9.75</ele>
        <time>2018-04-21T18:31:47Z</time>
      </trkpt>
      <trkpt lat="38.11929" lon="13.36859">
        <ele>7.83</ele>
        <time>2018-04-21T18:32:03Z</time>
      </trkpt>
      <trkpt lat="38.11933" lon="13.36864">
        <ele>6.39</ele>
        <time>2018-04-21T18:32:14Z</time>
      </trkpt>
      <trkpt lat="38.11937" lon="13.36866">
        <ele>5.42</ele>
        <time>2018-04-21T18:32:29Z</time>
      </trkpt>
      <trkpt lat="38.11939" lon="13.36868">
        <ele>4.46</ele>
        <time>2018-04-21T18:32:41Z</time>
      </trkpt>
      <trkpt lat="38.11943" lon="13.36875">
        <ele>6.87</ele>
        <time>2018-04-21T18:33:04Z</time>
      </trkpt>
      <trkpt lat="38.11947" lon="13.36879">
        <ele>7.35</ele>
        <time>2018-04-21T18:33:23Z</time>
      </trkpt>
      <trkpt lat="38.11952" lon="13.36885">
        <ele>7.83</ele>
        <time>2018-04-21T18:33:39Z</time>
      </trkpt>
      <trkpt lat="38.11955" lon="13.3689">
        <ele>9.75</ele>
        <time>2018-04-21T18:34:11Z</time>
      </trkpt>
      <trkpt lat="38.11959" lon="13.36895">
        <ele>7.83</ele>
        <time>2018-04-21T18:34:42Z</time>
      </trkpt>
      <trkpt lat="38.1196" lon="13.36897">
        <ele>6.87</ele>
        <time>2018-04-21T18:35:05Z</time>
      </trkpt>
      <trkpt lat="38.11961" lon="13.36898">
        <ele>6.87</ele>
        <time>2018-04-21T18:35:19Z</time>
      </trkpt>
      <trkpt lat="38.11963" lon="13.36902">
        <ele>6.39</ele>
        <time>2018-04-21T18:35:35Z</time>
      </trkpt>
      <trkpt lat="38.11963" lon="13.36903">
        <ele>4.94</ele>
        <time>2018-04-21T18:36:01Z</time>
      </trkpt>
      <trkpt lat="38.11964" lon="13.36904">
        <ele>4.94</ele>
        <time>2018-04-21T18:36:20Z</time>
      </trkpt>
      <trkpt lat="38.11964" lon="13.36904">
        <ele>4.46</ele>
        <time>2018-04-21T18:36:32Z</time>
      </trkpt>
      <trkpt lat="38.11964" lon="13.36905">
        <ele>4.46</ele>
        <time>2018-04-21T18:37:05Z</time>
      </trkpt>
      <trkpt lat="38.11964" lon="13.36905">
        <ele>4.46</ele>
        <time>2018-04-21T18:37:25Z</time>
      </trkpt>
      <trkpt lat="38.11959" lon="13.36902">
        <ele>4.94</ele>
        <time>2018-04-21T18:37:37Z</time>
      </trkpt>
      <trkpt lat="38.11956" lon="13.36903">
        <ele>6.87</ele>
        <time>2018-04-21T18:37:57Z</time>
      </trkpt>
      <trkpt lat="38.11958" lon="13.36904">
        <ele>7.35</ele>
        <time>2018-04-21T18:38:12Z</time>
      </trkpt>
      <trkpt lat="38.11959" lon="13.36918">
        <ele>8.31</ele>
        <time>2018-04-21T18:38:26Z</time>
      </trkpt>
      <trkpt lat="38.11959" lon="13.36921">
        <ele>8.31</ele>
        <time>2018-04-21T18:38:43Z</time>
      </trkpt>
      <trkpt lat="38.11958" lon="13.3692">
        <ele>8.31</ele>
        <time>2018-04-21T18:39:02Z</time>
      </trkpt>
      <trkpt lat="38.11951" lon="13.36915">
        <ele>7.35</ele>
        <time>2018-04-21T18:39:21Z</time>
      </trkpt>
      <trkpt lat="38.11943" lon="13.36907">
        <ele>8.79</ele>
        <time>2018-04-21T18:39:33Z</time>
      </trkpt>
      <trkpt lat="38.11937" lon="13.369">
        <ele>10.23</ele>
        <time>2018-04-21T18:39:45Z</time>
      </trkpt>
      <trkpt lat="38.11937" lon="13.369">
        <ele>9.27</ele>
        <time>2018-04-21T18:40:05Z</time>
      </trkpt>
      <trkpt lat="38.11937" lon="13.36898">
        <ele>10.71</ele>
        <time>2018-04-21T18:40:31Z</time>
      </trkpt>
      <trkpt lat="38.11937" lon="13.36898">
        <ele>11.19</ele>
        <time>2018-04-21T18:40:34Z</time>
      </trkpt>
      <trkpt lat="38.11926" lon="13.36905">
        <ele>14.56</ele>
        <time>2018-04-21T18:40:50Z</time>
      </trkpt>
      <trkpt lat="38.11919" lon="13.36914">
        <ele>14.08</ele>
        <time>2018-04-21T18:41:05Z</time>
      </trkpt>
      <trkpt lat="38.11907" lon="13.36921">
        <ele>14.56</ele>
        <time>2018-04-21T18:41:19Z</time>
      </trkpt>
      <trkpt lat="38.11906" lon="13.36922">
        <ele>14.56</ele>
        <time>2018-04-21T18:41:20Z</time>
      </trkpt>
      <trkpt lat="38.11896" lon="13.36927">
        <ele>14.56</ele>
        <time>2018-04-21T18:41:36Z</time>
      </trkpt>
      <trkpt lat="38.11887" lon="13.36935">
        <ele>11.19</ele>
        <time>2018-04-21T18:41:51Z</time>
      </trkpt>
      <trkpt lat="38.11883" lon="13.36938">
        <ele>12.15</ele>
        <time>2018-04-21T18:42:04Z</time>
      </trkpt>
      <trkpt lat="38.11868" lon="13.36941">
        <ele>12.63</ele>
        <time>2018-04-21T18:42:22Z</time>
      </trkpt>
      <trkpt lat="38.11852" lon="13.36939">
        <ele>14.08</ele>
        <time>2018-04-21T18:42:37Z</time>
      </trkpt>
      <trkpt lat="38.11838" lon="13.36942">
        <ele>18.4</ele>
        <time>2018-04-21T18:42:51Z</time>
      </trkpt>
      <trkpt lat="38.11829" lon="13.36944">
        <ele>20.32</ele>
        <time>2018-04-21T18:43:03Z</time>
      </trkpt>
      <trkpt lat="38.11819" lon="13.36953">
        <ele>22.73</ele>
        <time>2018-04-21T18:43:17Z</time>
      </trkpt>
      <trkpt lat="38.11807" lon="13.36965">
        <ele>24.17</ele>
        <time>2018-04-21T18:43:30Z</time>
      </trkpt>
      <trkpt lat="38.11799" lon="13.3697">
        <ele>25.61</ele>
        <time>2018-04-21T18:43:41Z</time>
      </trkpt>
      <trkpt lat="38.11793" lon="13.36976">
        <ele>28.02</ele>
        <time>2018-04-21T18:43:54Z</time>
      </trkpt>
      <trkpt lat="38.11781" lon="13.36977">
        <ele>22.25</ele>
        <time>2018-04-21T18:44:10Z</time>
      </trkpt>
      <trkpt lat="38.11761" lon="13.36977">
        <ele>21.29</ele>
        <time>2018-04-21T18:44:18Z</time>
      </trkpt>
      <trkpt lat="38.11739" lon="13.36982">
        <ele>23.69</ele>
        <time>2018-04-21T18:44:35Z</time>
      </trkpt>
      <trkpt lat="38.11728" lon="13.36993">
        <ele>25.13</ele>
        <time>2018-04-21T18:44:51Z</time>
      </trkpt>
      <trkpt lat="38.11715" lon="13.36994">
        <ele>25.13</ele>
        <time>2018-04-21T18:45:05Z</time>
      </trkpt>
      <trkpt lat="38.11703" lon="13.37003">
        <ele>25.61</ele>
        <time>2018-04-21T18:45:19Z</time>
      </trkpt>
      <trkpt lat="38.1169" lon="13.37008">
        <ele>29.46</ele>
        <time>2018-04-21T18:45:34Z</time>
      </trkpt>
      <trkpt lat="38.11689" lon="13.37008">
        <ele>29.94</ele>
        <time>2018-04-21T18:45:36Z</time>
      </trkpt>
      <trkpt lat="38.11685" lon="13.37012">
        <ele>31.38</ele>
        <time>2018-04-21T18:45:40Z</time>
      </trkpt>
      <trkpt lat="38.11675" lon="13.37017">
        <ele>35.23</ele>
        <time>2018-04-21T18:45:56Z</time>
      </trkpt>
      <trkpt lat="38.11668" lon="13.37022">
        <ele>37.63</ele>
        <time>2018-04-21T18:46:05Z</time>
      </trkpt>
      <trkpt lat="38.1165" lon="13.37033">
        <ele>28.02</ele>
        <time>2018-04-21T18:46:20Z</time>
      </trkpt>
      <trkpt lat="38.11641" lon="13.37014">
        <ele>24.65</ele>
        <time>2018-04-21T18:46:35Z</time>
      </trkpt>
      <trkpt lat="38.11635" lon="13.36992">
        <ele>24.17</ele>
        <time>2018-04-21T18:46:52Z</time>
      </trkpt>
      <trkpt lat="38.1163" lon="13.36982">
        <ele>26.09</ele>
        <time>2018-04-21T18:47:05Z</time>
      </trkpt>
      <trkpt lat="38.1163" lon="13.36979">
        <ele>25.13</ele>
        <time>2018-04-21T18:47:19Z</time>
      </trkpt>
      <trkpt lat="38.11629" lon="13.36977">
        <ele>24.65</ele>
        <time>2018-04-21T18:47:26Z</time>
      </trkpt>
      <trkpt lat="38.11621" lon="13.36969">
        <ele>26.57</ele>
        <time>2018-04-21T18:47:39Z</time>
      </trkpt>
      <trkpt lat="38.11615" lon="13.36945">
        <ele>33.78</ele>
        <time>2018-04-21T18:47:57Z</time>
      </trkpt>
      <trkpt lat="38.11605" lon="13.36933">
        <ele>39.07</ele>
        <time>2018-04-21T18:48:09Z</time>
      </trkpt>
      <trkpt lat="38.11604" lon="13.36922">
        <ele>40.03</ele>
        <time>2018-04-21T18:48:22Z</time>
      </trkpt>
      <trkpt lat="38.116" lon="13.36915">
        <ele>40.51</ele>
        <time>2018-04-21T18:48:29Z</time>
      </trkpt>
      <trkpt lat="38.11591" lon="13.36902">
        <ele>45.32</ele>
        <time>2018-04-21T18:48:47Z</time>
      </trkpt>
      <trkpt lat="38.11581" lon="13.36883">
        <ele>47.72</ele>
        <time>2018-04-21T18:49:07Z</time>
      </trkpt>
      <trkpt lat="38.11574" lon="13.36861">
        <ele>54.45</ele>
        <time>2018-04-21T18:49:24Z</time>
      </trkpt>
      <trkpt lat="38.11564" lon="13.36845">
        <ele>53.49</ele>
        <time>2018-04-21T18:49:41Z</time>
      </trkpt>
      <trkpt lat="38.11559" lon="13.36836">
        <ele>52.05</ele>
        <time>2018-04-21T18:50:01Z</time>
      </trkpt>
      <trkpt lat="38.11556" lon="13.36833">
        <ele>48.68</ele>
        <time>2018-04-21T18:50:05Z</time>
      </trkpt>
      <trkpt lat="38.11545" lon="13.36812">
        <ele>40.03</ele>
        <time>2018-04-21T18:50:22Z</time>
      </trkpt>
      <trkpt lat="38.11539" lon="13.36794">
        <ele>36.19</ele>
        <time>2018-04-21T18:50:43Z</time>
      </trkpt>
      <trkpt lat="38.11531" lon="13.36766">
        <ele>34.74</ele>
        <time>2018-04-21T18:50:59Z</time>
      </trkpt>
      <trkpt lat="38.11521" lon="13.36749">
        <ele>29.46</ele>
        <time>2018-04-21T18:51:13Z</time>
      </trkpt>
      <trkpt lat="38.11517" lon="13.36742">
        <ele>28.98</ele>
        <time>2018-04-21T18:51:23Z</time>
      </trkpt>
      <trkpt lat="38.11513" lon="13.36725">
        <ele>31.86</ele>
        <time>2018-04-21T18:51:40Z</time>
      </trkpt>
      <trkpt lat="38.11509" lon="13.36706">
        <ele>35.23</ele>
        <time>2018-04-21T18:51:55Z</time>
      </trkpt>
      <trkpt lat="38.11505" lon="13.36688">
        <ele>38.59</ele>
        <time>2018-04-21T18:52:10Z</time>
      </trkpt>
      <trkpt lat="38.11506" lon="13.36681">
        <ele>40.99</ele>
        <time>2018-04-21T18:52:24Z</time>
      </trkpt>
      <trkpt lat="38.11503" lon="13.36673">
        <ele>35.23</ele>
        <time>2018-04-21T18:52:50Z</time>
      </trkpt>
      <trkpt lat="38.11496" lon="13.36668">
        <ele>34.26</ele>
        <time>2018-04-21T18:53:04Z</time>
      </trkpt>
      <trkpt lat="38.11471" lon="13.36665">
        <ele>32.34</ele>
        <time>2018-04-21T18:53:22Z</time>
      </trkpt>
      <trkpt lat="38.11466" lon="13.36664">
        <ele>31.86</ele>
        <time>2018-04-21T18:53:27Z</time>
      </trkpt>
      <trkpt lat="38.11457" lon="13.36669">
        <ele>32.34</ele>
        <time>2018-04-21T18:53:39Z</time>
      </trkpt>
      <trkpt lat="38.11446" lon="13.36662">
        <ele>31.86</ele>
        <time>2018-04-21T18:53:51Z</time>
      </trkpt>
      <trkpt lat="38.11436" lon="13.3666">
        <ele>31.38</ele>
        <time>2018-04-21T18:54:01Z</time>
      </trkpt>
      <trkpt lat="38.11422" lon="13.36668">
        <ele>28.02</ele>
        <time>2018-04-21T18:54:13Z</time>
      </trkpt>
      <trkpt lat="38.11417" lon="13.36667">
        <ele>25.61</ele>
        <time>2018-04-21T18:54:24Z</time>
      </trkpt>
      <trkpt lat="38.11417" lon="13.36666">
        <ele>23.69</ele>
        <time>2018-04-21T18:54:37Z</time>
      </trkpt>
      <trkpt lat="38.11415" lon="13.36668">
        <ele>22.25</ele>
        <time>2018-04-21T18:54:45Z</time>
      </trkpt>
      <trkpt lat="38.11418" lon="13.36663">
        <ele>19.36</ele>
        <time>2018-04-21T18:54:53Z</time>
      </trkpt>
      <trkpt lat="38.11405" lon="13.36687">
        <ele>16.96</ele>
        <time>2018-04-21T19:07:15Z</time>
      </trkpt>
      <trkpt lat="38.11411" lon="13.36669">
        <ele>29.46</ele>
        <time>2018-04-21T19:07:24Z</time>
      </trkpt>
      <trkpt lat="38.11409" lon="13.36664">
        <ele>32.82</ele>
        <time>2018-04-21T19:07:34Z</time>
      </trkpt>
      <trkpt lat="38.11405" lon="13.3667">
        <ele>29.46</ele>
        <time>2018-04-21T19:07:47Z</time>
      </trkpt>
      <trkpt lat="38.11404" lon="13.3667">
        <ele>29.94</ele>
        <time>2018-04-21T19:07:48Z</time>
      </trkpt>
      <trkpt lat="38.11395" lon="13.36673">
        <ele>30.9</ele>
        <time>2018-04-21T19:07:59Z</time>
      </trkpt>
      <trkpt lat="38.11388" lon="13.36673">
        <ele>31.86</ele>
        <time>2018-04-21T19:08:06Z</time>
      </trkpt>
      <trkpt lat="38.11376" lon="13.36674">
        <ele>38.11</ele>
        <time>2018-04-21T19:08:18Z</time>
      </trkpt>
      <trkpt lat="38.11362" lon="13.36673">
        <ele>31.86</ele>
        <time>2018-04-21T19:08:33Z</time>
      </trkpt>
      <trkpt lat="38.11359" lon="13.36679">
        <ele>29.94</ele>
        <time>2018-04-21T19:08:39Z</time>
      </trkpt>
      <trkpt lat="38.11346" lon="13.36678">
        <ele>29.94</ele>
        <time>2018-04-21T19:08:51Z</time>
      </trkpt>
      <trkpt lat="38.11334" lon="13.36685">
        <ele>26.09</ele>
        <time>2018-04-21T19:09:03Z</time>
      </trkpt>
      <trkpt lat="38.1133" lon="13.36689">
        <ele>25.13</ele>
        <time>2018-04-21T19:09:06Z</time>
      </trkpt>
      <trkpt lat="38.11314" lon="13.36695">
        <ele>23.21</ele>
        <time>2018-04-21T19:09:21Z</time>
      </trkpt>
      <trkpt lat="38.11312" lon="13.36699">
        <ele>24.17</ele>
        <time>2018-04-21T19:09:24Z</time>
      </trkpt>
      <trkpt lat="38.11295" lon="13.36708">
        <ele>24.17</ele>
        <time>2018-04-21T19:09:39Z</time>
      </trkpt>
      <trkpt lat="38.11287" lon="13.36712">
        <ele>23.21</ele>
        <time>2018-04-21T19:09:49Z</time>
      </trkpt>
      <trkpt lat="38.11279" lon="13.36719">
        <ele>21.29</ele>
        <time>2018-04-21T19:10:04Z</time>
      </trkpt>
      <trkpt lat="38.11279" lon="13.36725">
        <ele>20.81</ele>
        <time>2018-04-21T19:10:07Z</time>
      </trkpt>
      <trkpt lat="38.11264" lon="13.36728">
        <ele>24.65</ele>
        <time>2018-04-21T19:10:21Z</time>
      </trkpt>
      <trkpt lat="38.11242" lon="13.36742">
        <ele>30.42</ele>
        <time>2018-04-21T19:10:36Z</time>
      </trkpt>
      <trkpt lat="38.11228" lon="13.36749">
        <ele>30.9</ele>
        <time>2018-04-21T19:10:51Z</time>
      </trkpt>
      <trkpt lat="38.11215" lon="13.36753">
        <ele>34.26</ele>
        <time>2018-04-21T19:11:05Z</time>
      </trkpt>
      <trkpt lat="38.11205" lon="13.36762">
        <ele>31.38</ele>
        <time>2018-04-21T19:11:16Z</time>
      </trkpt>
      <trkpt lat="38.11194" lon="13.3677">
        <ele>28.98</ele>
        <time>2018-04-21T19:11:30Z</time>
      </trkpt>
      <trkpt lat="38.11186" lon="13.36773">
        <ele>30.9</ele>
        <time>2018-04-21T19:11:43Z</time>
      </trkpt>
      <trkpt lat="38.1117" lon="13.36797">
        <ele>41.47</ele>
        <time>2018-04-21T19:11:58Z</time>
      </trkpt>
      <trkpt lat="38.11162" lon="13.36805">
        <ele>39.55</ele>
        <time>2018-04-21T19:12:13Z</time>
      </trkpt>
      <trkpt lat="38.1116" lon="13.36805">
        <ele>37.63</ele>
        <time>2018-04-21T19:12:32Z</time>
      </trkpt>
      <trkpt lat="38.11154" lon="13.36807">
        <ele>36.67</ele>
        <time>2018-04-21T19:12:48Z</time>
      </trkpt>
      <trkpt lat="38.11151" lon="13.3681">
        <ele>35.71</ele>
        <time>2018-04-21T19:12:59Z</time>
      </trkpt>
      <trkpt lat="38.11145" lon="13.36806">
        <ele>36.19</ele>
        <time>2018-04-21T19:13:09Z</time>
      </trkpt>
      <trkpt lat="38.1113" lon="13.36795">
        <ele>34.74</ele>
        <time>2018-04-21T19:13:22Z</time>
      </trkpt>
      <trkpt lat="38.11125" lon="13.36788">
        <ele>33.3</ele>
        <time>2018-04-21T19:13:30Z</time>
      </trkpt>
      <trkpt lat="38.11123" lon="13.36775">
        <ele>32.34</ele>
        <time>2018-04-21T19:13:42Z</time>
      </trkpt>
      <trkpt lat="38.11119" lon="13.36764">
        <ele>30.9</ele>
        <time>2018-04-21T19:13:52Z</time>
      </trkpt>
      <trkpt lat="38.11116" lon="13.36751">
        <ele>30.42</ele>
        <time>2018-04-21T19:14:02Z</time>
      </trkpt>
      <trkpt lat="38.11114" lon="13.36745">
        <ele>30.42</ele>
        <time>2018-04-21T19:14:09Z</time>
      </trkpt>
      <trkpt lat="38.11107" lon="13.36735">
        <ele>31.38</ele>
        <time>2018-04-21T19:14:16Z</time>
      </trkpt>
      <trkpt lat="38.11097" lon="13.36725">
        <ele>33.3</ele>
        <time>2018-04-21T19:14:29Z</time>
      </trkpt>
      <trkpt lat="38.11096" lon="13.36722">
        <ele>33.78</ele>
        <time>2018-04-21T19:14:31Z</time>
      </trkpt>
      <trkpt lat="38.11097" lon="13.36716">
        <ele>34.26</ele>
        <time>2018-04-21T19:14:35Z</time>
      </trkpt>
      <trkpt lat="38.11094" lon="13.36704">
        <ele>33.78</ele>
        <time>2018-04-21T19:14:44Z</time>
      </trkpt>
      <trkpt lat="38.11085" lon="13.36699">
        <ele>34.26</ele>
        <time>2018-04-21T19:14:51Z</time>
      </trkpt>
      <trkpt lat="38.11087" lon="13.36687">
        <ele>32.82</ele>
        <time>2018-04-21T19:14:57Z</time>
      </trkpt>
      <trkpt lat="38.11067" lon="13.36683">
        <ele>27.05</ele>
        <time>2018-04-21T19:15:10Z</time>
      </trkpt>
      <trkpt lat="38.1105" lon="13.36676">
        <ele>24.17</ele>
        <time>2018-04-21T19:15:25Z</time>
      </trkpt>
      <trkpt lat="38.11039" lon="13.36672">
        <ele>22.73</ele>
        <time>2018-04-21T19:15:37Z</time>
      </trkpt>
      <trkpt lat="38.11035" lon="13.36673">
        <ele>22.73</ele>
        <time>2018-04-21T19:15:49Z</time>
      </trkpt>
      <trkpt lat="38.11028" lon="13.36678">
        <ele>25.61</ele>
        <time>2018-04-21T19:16:04Z</time>
      </trkpt>
      <trkpt lat="38.11026" lon="13.36675">
        <ele>26.09</ele>
        <time>2018-04-21T19:16:08Z</time>
      </trkpt>
      <trkpt lat="38.11016" lon="13.36659">
        <ele>29.46</ele>
        <time>2018-04-21T19:16:24Z</time>
      </trkpt>
      <trkpt lat="38.11012" lon="13.36652">
        <ele>29.46</ele>
        <time>2018-04-21T19:16:30Z</time>
      </trkpt>
      <trkpt lat="38.10993" lon="13.36646">
        <ele>28.5</ele>
        <time>2018-04-21T19:16:39Z</time>
      </trkpt>
      <trkpt lat="38.10991" lon="13.3664">
        <ele>28.98</ele>
        <time>2018-04-21T19:16:43Z</time>
      </trkpt>
      <trkpt lat="38.10985" lon="13.36631">
        <ele>36.19</ele>
        <time>2018-04-21T19:16:58Z</time>
      </trkpt>
      <trkpt lat="38.10984" lon="13.3663">
        <ele>38.59</ele>
        <time>2018-04-21T19:17:04Z</time>
      </trkpt>
      <trkpt lat="38.10987" lon="13.36614">
        <ele>40.03</ele>
        <time>2018-04-21T19:17:11Z</time>
      </trkpt>
      <trkpt lat="38.10977" lon="13.36605">
        <ele>39.55</ele>
        <time>2018-04-21T19:17:19Z</time>
      </trkpt>
      <trkpt lat="38.10974" lon="13.36605">
        <ele>39.55</ele>
        <time>2018-04-21T19:17:21Z</time>
      </trkpt>
      <trkpt lat="38.10968" lon="13.36603">
        <ele>37.15</ele>
        <time>2018-04-21T19:17:26Z</time>
      </trkpt>
      <trkpt lat="38.1096" lon="13.36604">
        <ele>39.55</ele>
        <time>2018-04-21T19:17:34Z</time>
      </trkpt>
      <trkpt lat="38.1095" lon="13.36617">
        <ele>44.84</ele>
        <time>2018-04-21T19:17:49Z</time>
      </trkpt>
      <trkpt lat="38.10942" lon="13.36626">
        <ele>45.8</ele>
        <time>2018-04-21T19:18:02Z</time>
      </trkpt>
      <trkpt lat="38.10928" lon="13.36637">
        <ele>47.24</ele>
        <time>2018-04-21T19:18:16Z</time>
      </trkpt>
      <trkpt lat="38.10921" lon="13.36644">
        <ele>46.76</ele>
        <time>2018-04-21T19:18:27Z</time>
      </trkpt>
      <trkpt lat="38.10905" lon="13.3665">
        <ele>47.72</ele>
        <time>2018-04-21T19:18:39Z</time>
      </trkpt>
      <trkpt lat="38.10899" lon="13.3665">
        <ele>47.72</ele>
        <time>2018-04-21T19:18:44Z</time>
      </trkpt>
      <trkpt lat="38.10887" lon="13.36651">
        <ele>46.28</ele>
        <time>2018-04-21T19:18:53Z</time>
      </trkpt>
      <trkpt lat="38.10881" lon="13.36652">
        <ele>46.28</ele>
        <time>2018-04-21T19:18:58Z</time>
      </trkpt>
      <trkpt lat="38.10863" lon="13.36654">
        <ele>46.76</ele>
        <time>2018-04-21T19:19:10Z</time>
      </trkpt>
      <trkpt lat="38.10855" lon="13.36652">
        <ele>47.24</ele>
        <time>2018-04-21T19:19:17Z</time>
      </trkpt>
      <trkpt lat="38.10851" lon="13.36643">
        <ele>47.24</ele>
        <time>2018-04-21T19:19:22Z</time>
      </trkpt>
      <trkpt lat="38.10843" lon="13.36631">
        <ele>44.84</ele>
        <time>2018-04-21T19:19:35Z</time>
      </trkpt>
      <trkpt lat="38.10851" lon="13.36614">
        <ele>46.76</ele>
        <time>2018-04-21T19:19:49Z</time>
      </trkpt>
      <trkpt lat="38.10853" lon="13.36609">
        <ele>47.72</ele>
        <time>2018-04-21T19:20:08Z</time>
      </trkpt>
      <trkpt lat="38.10854" lon="13.36606">
        <ele>47.72</ele>
        <time>2018-04-21T19:20:24Z</time>
      </trkpt>
      <trkpt lat="38.10854" lon="13.36605">
        <ele>47.24</ele>
        <time>2018-04-21T19:20:45Z</time>
      </trkpt>
      <trkpt lat="38.1084" lon="13.36627">
        <ele>48.68</ele>
        <time>2018-04-21T19:22:35Z</time>
      </trkpt>
      <trkpt lat="38.10836" lon="13.3663">
        <ele>50.13</ele>
        <time>2018-04-21T19:23:03Z</time>
      </trkpt>
      <trkpt lat="38.10836" lon="13.36621">
        <ele>48.68</ele>
        <time>2018-04-21T19:23:32Z</time>
      </trkpt>
      <trkpt lat="38.10842" lon="13.36615">
        <ele>48.2</ele>
        <time>2018-04-21T19:23:53Z</time>
      </trkpt>
    </trkseg>
  </trk>
</gpx>